Check out our new PWSWeather beta!
PWSweather.com
Personal Weather Stations
Station Observations
KOHREFORM1
Reform, Ohio, Newark, OH 43055

Reform, OhioNewark, OH 43055

Lat: 40.1502, Lon: -82.2417

Elevation: 1043

Station Type: Davis Vantage Pro 2 Plus

randysweatheronthehill.com

High Low Average
Temperature 44.6°F7.0°C 29.9°F-1.2°C 36.3°F2.4°C
Dew Point 32.4°F0.2°C 26.1°F-3.3°C 28.9°F-1.7°C
Winds 22.0 mph 35.4 kmh Calm Calm 2.0 mph WSW3.2 kmh WSW
Wind Gusts 22.0 mph35.4 kmh -- 6.0 mph9.7 kmh
Humidity 87% 54% 75%
Pressure 30.38 in1028.8 mb 30.09 in1019.0 mb -
Precipitation 0.00 in0.0 mm - -
Hour Temp Dew Point Humidity Winds Wind Gusts Pressure Precip Precip Rate Daily Precip Total
12:01 AM 36.2°F2.3°C 32.1°F0.1°C 85% 2.0 mph N3.2 kmh N 10.0 mph16.1 kmh 30.10 in1019.3 mb 0.00 in0.0 mm 0.00 in0.0 mm 0.00 in0.0 mm
12:03 AM 36.2°F2.3°C 32.1°F0.1°C 85% 1.0 mph N1.6 kmh N 10.0 mph16.1 kmh 30.10 in1019.3 mb 0.00 in0.0 mm 0.00 in0.0 mm 0.00 in0.0 mm
12:04 AM 36.2°F2.3°C 32.4°F0.2°C 86% 3.0 mph WNW4.8 kmh WNW 10.0 mph16.1 kmh 30.09 in1019.0 mb 0.00 in0.0 mm 0.00 in0.0 mm 0.00 in0.0 mm
12:05 AM 36.2°F2.3°C 32.1°F0.1°C 85% 2.0 mph N3.2 kmh N 10.0 mph16.1 kmh 30.10 in1019.3 mb 0.00 in0.0 mm 0.00 in0.0 mm 0.00 in0.0 mm
12:07 AM 36.2°F2.3°C 31.8°F-0.1°C 84% 22.0 mph N35.4 kmh N 22.0 mph35.4 kmh 30.10 in1019.3 mb 0.00 in0.0 mm 0.00 in0.0 mm 0.00 in0.0 mm
12:09 AM 36.1°F2.3°C 31.7°F-0.2°C 84% 3.0 mph NW4.8 kmh NW 22.0 mph35.4 kmh 30.10 in1019.3 mb 0.00 in0.0 mm 0.00 in0.0 mm 0.00 in0.0 mm
12:11 AM 36.1°F2.3°C 32.0°F0.0°C 85% 3.0 mph N4.8 kmh N 22.0 mph35.4 kmh 30.10 in1019.3 mb 0.00 in0.0 mm 0.00 in0.0 mm 0.00 in0.0 mm
12:14 AM 36.1°F2.3°C 32.0°F0.0°C 85% 1.0 mph N1.6 kmh N 22.0 mph35.4 kmh 30.10 in1019.3 mb 0.00 in0.0 mm 0.00 in0.0 mm 0.00 in0.0 mm
12:16 AM 36.1°F2.3°C 31.7°F-0.2°C 84% 3.0 mph N4.8 kmh N 22.0 mph35.4 kmh 30.10 in1019.3 mb 0.00 in0.0 mm 0.00 in0.0 mm 0.00 in0.0 mm
12:18 AM 36.2°F2.3°C 32.4°F0.2°C 86% 2.0 mph N3.2 kmh N 22.0 mph35.4 kmh 30.10 in1019.3 mb 0.00 in0.0 mm 0.00 in0.0 mm 0.00 in0.0 mm
12:19 AM 36.1°F2.3°C 32.0°F0.0°C 85% 2.0 mph NW3.2 kmh NW 22.0 mph35.4 kmh 30.10 in1019.3 mb 0.00 in0.0 mm 0.00 in0.0 mm 0.00 in0.0 mm
12:20 AM 36.2°F2.3°C 32.1°F0.1°C 85% 4.0 mph N6.4 kmh N 22.0 mph35.4 kmh 30.10 in1019.3 mb 0.00 in0.0 mm 0.00 in0.0 mm 0.00 in0.0 mm
12:22 AM 36.1°F2.3°C 32.0°F0.0°C 85% 3.0 mph N4.8 kmh N 22.0 mph35.4 kmh 30.10 in1019.3 mb 0.00 in0.0 mm 0.00 in0.0 mm 0.00 in0.0 mm
12:24 AM 36.1°F2.3°C 32.0°F0.0°C 85% 3.0 mph WNW4.8 kmh WNW 22.0 mph35.4 kmh 30.10 in1019.3 mb 0.00 in0.0 mm 0.00 in0.0 mm 0.00 in0.0 mm
12:27 AM 36.1°F2.3°C 32.0°F0.0°C 85% 7.0 mph N11.3 kmh N 22.0 mph35.4 kmh 30.10 in1019.3 mb 0.00 in0.0 mm 0.00 in0.0 mm 0.00 in0.0 mm
12:29 AM 36.1°F2.3°C 32.0°F0.0°C 85% 6.0 mph NW9.7 kmh NW 10.0 mph16.1 kmh 30.10 in1019.3 mb 0.00 in0.0 mm 0.00 in0.0 mm 0.00 in0.0 mm
12:31 AM 36.1°F2.3°C 32.0°F0.0°C 85% 2.0 mph N3.2 kmh N 10.0 mph16.1 kmh 30.11 in1019.6 mb 0.00 in0.0 mm 0.00 in0.0 mm 0.00 in0.0 mm
12:33 AM 36.1°F2.3°C 32.3°F0.2°C 86% 4.0 mph N6.4 kmh N 10.0 mph16.1 kmh 30.11 in1019.6 mb 0.00 in0.0 mm 0.00 in0.0 mm 0.00 in0.0 mm
12:34 AM 36.1°F2.3°C 32.0°F0.0°C 85% 3.0 mph NW4.8 kmh NW 10.0 mph16.1 kmh 30.11 in1019.6 mb 0.00 in0.0 mm 0.00 in0.0 mm 0.00 in0.0 mm
12:35 AM 36.1°F2.3°C 31.7°F-0.2°C 84% 1.0 mph N1.6 kmh N 10.0 mph16.1 kmh 30.11 in1019.6 mb 0.00 in0.0 mm 0.00 in0.0 mm 0.00 in0.0 mm
12:37 AM 36.1°F2.3°C 32.0°F0.0°C 85% 4.0 mph N6.4 kmh N 12.0 mph19.3 kmh 30.11 in1019.6 mb 0.00 in0.0 mm 0.00 in0.0 mm 0.00 in0.0 mm
12:39 AM 36.1°F2.3°C 32.0°F0.0°C 85% 3.0 mph WSW4.8 kmh WSW 12.0 mph19.3 kmh 30.11 in1019.6 mb 0.00 in0.0 mm 0.00 in0.0 mm 0.00 in0.0 mm
12:42 AM 36.1°F2.3°C 31.7°F-0.2°C 84% 2.0 mph N3.2 kmh N 12.0 mph19.3 kmh 30.11 in1019.6 mb 0.00 in0.0 mm 0.00 in0.0 mm 0.00 in0.0 mm
12:44 AM 36.0°F2.2°C 31.6°F-0.2°C 84% 4.0 mph WNW6.4 kmh WNW 12.0 mph19.3 kmh 30.11 in1019.6 mb 0.00 in0.0 mm 0.00 in0.0 mm 0.00 in0.0 mm
12:46 AM 36.1°F2.3°C 32.0°F0.0°C 85% 2.0 mph N3.2 kmh N 12.0 mph19.3 kmh 30.12 in1020.0 mb 0.00 in0.0 mm 0.00 in0.0 mm 0.00 in0.0 mm
12:48 AM 36.0°F2.2°C 31.9°F-0.1°C 85% 6.0 mph N9.7 kmh N 12.0 mph19.3 kmh 30.11 in1019.6 mb 0.00 in0.0 mm 0.00 in0.0 mm 0.00 in0.0 mm
12:49 AM 36.0°F2.2°C 31.6°F-0.2°C 84% 4.0 mph WNW6.4 kmh WNW 12.0 mph19.3 kmh 30.11 in1019.6 mb 0.00 in0.0 mm 0.00 in0.0 mm 0.00 in0.0 mm
12:50 AM 36.0°F2.2°C 31.9°F-0.1°C 85% 6.0 mph N9.7 kmh N 12.0 mph19.3 kmh 30.12 in1020.0 mb 0.00 in0.0 mm 0.00 in0.0 mm 0.00 in0.0 mm
12:53 AM 36.0°F2.2°C 31.6°F-0.2°C 84% Calm Calm 12.0 mph19.3 kmh 30.12 in1020.0 mb 0.00 in0.0 mm 0.00 in0.0 mm 0.00 in0.0 mm
12:54 AM 36.0°F2.2°C 31.9°F-0.1°C 85% 3.0 mph W4.8 kmh W 12.0 mph19.3 kmh 30.11 in1019.6 mb 0.00 in0.0 mm 0.00 in0.0 mm 0.00 in0.0 mm
12:55 AM 35.9°F2.2°C 31.8°F-0.1°C 85% 4.0 mph N6.4 kmh N 12.0 mph19.3 kmh 30.11 in1019.6 mb 0.00 in0.0 mm 0.00 in0.0 mm 0.00 in0.0 mm
12:57 AM 35.9°F2.2°C 31.8°F-0.1°C 85% 6.0 mph N9.7 kmh N 9.0 mph14.5 kmh 30.12 in1020.0 mb 0.00 in0.0 mm 0.00 in0.0 mm 0.00 in0.0 mm
12:59 AM 36.0°F2.2°C 31.9°F-0.1°C 85% 1.0 mph NNW1.6 kmh NNW 9.0 mph14.5 kmh 30.11 in1019.6 mb 0.00 in0.0 mm 0.00 in0.0 mm 0.00 in0.0 mm
01:01 AM 35.9°F2.2°C 32.1°F0.1°C 86% 1.0 mph N1.6 kmh N 9.0 mph14.5 kmh 30.12 in1020.0 mb 0.00 in0.0 mm 0.00 in0.0 mm 0.00 in0.0 mm
01:03 AM 35.9°F2.2°C 31.8°F-0.1°C 85% 6.0 mph N9.7 kmh N 9.0 mph14.5 kmh 30.12 in1020.0 mb 0.00 in0.0 mm 0.00 in0.0 mm 0.00 in0.0 mm
01:05 AM 35.8°F2.1°C 31.5°F-0.3°C 84% 2.0 mph N3.2 kmh N 10.0 mph16.1 kmh 30.13 in1020.3 mb 0.00 in0.0 mm 0.00 in0.0 mm 0.00 in0.0 mm
01:07 AM 35.8°F2.1°C 31.5°F-0.3°C 84% 4.0 mph N6.4 kmh N 10.0 mph16.1 kmh 30.13 in1020.3 mb 0.00 in0.0 mm 0.00 in0.0 mm 0.00 in0.0 mm
01:08 AM 35.8°F2.1°C 31.7°F-0.2°C 85% 3.0 mph W4.8 kmh W 10.0 mph16.1 kmh 30.12 in1020.0 mb 0.00 in0.0 mm 0.00 in0.0 mm 0.00 in0.0 mm
01:10 AM 35.8°F2.1°C 31.5°F-0.3°C 84% 3.0 mph N4.8 kmh N 10.0 mph16.1 kmh 30.13 in1020.3 mb 0.00 in0.0 mm 0.00 in0.0 mm 0.00 in0.0 mm
01:12 AM 35.7°F2.1°C 31.6°F-0.2°C 85% 4.0 mph N6.4 kmh N 10.0 mph16.1 kmh 30.13 in1020.3 mb 0.00 in0.0 mm 0.00 in0.0 mm 0.00 in0.0 mm
01:13 AM 35.7°F2.1°C 31.6°F-0.2°C 85% 1.0 mph S1.6 kmh S 10.0 mph16.1 kmh 30.12 in1020.0 mb 0.00 in0.0 mm 0.00 in0.0 mm 0.00 in0.0 mm
01:14 AM 35.7°F2.1°C 31.6°F-0.2°C 85% 5.0 mph N8.0 kmh N 10.0 mph16.1 kmh 30.13 in1020.3 mb 0.00 in0.0 mm 0.00 in0.0 mm 0.00 in0.0 mm
01:16 AM 35.7°F2.1°C 31.6°F-0.2°C 85% 3.0 mph N4.8 kmh N 10.0 mph16.1 kmh 30.13 in1020.3 mb 0.00 in0.0 mm 0.00 in0.0 mm 0.00 in0.0 mm
01:18 AM 35.7°F2.1°C 31.6°F-0.2°C 85% 1.0 mph S1.6 kmh S 10.0 mph16.1 kmh 30.13 in1020.3 mb 0.00 in0.0 mm 0.00 in0.0 mm 0.00 in0.0 mm
01:21 AM 35.7°F2.1°C 31.6°F-0.2°C 85% Calm Calm 13.0 mph20.9 kmh 30.14 in1020.7 mb 0.00 in0.0 mm 0.00 in0.0 mm 0.00 in0.0 mm
01:23 AM 35.7°F2.1°C 31.9°F-0.1°C 86% 3.0 mph N4.8 kmh N 13.0 mph20.9 kmh 30.14 in1020.7 mb 0.00 in0.0 mm 0.00 in0.0 mm 0.00 in0.0 mm
01:25 AM 35.7°F2.1°C 31.6°F-0.2°C 85% 4.0 mph N6.4 kmh N 13.0 mph20.9 kmh 30.14 in1020.7 mb 0.00 in0.0 mm 0.00 in0.0 mm 0.00 in0.0 mm
01:27 AM 35.7°F2.1°C 31.6°F-0.2°C 85% 2.0 mph N3.2 kmh N 13.0 mph20.9 kmh 30.14 in1020.7 mb 0.00 in0.0 mm 0.00 in0.0 mm 0.00 in0.0 mm
01:28 AM 35.7°F2.1°C 31.9°F-0.1°C 86% 2.0 mph W3.2 kmh W 13.0 mph20.9 kmh 30.14 in1020.7 mb 0.00 in0.0 mm 0.00 in0.0 mm 0.00 in0.0 mm
01:29 AM 35.7°F2.1°C 31.9°F-0.1°C 86% 2.0 mph N3.2 kmh N 13.0 mph20.9 kmh 30.14 in1020.7 mb 0.00 in0.0 mm 0.00 in0.0 mm 0.00 in0.0 mm
01:31 AM 35.7°F2.1°C 31.9°F-0.1°C 86% 7.0 mph N11.3 kmh N 13.0 mph20.9 kmh 30.15 in1021.0 mb 0.00 in0.0 mm 0.00 in0.0 mm 0.00 in0.0 mm
01:33 AM 35.7°F2.1°C 31.6°F-0.2°C 85% 6.0 mph W9.7 kmh W 13.0 mph20.9 kmh 30.14 in1020.7 mb 0.00 in0.0 mm 0.00 in0.0 mm 0.00 in0.0 mm
01:36 AM 35.6°F2.0°C 31.5°F-0.3°C 85% 6.0 mph N9.7 kmh N 13.0 mph20.9 kmh 30.15 in1021.0 mb 0.00 in0.0 mm 0.00 in0.0 mm 0.00 in0.0 mm
01:38 AM 35.6°F2.0°C 31.8°F-0.1°C 86% 1.0 mph N1.6 kmh N 13.0 mph20.9 kmh 30.15 in1021.0 mb 0.00 in0.0 mm 0.00 in0.0 mm 0.00 in0.0 mm
01:40 AM 35.5°F1.9°C 31.7°F-0.2°C 86% 4.0 mph N6.4 kmh N 9.0 mph14.5 kmh 30.15 in1021.0 mb 0.00 in0.0 mm 0.00 in0.0 mm 0.00 in0.0 mm
01:42 AM 35.5°F1.9°C 31.7°F-0.2°C 86% 5.0 mph N8.0 kmh N 9.0 mph14.5 kmh 30.16 in1021.3 mb 0.00 in0.0 mm 0.00 in0.0 mm 0.00 in0.0 mm
01:43 AM 35.5°F1.9°C 31.7°F-0.2°C 86% Calm Calm 9.0 mph14.5 kmh 30.16 in1021.3 mb 0.00 in0.0 mm 0.00 in0.0 mm 0.00 in0.0 mm
01:44 AM 35.5°F1.9°C 31.5°F-0.3°C 85% 5.0 mph N8.0 kmh N 9.0 mph14.5 kmh 30.16 in1021.3 mb 0.00 in0.0 mm 0.00 in0.0 mm 0.00 in0.0 mm
01:46 AM 35.5°F1.9°C 31.5°F-0.3°C 85% 4.0 mph N6.4 kmh N 9.0 mph14.5 kmh 30.16 in1021.3 mb 0.00 in0.0 mm 0.00 in0.0 mm 0.00 in0.0 mm
01:48 AM 35.4°F1.9°C 31.6°F-0.2°C 86% 1.0 mph W1.6 kmh W 9.0 mph14.5 kmh 30.16 in1021.3 mb 0.00 in0.0 mm 0.00 in0.0 mm 0.00 in0.0 mm
01:51 AM 35.4°F1.9°C 31.6°F-0.2°C 86% Calm Calm 9.0 mph14.5 kmh 30.16 in1021.3 mb 0.00 in0.0 mm 0.00 in0.0 mm 0.00 in0.0 mm
01:53 AM 35.5°F1.9°C 31.7°F-0.2°C 86% 1.0 mph N1.6 kmh N 9.0 mph14.5 kmh 30.16 in1021.3 mb 0.00 in0.0 mm 0.00 in0.0 mm 0.00 in0.0 mm
01:55 AM 35.4°F1.9°C 31.9°F-0.1°C 87% 4.0 mph N6.4 kmh N 9.0 mph14.5 kmh 30.16 in1021.3 mb 0.00 in0.0 mm 0.00 in0.0 mm 0.00 in0.0 mm
01:57 AM 35.4°F1.9°C 31.6°F-0.2°C 86% 3.0 mph N4.8 kmh N 9.0 mph14.5 kmh 30.16 in1021.3 mb 0.00 in0.0 mm 0.00 in0.0 mm 0.00 in0.0 mm
01:58 AM 35.4°F1.9°C 31.6°F-0.2°C 86% 2.0 mph W3.2 kmh W 9.0 mph14.5 kmh 30.16 in1021.3 mb 0.00 in0.0 mm 0.00 in0.0 mm 0.00 in0.0 mm
01:59 AM 35.4°F1.9°C 31.6°F-0.2°C 86% Calm Calm 9.0 mph14.5 kmh 30.16 in1021.3 mb 0.00 in0.0 mm 0.00 in0.0 mm 0.00 in0.0 mm
02:01 AM 35.4°F1.9°C 31.9°F-0.1°C 87% 1.0 mph N1.6 kmh N 7.0 mph11.3 kmh 30.16 in1021.3 mb 0.00 in0.0 mm 0.00 in0.0 mm 0.00 in0.0 mm
02:03 AM 35.4°F1.9°C 31.6°F-0.2°C 86% 3.0 mph WNW4.8 kmh WNW 7.0 mph11.3 kmh 30.16 in1021.3 mb 0.00 in0.0 mm 0.00 in0.0 mm 0.00 in0.0 mm
02:06 AM 35.4°F1.9°C 31.6°F-0.2°C 86% 4.0 mph N6.4 kmh N 7.0 mph11.3 kmh 30.16 in1021.3 mb 0.00 in0.0 mm 0.00 in0.0 mm 0.00 in0.0 mm
02:08 AM 35.4°F1.9°C 31.6°F-0.2°C 86% 1.0 mph N1.6 kmh N 7.0 mph11.3 kmh 30.17 in1021.7 mb 0.00 in0.0 mm 0.00 in0.0 mm 0.00 in0.0 mm
02:10 AM 35.3°F1.8°C 31.5°F-0.3°C 86% 2.0 mph N3.2 kmh N 13.0 mph20.9 kmh 30.17 in1021.7 mb 0.00 in0.0 mm 0.00 in0.0 mm 0.00 in0.0 mm
02:12 AM 35.3°F1.8°C 31.5°F-0.3°C 86% 2.0 mph N3.2 kmh N 13.0 mph20.9 kmh 30.17 in1021.7 mb 0.00 in0.0 mm 0.00 in0.0 mm 0.00 in0.0 mm
02:13 AM 35.4°F1.9°C 31.6°F-0.2°C 86% 1.0 mph SW1.6 kmh SW 13.0 mph20.9 kmh 30.16 in1021.3 mb 0.00 in0.0 mm 0.00 in0.0 mm 0.00 in0.0 mm
02:14 AM 35.4°F1.9°C 31.6°F-0.2°C 86% 10.0 mph N16.1 kmh N 13.0 mph20.9 kmh 30.17 in1021.7 mb 0.00 in0.0 mm 0.00 in0.0 mm 0.00 in0.0 mm
02:16 AM 35.4°F1.9°C 31.6°F-0.2°C 86% 7.0 mph N11.3 kmh N 13.0 mph20.9 kmh 30.17 in1021.7 mb 0.00 in0.0 mm 0.00 in0.0 mm 0.00 in0.0 mm
02:18 AM 35.3°F1.8°C 31.5°F-0.3°C 86% 2.0 mph WNW3.2 kmh WNW 13.0 mph20.9 kmh 30.16 in1021.3 mb 0.00 in0.0 mm 0.00 in0.0 mm 0.00 in0.0 mm
02:20 AM 35.3°F1.8°C 31.5°F-0.3°C 86% 2.0 mph N3.2 kmh N 13.0 mph20.9 kmh 30.17 in1021.7 mb 0.00 in0.0 mm 0.00 in0.0 mm 0.00 in0.0 mm
02:23 AM 35.3°F1.8°C 31.5°F-0.3°C 86% 2.0 mph N3.2 kmh N 13.0 mph20.9 kmh 30.17 in1021.7 mb 0.00 in0.0 mm 0.00 in0.0 mm 0.00 in0.0 mm
02:25 AM 35.3°F1.8°C 31.5°F-0.3°C 86% 3.0 mph N4.8 kmh N 13.0 mph20.9 kmh 30.17 in1021.7 mb 0.00 in0.0 mm 0.00 in0.0 mm 0.00 in0.0 mm
02:27 AM 35.2°F1.8°C 31.2°F-0.4°C 85% 3.0 mph N4.8 kmh N 13.0 mph20.9 kmh 30.18 in1022.0 mb 0.00 in0.0 mm 0.00 in0.0 mm 0.00 in0.0 mm
02:28 AM 35.2°F1.8°C 31.2°F-0.4°C 85% 3.0 mph NNW4.8 kmh NNW 13.0 mph20.9 kmh 30.17 in1021.7 mb 0.00 in0.0 mm 0.00 in0.0 mm 0.00 in0.0 mm
02:30 AM 35.3°F1.8°C 31.3°F-0.4°C 85% 1.0 mph N1.6 kmh N 7.0 mph11.3 kmh 30.18 in1022.0 mb 0.00 in0.0 mm 0.00 in0.0 mm 0.00 in0.0 mm
02:32 AM 35.2°F1.8°C 31.2°F-0.4°C 85% 3.0 mph N4.8 kmh N 7.0 mph11.3 kmh 30.18 in1022.0 mb 0.00 in0.0 mm 0.00 in0.0 mm 0.00 in0.0 mm
02:33 AM 35.3°F1.8°C 31.5°F-0.3°C 86% 4.0 mph W6.4 kmh W 7.0 mph11.3 kmh 30.17 in1021.7 mb 0.00 in0.0 mm 0.00 in0.0 mm 0.00 in0.0 mm
02:34 AM 35.2°F1.8°C 31.2°F-0.4°C 85% 3.0 mph N4.8 kmh N 7.0 mph11.3 kmh 30.18 in1022.0 mb 0.00 in0.0 mm 0.00 in0.0 mm 0.00 in0.0 mm
02:36 AM 35.2°F1.8°C 31.2°F-0.4°C 85% Calm Calm 8.0 mph12.9 kmh 30.18 in1022.0 mb 0.00 in0.0 mm 0.00 in0.0 mm 0.00 in0.0 mm
02:38 AM 35.2°F1.8°C 31.4°F-0.3°C 86% 3.0 mph W4.8 kmh W 8.0 mph12.9 kmh 30.18 in1022.0 mb 0.00 in0.0 mm 0.00 in0.0 mm 0.00 in0.0 mm
02:40 AM 35.2°F1.8°C 31.4°F-0.3°C 86% 6.0 mph N9.7 kmh N 8.0 mph12.9 kmh 30.18 in1022.0 mb 0.00 in0.0 mm 0.00 in0.0 mm 0.00 in0.0 mm
02:43 AM 35.1°F1.7°C 31.1°F-0.5°C 85% 3.0 mph N4.8 kmh N 8.0 mph12.9 kmh 30.18 in1022.0 mb 0.00 in0.0 mm 0.00 in0.0 mm 0.00 in0.0 mm
02:45 AM 35.1°F1.7°C 31.3°F-0.4°C 86% 9.0 mph N14.5 kmh N 9.0 mph14.5 kmh 30.18 in1022.0 mb 0.00 in0.0 mm 0.00 in0.0 mm 0.00 in0.0 mm
02:47 AM 35.1°F1.7°C 31.3°F-0.4°C 86% 1.0 mph N1.6 kmh N 9.0 mph14.5 kmh 30.18 in1022.0 mb 0.00 in0.0 mm 0.00 in0.0 mm 0.00 in0.0 mm
02:48 AM 35.1°F1.7°C 31.3°F-0.4°C 86% 1.0 mph NW1.6 kmh NW 9.0 mph14.5 kmh 30.18 in1022.0 mb 0.00 in0.0 mm 0.00 in0.0 mm 0.00 in0.0 mm
02:49 AM 35.1°F1.7°C 31.3°F-0.4°C 86% 3.0 mph N4.8 kmh N 9.0 mph14.5 kmh 30.18 in1022.0 mb 0.00 in0.0 mm 0.00 in0.0 mm 0.00 in0.0 mm
02:51 AM 35.0°F1.7°C 31.2°F-0.4°C 86% 3.0 mph N4.8 kmh N 9.0 mph14.5 kmh 30.18 in1022.0 mb 0.00 in0.0 mm 0.00 in0.0 mm 0.00 in0.0 mm
02:53 AM 35.0°F1.7°C 31.2°F-0.4°C 86% 3.0 mph SSE4.8 kmh SSE 15.0 mph24.1 kmh 30.18 in1022.0 mb 0.00 in0.0 mm 0.00 in0.0 mm 0.00 in0.0 mm
02:56 AM 34.9°F1.6°C 30.9°F-0.6°C 85% 1.0 mph N1.6 kmh N 15.0 mph24.1 kmh 30.19 in1022.4 mb 0.00 in0.0 mm 0.00 in0.0 mm 0.00 in0.0 mm
02:58 AM 34.9°F1.6°C 31.2°F-0.4°C 86% 6.0 mph N9.7 kmh N 15.0 mph24.1 kmh 30.19 in1022.4 mb 0.00 in0.0 mm 0.00 in0.0 mm 0.00 in0.0 mm
03:00 AM 34.8°F1.6°C 31.1°F-0.5°C 86% 3.0 mph N4.8 kmh N 15.0 mph24.1 kmh 30.19 in1022.4 mb 0.00 in0.0 mm 0.00 in0.0 mm 0.00 in0.0 mm
03:02 AM 34.9°F1.6°C 30.9°F-0.6°C 85% 3.0 mph N4.8 kmh N 15.0 mph24.1 kmh 30.19 in1022.4 mb 0.00 in0.0 mm 0.00 in0.0 mm 0.00 in0.0 mm
03:03 AM 34.8°F1.6°C 30.8°F-0.7°C 85% 1.0 mph W1.6 kmh W 15.0 mph24.1 kmh 30.18 in1022.0 mb 0.00 in0.0 mm 0.00 in0.0 mm 0.00 in0.0 mm
03:04 AM 34.9°F1.6°C 31.2°F-0.4°C 86% 1.0 mph N1.6 kmh N 15.0 mph24.1 kmh 30.19 in1022.4 mb 0.00 in0.0 mm 0.00 in0.0 mm 0.00 in0.0 mm
03:06 AM 34.9°F1.6°C 31.2°F-0.4°C 86% 2.0 mph N3.2 kmh N 15.0 mph24.1 kmh 30.19 in1022.4 mb 0.00 in0.0 mm 0.00 in0.0 mm 0.00 in0.0 mm
03:08 AM 34.8°F1.6°C 31.3°F-0.4°C 87% 3.0 mph WNW4.8 kmh WNW 15.0 mph24.1 kmh 30.19 in1022.4 mb 0.00 in0.0 mm 0.00 in0.0 mm 0.00 in0.0 mm
03:10 AM 34.9°F1.6°C 31.2°F-0.4°C 86% 1.0 mph N1.6 kmh N 15.0 mph24.1 kmh 30.20 in1022.7 mb 0.00 in0.0 mm 0.00 in0.0 mm 0.00 in0.0 mm
03:12 AM 34.9°F1.6°C 31.4°F-0.3°C 87% 2.0 mph N3.2 kmh N 5.0 mph8.0 kmh 30.20 in1022.7 mb 0.00 in0.0 mm 0.00 in0.0 mm 0.00 in0.0 mm
03:13 AM 34.9°F1.6°C 31.4°F-0.3°C 87% 3.0 mph WSW4.8 kmh WSW 5.0 mph8.0 kmh 30.20 in1022.7 mb 0.00 in0.0 mm 0.00 in0.0 mm 0.00 in0.0 mm
03:15 AM 34.9°F1.6°C 31.2°F-0.4°C 86% 2.0 mph N3.2 kmh N 9.0 mph14.5 kmh 30.20 in1022.7 mb 0.00 in0.0 mm 0.00 in0.0 mm 0.00 in0.0 mm
03:17 AM 34.8°F1.6°C 30.8°F-0.7°C 85% 2.0 mph N3.2 kmh N 9.0 mph14.5 kmh 30.20 in1022.7 mb 0.00 in0.0 mm 0.00 in0.0 mm 0.00 in0.0 mm
03:18 AM 34.8°F1.6°C 30.8°F-0.7°C 85% 2.0 mph NNW3.2 kmh NNW 9.0 mph14.5 kmh 30.20 in1022.7 mb 0.00 in0.0 mm 0.00 in0.0 mm 0.00 in0.0 mm
03:19 AM 34.7°F1.5°C 31.0°F-0.6°C 86% 4.0 mph N6.4 kmh N 9.0 mph14.5 kmh 30.20 in1022.7 mb 0.00 in0.0 mm 0.00 in0.0 mm 0.00 in0.0 mm
03:21 AM 34.7°F1.5°C 31.0°F-0.6°C 86% 7.0 mph N11.3 kmh N 9.0 mph14.5 kmh 30.20 in1022.7 mb 0.00 in0.0 mm 0.00 in0.0 mm 0.00 in0.0 mm
03:23 AM 34.6°F1.4°C 30.9°F-0.6°C 86% 2.0 mph SW3.2 kmh SW 9.0 mph14.5 kmh 30.20 in1022.7 mb 0.00 in0.0 mm 0.00 in0.0 mm 0.00 in0.0 mm
03:25 AM 34.6°F1.4°C 30.9°F-0.6°C 86% 4.0 mph N6.4 kmh N 9.0 mph14.5 kmh 30.20 in1022.7 mb 0.00 in0.0 mm 0.00 in0.0 mm 0.00 in0.0 mm
03:27 AM 34.6°F1.4°C 30.9°F-0.6°C 86% 2.0 mph N3.2 kmh N 9.0 mph14.5 kmh 30.20 in1022.7 mb 0.00 in0.0 mm 0.00 in0.0 mm 0.00 in0.0 mm
03:28 AM 34.5°F1.4°C 30.8°F-0.7°C 86% 1.0 mph WNW1.6 kmh WNW 9.0 mph14.5 kmh 30.20 in1022.7 mb 0.00 in0.0 mm 0.00 in0.0 mm 0.00 in0.0 mm
03:29 AM 34.5°F1.4°C 31.0°F-0.6°C 87% Calm Calm 9.0 mph14.5 kmh 30.21 in1023.0 mb 0.00 in0.0 mm 0.00 in0.0 mm 0.00 in0.0 mm
03:31 AM 34.5°F1.4°C 30.8°F-0.7°C 86% 2.0 mph N3.2 kmh N 9.0 mph14.5 kmh 30.20 in1022.7 mb 0.00 in0.0 mm 0.00 in0.0 mm 0.00 in0.0 mm
03:32 AM 34.4°F1.3°C 30.7°F-0.7°C 86% 4.0 mph SSW6.4 kmh SSW 9.0 mph14.5 kmh 30.20 in1022.7 mb 0.00 in0.0 mm 0.00 in0.0 mm 0.00 in0.0 mm
03:33 AM 34.4°F1.3°C 30.7°F-0.7°C 86% 3.0 mph N4.8 kmh N 9.0 mph14.5 kmh 30.20 in1022.7 mb 0.00 in0.0 mm 0.00 in0.0 mm 0.00 in0.0 mm
03:36 AM 34.4°F1.3°C 30.7°F-0.7°C 86% 2.0 mph N3.2 kmh N 9.0 mph14.5 kmh 30.21 in1023.0 mb 0.00 in0.0 mm 0.00 in0.0 mm 0.00 in0.0 mm
03:37 AM 34.4°F1.3°C 30.4°F-0.9°C 85% 1.0 mph E1.6 kmh E 9.0 mph14.5 kmh 30.20 in1022.7 mb 0.00 in0.0 mm 0.00 in0.0 mm 0.00 in0.0 mm
03:38 AM 34.4°F1.3°C 30.4°F-0.9°C 85% 1.0 mph N1.6 kmh N 9.0 mph14.5 kmh 30.21 in1023.0 mb 0.00 in0.0 mm 0.00 in0.0 mm 0.00 in0.0 mm
03:40 AM 34.5°F1.4°C 30.8°F-0.7°C 86% 1.0 mph N1.6 kmh N 9.0 mph14.5 kmh 30.21 in1023.0 mb 0.00 in0.0 mm 0.00 in0.0 mm 0.00 in0.0 mm
03:42 AM 34.5°F1.4°C 30.8°F-0.7°C 86% 2.0 mph N3.2 kmh N 9.0 mph14.5 kmh 30.21 in1023.0 mb 0.00 in0.0 mm 0.00 in0.0 mm 0.00 in0.0 mm
03:44 AM 34.5°F1.4°C 30.8°F-0.7°C 86% 2.0 mph N3.2 kmh N 9.0 mph14.5 kmh 30.21 in1023.0 mb 0.00 in0.0 mm 0.00 in0.0 mm 0.00 in0.0 mm
03:46 AM 34.6°F1.4°C 30.9°F-0.6°C 86% 2.0 mph N3.2 kmh N 9.0 mph14.5 kmh 30.21 in1023.0 mb 0.00 in0.0 mm 0.00 in0.0 mm 0.00 in0.0 mm
03:47 AM 34.6°F1.4°C 30.9°F-0.6°C 86% 4.0 mph WSW6.4 kmh WSW 6.0 mph9.7 kmh 30.21 in1023.0 mb 0.00 in0.0 mm 0.00 in0.0 mm 0.00 in0.0 mm
03:49 AM 34.5°F1.4°C 30.5°F-0.8°C 85% 2.0 mph N3.2 kmh N 7.0 mph11.3 kmh 30.21 in1023.0 mb 0.00 in0.0 mm 0.00 in0.0 mm 0.00 in0.0 mm
03:51 AM 34.6°F1.4°C 30.6°F-0.8°C 85% 3.0 mph N4.8 kmh N 7.0 mph11.3 kmh 30.21 in1023.0 mb 0.00 in0.0 mm 0.00 in0.0 mm 0.00 in0.0 mm
03:52 AM 34.6°F1.4°C 30.3°F-0.9°C 84% 2.0 mph NW3.2 kmh NW 8.0 mph12.9 kmh 30.21 in1023.0 mb 0.00 in0.0 mm 0.00 in0.0 mm 0.00 in0.0 mm
03:53 AM 34.6°F1.4°C 30.3°F-0.9°C 84% 2.0 mph N3.2 kmh N 8.0 mph12.9 kmh 30.22 in1023.4 mb 0.00 in0.0 mm 0.00 in0.0 mm 0.00 in0.0 mm
03:55 AM 34.6°F1.4°C 30.6°F-0.8°C 85% 2.0 mph N3.2 kmh N 8.0 mph12.9 kmh 30.22 in1023.4 mb 0.00 in0.0 mm 0.00 in0.0 mm 0.00 in0.0 mm
03:57 AM 34.6°F1.4°C 30.6°F-0.8°C 85% 3.0 mph NW4.8 kmh NW 8.0 mph12.9 kmh 30.22 in1023.4 mb 0.00 in0.0 mm 0.00 in0.0 mm 0.00 in0.0 mm
03:59 AM 34.6°F1.4°C 30.6°F-0.8°C 85% 4.0 mph N6.4 kmh N 8.0 mph12.9 kmh 30.22 in1023.4 mb 0.00 in0.0 mm 0.00 in0.0 mm 0.00 in0.0 mm
04:02 AM 34.6°F1.4°C 30.6°F-0.8°C 85% 2.0 mph N3.2 kmh N 8.0 mph12.9 kmh 30.22 in1023.4 mb 0.00 in0.0 mm 0.00 in0.0 mm 0.00 in0.0 mm
04:04 AM 34.6°F1.4°C 30.6°F-0.8°C 85% 5.0 mph N8.0 kmh N 8.0 mph12.9 kmh 30.22 in1023.4 mb 0.00 in0.0 mm 0.00 in0.0 mm 0.00 in0.0 mm
04:06 AM 34.6°F1.4°C 30.3°F-0.9°C 84% 3.0 mph N4.8 kmh N 8.0 mph12.9 kmh 30.22 in1023.4 mb 0.00 in0.0 mm 0.00 in0.0 mm 0.00 in0.0 mm
04:07 AM 34.6°F1.4°C 30.3°F-0.9°C 84% 4.0 mph NW6.4 kmh NW 8.0 mph12.9 kmh 30.22 in1023.4 mb 0.00 in0.0 mm 0.00 in0.0 mm 0.00 in0.0 mm
04:08 AM 34.6°F1.4°C 30.6°F-0.8°C 85% 2.0 mph N3.2 kmh N 8.0 mph12.9 kmh 30.22 in1023.4 mb 0.00 in0.0 mm 0.00 in0.0 mm 0.00 in0.0 mm
04:10 AM 34.6°F1.4°C 30.3°F-0.9°C 84% 1.0 mph N1.6 kmh N 8.0 mph12.9 kmh 30.22 in1023.4 mb 0.00 in0.0 mm 0.00 in0.0 mm 0.00 in0.0 mm
04:12 AM 34.7°F1.5°C 30.7°F-0.7°C 85% 3.0 mph WSW4.8 kmh WSW 6.0 mph9.7 kmh 30.22 in1023.4 mb 0.00 in0.0 mm 0.00 in0.0 mm 0.00 in0.0 mm
04:14 AM 34.6°F1.4°C 30.6°F-0.8°C 85% Calm Calm 6.0 mph9.7 kmh 30.22 in1023.4 mb 0.00 in0.0 mm 0.00 in0.0 mm 0.00 in0.0 mm
04:17 AM 34.6°F1.4°C 30.6°F-0.8°C 85% 2.0 mph N3.2 kmh N 6.0 mph9.7 kmh 30.22 in1023.4 mb 0.00 in0.0 mm 0.00 in0.0 mm 0.00 in0.0 mm
04:19 AM 34.6°F1.4°C 30.6°F-0.8°C 85% 2.0 mph N3.2 kmh N 9.0 mph14.5 kmh 30.22 in1023.4 mb 0.00 in0.0 mm 0.00 in0.0 mm 0.00 in0.0 mm
04:21 AM 34.6°F1.4°C 30.3°F-0.9°C 84% 4.0 mph N6.4 kmh N 9.0 mph14.5 kmh 30.23 in1023.7 mb 0.00 in0.0 mm 0.00 in0.0 mm 0.00 in0.0 mm
04:22 AM 34.5°F1.4°C 30.2°F-1.0°C 84% 3.0 mph W4.8 kmh W 9.0 mph14.5 kmh 30.23 in1023.7 mb 0.00 in0.0 mm 0.00 in0.0 mm 0.00 in0.0 mm
04:23 AM 34.6°F1.4°C 30.3°F-0.9°C 84% 1.0 mph N1.6 kmh N 9.0 mph14.5 kmh 30.23 in1023.7 mb 0.00 in0.0 mm 0.00 in0.0 mm 0.00 in0.0 mm
04:25 AM 34.5°F1.4°C 30.5°F-0.8°C 85% 1.0 mph N1.6 kmh N 9.0 mph14.5 kmh 30.23 in1023.7 mb 0.00 in0.0 mm 0.00 in0.0 mm 0.00 in0.0 mm
04:27 AM 34.6°F1.4°C 30.3°F-0.9°C 84% 2.0 mph W3.2 kmh W 9.0 mph14.5 kmh 30.23 in1023.7 mb 0.00 in0.0 mm 0.00 in0.0 mm 0.00 in0.0 mm
04:29 AM 34.5°F1.4°C 30.2°F-1.0°C 84% 2.0 mph N3.2 kmh N 12.0 mph19.3 kmh 30.23 in1023.7 mb 0.00 in0.0 mm 0.00 in0.0 mm 0.00 in0.0 mm
04:31 AM 34.5°F1.4°C 30.2°F-1.0°C 84% 2.0 mph N3.2 kmh N 12.0 mph19.3 kmh 30.23 in1023.7 mb 0.00 in0.0 mm 0.00 in0.0 mm 0.00 in0.0 mm
04:32 AM 34.5°F1.4°C 29.9°F-1.2°C 83% 3.0 mph WSW4.8 kmh WSW 12.0 mph19.3 kmh 30.23 in1023.7 mb 0.00 in0.0 mm 0.00 in0.0 mm 0.00 in0.0 mm
04:33 AM 34.4°F1.3°C 30.1°F-1.1°C 84% Calm Calm 12.0 mph19.3 kmh 30.24 in1024.0 mb 0.00 in0.0 mm 0.00 in0.0 mm 0.00 in0.0 mm
04:36 AM 34.4°F1.3°C 30.1°F-1.1°C 84% 4.0 mph N6.4 kmh N 12.0 mph19.3 kmh 30.24 in1024.0 mb 0.00 in0.0 mm 0.00 in0.0 mm 0.00 in0.0 mm
04:37 AM 34.4°F1.3°C 30.1°F-1.1°C 84% 8.0 mph WNW12.9 kmh WNW 12.0 mph19.3 kmh 30.24 in1024.0 mb 0.00 in0.0 mm 0.00 in0.0 mm 0.00 in0.0 mm
04:38 AM 34.4°F1.3°C 30.1°F-1.1°C 84% 4.0 mph N6.4 kmh N 12.0 mph19.3 kmh 30.24 in1024.0 mb 0.00 in0.0 mm 0.00 in0.0 mm 0.00 in0.0 mm
04:40 AM 34.4°F1.3°C 30.4°F-0.9°C 85% Calm Calm 12.0 mph19.3 kmh 30.24 in1024.0 mb 0.00 in0.0 mm 0.00 in0.0 mm 0.00 in0.0 mm
04:42 AM 34.4°F1.3°C 30.1°F-1.1°C 84% 3.0 mph WSW4.8 kmh WSW 12.0 mph19.3 kmh 30.24 in1024.0 mb 0.00 in0.0 mm 0.00 in0.0 mm 0.00 in0.0 mm
04:43 AM 34.4°F1.3°C 30.1°F-1.1°C 84% 1.0 mph N1.6 kmh N 12.0 mph19.3 kmh 30.25 in1024.4 mb 0.00 in0.0 mm 0.00 in0.0 mm 0.00 in0.0 mm
04:45 AM 34.4°F1.3°C 30.1°F-1.1°C 84% 4.0 mph N6.4 kmh N 12.0 mph19.3 kmh 30.24 in1024.0 mb 0.00 in0.0 mm 0.00 in0.0 mm 0.00 in0.0 mm
04:47 AM 34.3°F1.3°C 30.0°F-1.1°C 84% Calm Calm 12.0 mph19.3 kmh 30.24 in1024.0 mb 0.00 in0.0 mm 0.00 in0.0 mm 0.00 in0.0 mm
04:49 AM 34.3°F1.3°C 30.3°F-0.9°C 85% 2.0 mph N3.2 kmh N 10.0 mph16.1 kmh 30.25 in1024.4 mb 0.00 in0.0 mm 0.00 in0.0 mm 0.00 in0.0 mm
04:51 AM 34.3°F1.3°C 30.3°F-0.9°C 85% 1.0 mph N1.6 kmh N 10.0 mph16.1 kmh 30.25 in1024.4 mb 0.00 in0.0 mm 0.00 in0.0 mm 0.00 in0.0 mm
04:52 AM 34.3°F1.3°C 30.3°F-0.9°C 85% 1.0 mph W1.6 kmh W 10.0 mph16.1 kmh 30.25 in1024.4 mb 0.00 in0.0 mm 0.00 in0.0 mm 0.00 in0.0 mm
04:54 AM 34.3°F1.3°C 30.6°F-0.8°C 86% 6.0 mph N9.7 kmh N 10.0 mph16.1 kmh 30.25 in1024.4 mb 0.00 in0.0 mm 0.00 in0.0 mm 0.00 in0.0 mm
04:56 AM 34.1°F1.2°C 30.1°F-1.1°C 85% 2.0 mph N3.2 kmh N 10.0 mph16.1 kmh 30.25 in1024.4 mb 0.00 in0.0 mm 0.00 in0.0 mm 0.00 in0.0 mm
04:57 AM 34.1°F1.2°C 30.1°F-1.1°C 85% 1.0 mph S1.6 kmh S 10.0 mph16.1 kmh 30.25 in1024.4 mb 0.00 in0.0 mm 0.00 in0.0 mm 0.00 in0.0 mm
04:58 AM 34.1°F1.2°C 29.8°F-1.2°C 84% 6.0 mph N9.7 kmh N 7.0 mph11.3 kmh 30.25 in1024.4 mb 0.00 in0.0 mm 0.00 in0.0 mm 0.00 in0.0 mm
05:00 AM 34.1°F1.2°C 29.8°F-1.2°C 84% 2.0 mph N3.2 kmh N 7.0 mph11.3 kmh 30.25 in1024.4 mb 0.00 in0.0 mm 0.00 in0.0 mm 0.00 in0.0 mm
05:02 AM 34.0°F1.1°C 29.7°F-1.3°C 84% 1.0 mph WSW1.6 kmh WSW 8.0 mph12.9 kmh 30.25 in1024.4 mb 0.00 in0.0 mm 0.00 in0.0 mm 0.00 in0.0 mm
05:03 AM 34.0°F1.1°C 30.0°F-1.1°C 85% 3.0 mph N4.8 kmh N 8.0 mph12.9 kmh 30.25 in1024.4 mb 0.00 in0.0 mm 0.00 in0.0 mm 0.00 in0.0 mm
05:05 AM 34.0°F1.1°C 29.7°F-1.3°C 84% 2.0 mph N3.2 kmh N 8.0 mph12.9 kmh 30.26 in1024.7 mb 0.00 in0.0 mm 0.00 in0.0 mm 0.00 in0.0 mm
05:07 AM 33.9°F1.1°C 29.6°F-1.3°C 84% 3.0 mph W4.8 kmh W 8.0 mph12.9 kmh 30.25 in1024.4 mb 0.00 in0.0 mm 0.00 in0.0 mm 0.00 in0.0 mm
05:09 AM 33.9°F1.1°C 29.6°F-1.3°C 84% 2.0 mph N3.2 kmh N 8.0 mph12.9 kmh 30.26 in1024.7 mb 0.00 in0.0 mm 0.00 in0.0 mm 0.00 in0.0 mm
05:12 AM 33.9°F1.1°C 29.6°F-1.3°C 84% 4.0 mph N6.4 kmh N 9.0 mph14.5 kmh 30.26 in1024.7 mb 0.00 in0.0 mm 0.00 in0.0 mm 0.00 in0.0 mm
05:14 AM 33.9°F1.1°C 29.6°F-1.3°C 84% 1.0 mph N1.6 kmh N 9.0 mph14.5 kmh 30.26 in1024.7 mb 0.00 in0.0 mm 0.00 in0.0 mm 0.00 in0.0 mm
05:16 AM 33.9°F1.1°C 29.6°F-1.3°C 84% Calm Calm 9.0 mph14.5 kmh 30.26 in1024.7 mb 0.00 in0.0 mm 0.00 in0.0 mm 0.00 in0.0 mm
05:17 AM 33.9°F1.1°C 29.9°F-1.2°C 85% 1.0 mph WSW1.6 kmh WSW 9.0 mph14.5 kmh 30.26 in1024.7 mb 0.00 in0.0 mm 0.00 in0.0 mm 0.00 in0.0 mm
05:18 AM 33.9°F1.1°C 29.9°F-1.2°C 85% 1.0 mph N1.6 kmh N 9.0 mph14.5 kmh 30.26 in1024.7 mb 0.00 in0.0 mm 0.00 in0.0 mm 0.00 in0.0 mm
05:20 AM 33.9°F1.1°C 29.9°F-1.2°C 85% 2.0 mph N3.2 kmh N 9.0 mph14.5 kmh 30.26 in1024.7 mb 0.00 in0.0 mm 0.00 in0.0 mm 0.00 in0.0 mm
05:22 AM 33.9°F1.1°C 29.6°F-1.3°C 84% 6.0 mph W9.7 kmh W 9.0 mph14.5 kmh 30.26 in1024.7 mb 0.00 in0.0 mm 0.00 in0.0 mm 0.00 in0.0 mm
05:24 AM 33.9°F1.1°C 29.6°F-1.3°C 84% 3.0 mph N4.8 kmh N 9.0 mph14.5 kmh 30.27 in1025.1 mb 0.00 in0.0 mm 0.00 in0.0 mm 0.00 in0.0 mm
05:26 AM 33.8°F1.0°C 29.5°F-1.4°C 84% 3.0 mph N4.8 kmh N 9.0 mph14.5 kmh 30.27 in1025.1 mb 0.00 in0.0 mm 0.00 in0.0 mm 0.00 in0.0 mm
05:27 AM 33.8°F1.0°C 29.5°F-1.4°C 84% 2.0 mph WNW3.2 kmh WNW 9.0 mph14.5 kmh 30.26 in1024.7 mb 0.00 in0.0 mm 0.00 in0.0 mm 0.00 in0.0 mm
05:29 AM 33.7°F0.9°C 29.4°F-1.4°C 84% 1.0 mph N1.6 kmh N 9.0 mph14.5 kmh 30.27 in1025.1 mb 0.00 in0.0 mm 0.00 in0.0 mm 0.00 in0.0 mm
05:31 AM 33.7°F0.9°C 29.4°F-1.4°C 84% 3.0 mph N4.8 kmh N 9.0 mph14.5 kmh 30.27 in1025.1 mb 0.00 in0.0 mm 0.00 in0.0 mm 0.00 in0.0 mm
05:32 AM 33.7°F0.9°C 29.1°F-1.6°C 83% 2.0 mph W3.2 kmh W 9.0 mph14.5 kmh 30.27 in1025.1 mb 0.00 in0.0 mm 0.00 in0.0 mm 0.00 in0.0 mm
05:33 AM 33.7°F0.9°C 29.4°F-1.4°C 84% 3.0 mph N4.8 kmh N 10.0 mph16.1 kmh 30.27 in1025.1 mb 0.00 in0.0 mm 0.00 in0.0 mm 0.00 in0.0 mm
05:36 AM 33.6°F0.9°C 29.3°F-1.5°C 84% 2.0 mph N3.2 kmh N 10.0 mph16.1 kmh 30.27 in1025.1 mb 0.00 in0.0 mm 0.00 in0.0 mm 0.00 in0.0 mm
05:37 AM 33.6°F0.9°C 29.3°F-1.5°C 84% 2.0 mph W3.2 kmh W 10.0 mph16.1 kmh 30.27 in1025.1 mb 0.00 in0.0 mm 0.00 in0.0 mm 0.00 in0.0 mm
05:38 AM 33.6°F0.9°C 29.6°F-1.3°C 85% Calm Calm 10.0 mph16.1 kmh 30.27 in1025.1 mb 0.00 in0.0 mm 0.00 in0.0 mm 0.00 in0.0 mm
05:40 AM 33.6°F0.9°C 29.6°F-1.3°C 85% 2.0 mph N3.2 kmh N 10.0 mph16.1 kmh 30.27 in1025.1 mb 0.00 in0.0 mm 0.00 in0.0 mm 0.00 in0.0 mm
05:42 AM 33.6°F0.9°C 29.3°F-1.5°C 84% 1.0 mph SW1.6 kmh SW 10.0 mph16.1 kmh 30.27 in1025.1 mb 0.00 in0.0 mm 0.00 in0.0 mm 0.00 in0.0 mm
05:44 AM 33.5°F0.8°C 29.2°F-1.6°C 84% Calm Calm 10.0 mph16.1 kmh 30.27 in1025.1 mb 0.00 in0.0 mm 0.00 in0.0 mm 0.00 in0.0 mm
05:47 AM 33.5°F0.8°C 29.2°F-1.6°C 84% 1.0 mph WSW1.6 kmh WSW 10.0 mph16.1 kmh 30.27 in1025.1 mb 0.00 in0.0 mm 0.00 in0.0 mm 0.00 in0.0 mm
05:49 AM 33.5°F0.8°C 29.5°F-1.4°C 85% Calm Calm 10.0 mph16.1 kmh 30.27 in1025.1 mb 0.00 in0.0 mm 0.00 in0.0 mm 0.00 in0.0 mm
05:51 AM 33.5°F0.8°C 29.2°F-1.6°C 84% 2.0 mph N3.2 kmh N 10.0 mph16.1 kmh 30.27 in1025.1 mb 0.00 in0.0 mm 0.00 in0.0 mm 0.00 in0.0 mm
05:52 AM 33.5°F0.8°C 29.2°F-1.6°C 84% 3.0 mph NW4.8 kmh NW 10.0 mph16.1 kmh 30.27 in1025.1 mb 0.00 in0.0 mm 0.00 in0.0 mm 0.00 in0.0 mm
05:53 AM 33.5°F0.8°C 28.9°F-1.7°C 83% 1.0 mph N1.6 kmh N 10.0 mph16.1 kmh 30.27 in1025.1 mb 0.00 in0.0 mm 0.00 in0.0 mm 0.00 in0.0 mm
05:55 AM 33.4°F0.8°C 28.8°F-1.8°C 83% 2.0 mph N3.2 kmh N 8.0 mph12.9 kmh 30.27 in1025.1 mb 0.00 in0.0 mm 0.00 in0.0 mm 0.00 in0.0 mm
05:57 AM 33.4°F0.8°C 29.1°F-1.6°C 84% Calm Calm 8.0 mph12.9 kmh 30.27 in1025.1 mb 0.00 in0.0 mm 0.00 in0.0 mm 0.00 in0.0 mm
05:59 AM 33.4°F0.8°C 29.1°F-1.6°C 84% 1.0 mph N1.6 kmh N 8.0 mph12.9 kmh 30.28 in1025.4 mb 0.00 in0.0 mm 0.00 in0.0 mm 0.00 in0.0 mm
06:01 AM 33.4°F0.8°C 28.8°F-1.8°C 83% 3.0 mph NW4.8 kmh NW 8.0 mph12.9 kmh 30.27 in1025.1 mb 0.00 in0.0 mm 0.00 in0.0 mm 0.00 in0.0 mm
06:02 AM 33.4°F0.8°C 28.8°F-1.8°C 83% 1.0 mph N1.6 kmh N 8.0 mph12.9 kmh 30.28 in1025.4 mb 0.00 in0.0 mm 0.00 in0.0 mm 0.00 in0.0 mm
06:04 AM 33.4°F0.8°C 28.8°F-1.8°C 83% 1.0 mph N1.6 kmh N 8.0 mph12.9 kmh 30.28 in1025.4 mb 0.00 in0.0 mm 0.00 in0.0 mm 0.00 in0.0 mm
06:06 AM 33.3°F0.7°C 28.1°F-2.2°C 81% 7.0 mph N11.3 kmh N 8.0 mph12.9 kmh 30.28 in1025.4 mb 0.00 in0.0 mm 0.00 in0.0 mm 0.00 in0.0 mm
06:08 AM 33.2°F0.7°C 28.0°F-2.2°C 81% 1.0 mph N1.6 kmh N 9.0 mph14.5 kmh 30.28 in1025.4 mb 0.00 in0.0 mm 0.00 in0.0 mm 0.00 in0.0 mm
06:10 AM 33.2°F0.7°C 27.7°F-2.4°C 80% 3.0 mph N4.8 kmh N 9.0 mph14.5 kmh 30.28 in1025.4 mb 0.00 in0.0 mm 0.00 in0.0 mm 0.00 in0.0 mm
06:11 AM 33.2°F0.7°C 27.7°F-2.4°C 80% 3.0 mph W4.8 kmh W 9.0 mph14.5 kmh 30.27 in1025.1 mb 0.00 in0.0 mm 0.00 in0.0 mm 0.00 in0.0 mm
06:12 AM 33.1°F0.6°C 27.0°F-2.8°C 78% 1.0 mph N1.6 kmh N 9.0 mph14.5 kmh 30.28 in1025.4 mb 0.00 in0.0 mm 0.00 in0.0 mm 0.00 in0.0 mm
06:15 AM 33.1°F0.6°C 27.3°F-2.6°C 79% 4.0 mph N6.4 kmh N 9.0 mph14.5 kmh 30.28 in1025.4 mb 0.00 in0.0 mm 0.00 in0.0 mm 0.00 in0.0 mm
06:16 AM 33.0°F0.6°C 26.9°F-2.8°C 78% 1.0 mph WSW1.6 kmh WSW 9.0 mph14.5 kmh 30.28 in1025.4 mb 0.00 in0.0 mm 0.00 in0.0 mm 0.00 in0.0 mm
06:17 AM 33.0°F0.6°C 26.9°F-2.8°C 78% 4.0 mph N6.4 kmh N 9.0 mph14.5 kmh 30.28 in1025.4 mb 0.00 in0.0 mm 0.00 in0.0 mm 0.00 in0.0 mm
06:19 AM 32.9°F0.5°C 26.8°F-2.9°C 78% 1.0 mph N1.6 kmh N 9.0 mph14.5 kmh 30.28 in1025.4 mb 0.00 in0.0 mm 0.00 in0.0 mm 0.00 in0.0 mm
06:21 AM 32.9°F0.5°C 26.8°F-2.9°C 78% 2.0 mph N3.2 kmh N 9.0 mph14.5 kmh 30.29 in1025.7 mb 0.00 in0.0 mm 0.00 in0.0 mm 0.00 in0.0 mm
06:23 AM 32.9°F0.5°C 26.5°F-3.1°C 77% 1.0 mph N1.6 kmh N 9.0 mph14.5 kmh 30.29 in1025.7 mb 0.00 in0.0 mm 0.00 in0.0 mm 0.00 in0.0 mm
06:25 AM 32.9°F0.5°C 26.8°F-2.9°C 78% 3.0 mph N4.8 kmh N 9.0 mph14.5 kmh 30.29 in1025.7 mb 0.00 in0.0 mm 0.00 in0.0 mm 0.00 in0.0 mm
06:26 AM 32.8°F0.4°C 26.7°F-2.9°C 78% 4.0 mph NW6.4 kmh NW 9.0 mph14.5 kmh 30.29 in1025.7 mb 0.00 in0.0 mm 0.00 in0.0 mm 0.00 in0.0 mm
06:27 AM 32.8°F0.4°C 26.4°F-3.1°C 77% 2.0 mph N3.2 kmh N 9.0 mph14.5 kmh 30.29 in1025.7 mb 0.00 in0.0 mm 0.00 in0.0 mm 0.00 in0.0 mm
06:30 AM 32.8°F0.4°C 26.7°F-2.9°C 78% 1.0 mph N1.6 kmh N 9.0 mph14.5 kmh 30.29 in1025.7 mb 0.00 in0.0 mm 0.00 in0.0 mm 0.00 in0.0 mm
06:31 AM 32.8°F0.4°C 26.7°F-2.9°C 78% 1.0 mph SSE1.6 kmh SSE 9.0 mph14.5 kmh 30.29 in1025.7 mb 0.00 in0.0 mm 0.00 in0.0 mm 0.00 in0.0 mm
06:32 AM 32.8°F0.4°C 26.7°F-2.9°C 78% 1.0 mph N1.6 kmh N 9.0 mph14.5 kmh 30.29 in1025.7 mb 0.00 in0.0 mm 0.00 in0.0 mm 0.00 in0.0 mm
06:34 AM 32.8°F0.4°C 26.7°F-2.9°C 78% 3.0 mph N4.8 kmh N 9.0 mph14.5 kmh 30.29 in1025.7 mb 0.00 in0.0 mm 0.00 in0.0 mm 0.00 in0.0 mm
06:36 AM 32.7°F0.4°C 26.6°F-3.0°C 78% 3.0 mph N4.8 kmh N 9.0 mph14.5 kmh 30.29 in1025.7 mb 0.00 in0.0 mm 0.00 in0.0 mm 0.00 in0.0 mm
06:38 AM 32.7°F0.4°C 26.9°F-2.8°C 79% 2.0 mph N3.2 kmh N 9.0 mph14.5 kmh 30.29 in1025.7 mb 0.00 in0.0 mm 0.00 in0.0 mm 0.00 in0.0 mm
06:40 AM 32.7°F0.4°C 26.6°F-3.0°C 78% 3.0 mph N4.8 kmh N 9.0 mph14.5 kmh 30.30 in1026.1 mb 0.00 in0.0 mm 0.00 in0.0 mm 0.00 in0.0 mm
06:41 AM 32.6°F0.3°C 26.5°F-3.1°C 78% 3.0 mph SW4.8 kmh SW 9.0 mph14.5 kmh 30.29 in1025.7 mb 0.00 in0.0 mm 0.00 in0.0 mm 0.00 in0.0 mm
06:42 AM 32.7°F0.4°C 26.6°F-3.0°C 78% Calm Calm 9.0 mph14.5 kmh 30.30 in1026.1 mb 0.00 in0.0 mm 0.00 in0.0 mm 0.00 in0.0 mm
06:44 AM 32.7°F0.4°C 26.9°F-2.8°C 79% Calm Calm 8.0 mph12.9 kmh 30.30 in1026.1 mb 0.00 in0.0 mm 0.00 in0.0 mm 0.00 in0.0 mm
06:46 AM 32.7°F0.4°C 26.9°F-2.8°C 79% 1.0 mph W1.6 kmh W 8.0 mph12.9 kmh 30.30 in1026.1 mb 0.00 in0.0 mm 0.00 in0.0 mm 0.00 in0.0 mm
06:49 AM 32.6°F0.3°C 27.1°F-2.7°C 80% 1.0 mph N1.6 kmh N 8.0 mph12.9 kmh 30.30 in1026.1 mb 0.00 in0.0 mm 0.00 in0.0 mm 0.00 in0.0 mm
06:51 AM 32.7°F0.4°C 27.5°F-2.5°C 81% 3.0 mph N4.8 kmh N 8.0 mph12.9 kmh 30.30 in1026.1 mb 0.00 in0.0 mm 0.00 in0.0 mm 0.00 in0.0 mm
06:53 AM 32.6°F0.3°C 26.5°F-3.1°C 78% 1.0 mph N1.6 kmh N 7.0 mph11.3 kmh 30.30 in1026.1 mb 0.00 in0.0 mm 0.00 in0.0 mm 0.00 in0.0 mm
06:55 AM 32.6°F0.3°C 26.8°F-2.9°C 79% 2.0 mph N3.2 kmh N 7.0 mph11.3 kmh 30.30 in1026.1 mb 0.00 in0.0 mm 0.00 in0.0 mm 0.00 in0.0 mm
06:56 AM 32.6°F0.3°C 26.5°F-3.1°C 78% 5.0 mph SW8.0 kmh SW 7.0 mph11.3 kmh 30.30 in1026.1 mb 0.00 in0.0 mm 0.00 in0.0 mm 0.00 in0.0 mm
06:57 AM 32.5°F0.3°C 26.1°F-3.3°C 77% 3.0 mph N4.8 kmh N 11.0 mph17.7 kmh 30.30 in1026.1 mb 0.00 in0.0 mm 0.00 in0.0 mm 0.00 in0.0 mm
06:59 AM 32.6°F0.3°C 26.2°F-3.2°C 77% 1.0 mph N1.6 kmh N 11.0 mph17.7 kmh 30.31 in1026.4 mb 0.00 in0.0 mm 0.00 in0.0 mm 0.00 in0.0 mm
07:01 AM 32.5°F0.3°C 26.1°F-3.3°C 77% 4.0 mph WNW6.4 kmh WNW 11.0 mph17.7 kmh 30.30 in1026.1 mb 0.00 in0.0 mm 0.00 in0.0 mm 0.00 in0.0 mm
07:02 AM 32.5°F0.3°C 26.1°F-3.3°C 77% 2.0 mph N3.2 kmh N 11.0 mph17.7 kmh 30.31 in1026.4 mb 0.00 in0.0 mm 0.00 in0.0 mm 0.00 in0.0 mm
07:04 AM 32.5°F0.3°C 26.1°F-3.3°C 77% 2.0 mph N3.2 kmh N 11.0 mph17.7 kmh 30.31 in1026.4 mb 0.00 in0.0 mm 0.00 in0.0 mm 0.00 in0.0 mm
07:06 AM 32.5°F0.3°C 26.4°F-3.1°C 78% 2.0 mph N3.2 kmh N 11.0 mph17.7 kmh 30.31 in1026.4 mb 0.00 in0.0 mm 0.00 in0.0 mm 0.00 in0.0 mm
07:08 AM 32.5°F0.3°C 26.4°F-3.1°C 78% 1.0 mph N1.6 kmh N 11.0 mph17.7 kmh 30.31 in1026.4 mb 0.00 in0.0 mm 0.00 in0.0 mm 0.00 in0.0 mm
07:10 AM 32.5°F0.3°C 26.7°F-2.9°C 79% 2.0 mph N3.2 kmh N 11.0 mph17.7 kmh 30.32 in1026.8 mb 0.00 in0.0 mm 0.00 in0.0 mm 0.00 in0.0 mm
07:11 AM 32.5°F0.3°C 26.7°F-2.9°C 79% Calm Calm 11.0 mph17.7 kmh 30.32 in1026.8 mb 0.00 in0.0 mm 0.00 in0.0 mm 0.00 in0.0 mm
07:13 AM 32.5°F0.3°C 26.4°F-3.1°C 78% Calm Calm 11.0 mph17.7 kmh 30.32 in1026.8 mb 0.00 in0.0 mm 0.00 in0.0 mm 0.00 in0.0 mm
07:15 AM 32.5°F0.3°C 26.7°F-2.9°C 79% 3.0 mph N4.8 kmh N 11.0 mph17.7 kmh 30.32 in1026.8 mb 0.00 in0.0 mm 0.00 in0.0 mm 0.00 in0.0 mm
07:16 AM 32.6°F0.3°C 26.5°F-3.1°C 78% 1.0 mph WNW1.6 kmh WNW 11.0 mph17.7 kmh 30.32 in1026.8 mb 0.00 in0.0 mm 0.00 in0.0 mm 0.00 in0.0 mm
07:17 AM 32.6°F0.3°C 26.5°F-3.1°C 78% 2.0 mph N3.2 kmh N 11.0 mph17.7 kmh 30.32 in1026.8 mb 0.00 in0.0 mm 0.00 in0.0 mm 0.00 in0.0 mm
07:19 AM 32.6°F0.3°C 26.8°F-2.9°C 79% 2.0 mph N3.2 kmh N 7.0 mph11.3 kmh 30.32 in1026.8 mb 0.00 in0.0 mm 0.00 in0.0 mm 0.00 in0.0 mm
07:21 AM 32.6°F0.3°C 26.2°F-3.2°C 77% 6.0 mph WSW9.7 kmh WSW 7.0 mph11.3 kmh 30.32 in1026.8 mb 0.00 in0.0 mm 0.00 in0.0 mm 0.00 in0.0 mm
07:23 AM 32.6°F0.3°C 26.5°F-3.1°C 78% Calm Calm 7.0 mph11.3 kmh 30.33 in1027.1 mb 0.00 in0.0 mm 0.00 in0.0 mm 0.00 in0.0 mm
07:25 AM 32.6°F0.3°C 26.5°F-3.1°C 78% Calm Calm 7.0 mph11.3 kmh 30.33 in1027.1 mb 0.00 in0.0 mm 0.00 in0.0 mm 0.00 in0.0 mm
07:26 AM 32.6°F0.3°C 26.5°F-3.1°C 78% 1.0 mph W1.6 kmh W 7.0 mph11.3 kmh 30.32 in1026.8 mb 0.00 in0.0 mm 0.00 in0.0 mm 0.00 in0.0 mm
07:27 AM 32.6°F0.3°C 26.8°F-2.9°C 79% 1.0 mph N1.6 kmh N 6.0 mph9.7 kmh 30.33 in1027.1 mb 0.00 in0.0 mm 0.00 in0.0 mm 0.00 in0.0 mm
07:29 AM 32.6°F0.3°C 26.8°F-2.9°C 79% 1.0 mph N1.6 kmh N 6.0 mph9.7 kmh 30.33 in1027.1 mb 0.00 in0.0 mm 0.00 in0.0 mm 0.00 in0.0 mm
07:31 AM 32.6°F0.3°C 26.5°F-3.1°C 78% 1.0 mph W1.6 kmh W 6.0 mph9.7 kmh 30.32 in1026.8 mb 0.00 in0.0 mm 0.00 in0.0 mm 0.00 in0.0 mm
07:32 AM 32.7°F0.4°C 26.6°F-3.0°C 78% 2.0 mph N3.2 kmh N 6.0 mph9.7 kmh 30.33 in1027.1 mb 0.00 in0.0 mm 0.00 in0.0 mm 0.00 in0.0 mm
07:34 AM 32.6°F0.3°C 26.5°F-3.1°C 78% Calm Calm 6.0 mph9.7 kmh 30.33 in1027.1 mb 0.00 in0.0 mm 0.00 in0.0 mm 0.00 in0.0 mm
07:36 AM 32.6°F0.3°C 26.8°F-2.9°C 79% Calm Calm 6.0 mph9.7 kmh 30.32 in1026.8 mb 0.00 in0.0 mm 0.00 in0.0 mm 0.00 in0.0 mm
07:38 AM 32.6°F0.3°C 26.8°F-2.9°C 79% Calm Calm 3.0 mph4.8 kmh 30.33 in1027.1 mb 0.00 in0.0 mm 0.00 in0.0 mm 0.00 in0.0 mm
07:41 AM 32.7°F0.4°C 27.5°F-2.5°C 81% 1.0 mph N1.6 kmh N 3.0 mph4.8 kmh 30.34 in1027.4 mb 0.00 in0.0 mm 0.00 in0.0 mm 0.00 in0.0 mm
07:43 AM 32.8°F0.4°C 27.3°F-2.6°C 80% 2.0 mph N3.2 kmh N 6.0 mph9.7 kmh 30.34 in1027.4 mb 0.00 in0.0 mm 0.00 in0.0 mm 0.00 in0.0 mm
07:45 AM 32.8°F0.4°C 27.0°F-2.8°C 79% 1.0 mph N1.6 kmh N 6.0 mph9.7 kmh 30.34 in1027.4 mb 0.00 in0.0 mm 0.00 in0.0 mm 0.00 in0.0 mm
07:46 AM 32.8°F0.4°C 27.3°F-2.6°C 80% 1.0 mph WNW1.6 kmh WNW 6.0 mph9.7 kmh 30.34 in1027.4 mb 0.00 in0.0 mm 0.00 in0.0 mm 0.00 in0.0 mm
07:47 AM 32.8°F0.4°C 27.3°F-2.6°C 80% Calm Calm 6.0 mph9.7 kmh 30.34 in1027.4 mb 0.00 in0.0 mm 0.00 in0.0 mm 0.00 in0.0 mm
07:50 AM 32.8°F0.4°C 27.0°F-2.8°C 79% Calm Calm 6.0 mph9.7 kmh 30.34 in1027.4 mb 0.00 in0.0 mm 0.00 in0.0 mm 0.00 in0.0 mm
07:51 AM 32.8°F0.4°C 27.0°F-2.8°C 79% 1.0 mph WSW1.6 kmh WSW 6.0 mph9.7 kmh 30.34 in1027.4 mb 0.00 in0.0 mm 0.00 in0.0 mm 0.00 in0.0 mm
07:52 AM 32.8°F0.4°C 27.3°F-2.6°C 80% 2.0 mph N3.2 kmh N 6.0 mph9.7 kmh 30.34 in1027.4 mb 0.00 in0.0 mm 0.00 in0.0 mm 0.00 in0.0 mm
07:54 AM 32.8°F0.4°C 27.3°F-2.6°C 80% Calm Calm 6.0 mph9.7 kmh 30.34 in1027.4 mb 0.00 in0.0 mm 0.00 in0.0 mm 0.00 in0.0 mm
07:56 AM 32.9°F0.5°C 27.7°F-2.4°C 81% 1.0 mph WSW1.6 kmh WSW 6.0 mph9.7 kmh 30.34 in1027.4 mb 0.00 in0.0 mm 0.00 in0.0 mm 0.00 in0.0 mm
07:58 AM 32.9°F0.5°C 27.4°F-2.6°C 80% 1.0 mph N1.6 kmh N 6.0 mph9.7 kmh 30.35 in1027.8 mb 0.00 in0.0 mm 0.00 in0.0 mm 0.00 in0.0 mm
08:00 AM 33.0°F0.6°C 26.9°F-2.8°C 78% Calm Calm 6.0 mph9.7 kmh 30.35 in1027.8 mb 0.00 in0.0 mm 0.00 in0.0 mm 0.00 in0.0 mm
08:01 AM 33.0°F0.6°C 26.9°F-2.8°C 78% 1.0 mph WSW1.6 kmh WSW 6.0 mph9.7 kmh 30.34 in1027.4 mb 0.00 in0.0 mm 0.00 in0.0 mm 0.00 in0.0 mm
08:02 AM 33.0°F0.6°C 27.5°F-2.5°C 80% 2.0 mph N3.2 kmh N 8.0 mph12.9 kmh 30.35 in1027.8 mb 0.00 in0.0 mm 0.00 in0.0 mm 0.00 in0.0 mm
08:05 AM 33.0°F0.6°C 26.9°F-2.8°C 78% 3.0 mph N4.8 kmh N 9.0 mph14.5 kmh 30.35 in1027.8 mb 0.00 in0.0 mm 0.00 in0.0 mm 0.00 in0.0 mm
08:06 AM 33.0°F0.6°C 26.9°F-2.8°C 78% 4.0 mph WSW6.4 kmh WSW 9.0 mph14.5 kmh 30.35 in1027.8 mb 0.00 in0.0 mm 0.00 in0.0 mm 0.00 in0.0 mm
08:07 AM 33.0°F0.6°C 26.6°F-3.0°C 77% 3.0 mph N4.8 kmh N 9.0 mph14.5 kmh 30.35 in1027.8 mb 0.00 in0.0 mm 0.00 in0.0 mm 0.00 in0.0 mm
08:09 AM 33.0°F0.6°C 26.3°F-3.2°C 76% 1.0 mph N1.6 kmh N 9.0 mph14.5 kmh 30.36 in1028.1 mb 0.00 in0.0 mm 0.00 in0.0 mm 0.00 in0.0 mm
08:11 AM 33.0°F0.6°C 26.6°F-3.0°C 77% 1.0 mph W1.6 kmh W 9.0 mph14.5 kmh 30.36 in1028.1 mb 0.00 in0.0 mm 0.00 in0.0 mm 0.00 in0.0 mm
08:13 AM 33.1°F0.6°C 27.3°F-2.6°C 79% 1.0 mph N1.6 kmh N 9.0 mph14.5 kmh 30.36 in1028.1 mb 0.00 in0.0 mm 0.00 in0.0 mm 0.00 in0.0 mm
08:15 AM 33.1°F0.6°C 27.0°F-2.8°C 78% 1.0 mph N1.6 kmh N 9.0 mph14.5 kmh 30.36 in1028.1 mb 0.00 in0.0 mm 0.00 in0.0 mm 0.00 in0.0 mm
08:16 AM 33.1°F0.6°C 27.0°F-2.8°C 78% Calm Calm 9.0 mph14.5 kmh 30.35 in1027.8 mb 0.00 in0.0 mm 0.00 in0.0 mm 0.00 in0.0 mm
08:17 AM 33.2°F0.7°C 26.8°F-2.9°C 77% 1.0 mph N1.6 kmh N 9.0 mph14.5 kmh 30.36 in1028.1 mb 0.00 in0.0 mm 0.00 in0.0 mm 0.00 in0.0 mm
08:19 AM 33.2°F0.7°C 27.1°F-2.7°C 78% Calm Calm 9.0 mph14.5 kmh 30.35 in1027.8 mb 0.00 in0.0 mm 0.00 in0.0 mm 0.00 in0.0 mm
08:21 AM 33.2°F0.7°C 26.8°F-2.9°C 77% 2.0 mph WSW3.2 kmh WSW 9.0 mph14.5 kmh 30.35 in1027.8 mb 0.00 in0.0 mm 0.00 in0.0 mm 0.00 in0.0 mm
08:22 AM 33.2°F0.7°C 26.8°F-2.9°C 77% 1.0 mph N1.6 kmh N 9.0 mph14.5 kmh 30.35 in1027.8 mb 0.00 in0.0 mm 0.00 in0.0 mm 0.00 in0.0 mm
08:24 AM 33.3°F0.7°C 26.6°F-3.0°C 76% 4.0 mph N6.4 kmh N 9.0 mph14.5 kmh 30.35 in1027.8 mb 0.00 in0.0 mm 0.00 in0.0 mm 0.00 in0.0 mm
08:26 AM 33.3°F0.7°C 26.6°F-3.0°C 76% 3.0 mph W4.8 kmh W 8.0 mph12.9 kmh 30.35 in1027.8 mb 0.00 in0.0 mm 0.00 in0.0 mm 0.00 in0.0 mm
08:28 AM 33.3°F0.7°C 26.9°F-2.8°C 77% 1.0 mph N1.6 kmh N 8.0 mph12.9 kmh 30.35 in1027.8 mb 0.00 in0.0 mm 0.00 in0.0 mm 0.00 in0.0 mm
08:30 AM 33.4°F0.8°C 26.7°F-2.9°C 76% 1.0 mph N1.6 kmh N 8.0 mph12.9 kmh 30.36 in1028.1 mb 0.00 in0.0 mm 0.00 in0.0 mm 0.00 in0.0 mm
08:32 AM 33.5°F0.8°C 26.8°F-2.9°C 76% 3.0 mph N4.8 kmh N 8.0 mph12.9 kmh 30.36 in1028.1 mb 0.00 in0.0 mm 0.00 in0.0 mm 0.00 in0.0 mm
08:34 AM 33.6°F0.9°C 27.2°F-2.7°C 77% 1.0 mph N1.6 kmh N 6.0 mph9.7 kmh 30.36 in1028.1 mb 0.00 in0.0 mm 0.00 in0.0 mm 0.00 in0.0 mm
08:35 AM 33.6°F0.9°C 27.5°F-2.5°C 78% Calm Calm 6.0 mph9.7 kmh 30.35 in1027.8 mb 0.00 in0.0 mm 0.00 in0.0 mm 0.00 in0.0 mm
08:37 AM 33.6°F0.9°C 27.2°F-2.7°C 77% Calm Calm 6.0 mph9.7 kmh 30.35 in1027.8 mb 0.00 in0.0 mm 0.00 in0.0 mm 0.00 in0.0 mm
08:39 AM 33.7°F0.9°C 27.3°F-2.6°C 77% Calm Calm 6.0 mph9.7 kmh 30.35 in1027.8 mb 0.00 in0.0 mm 0.00 in0.0 mm 0.00 in0.0 mm
08:40 AM 33.8°F1.0°C 27.4°F-2.6°C 77% 7.0 mph W11.3 kmh W 7.0 mph11.3 kmh 30.35 in1027.8 mb 0.00 in0.0 mm 0.00 in0.0 mm 0.00 in0.0 mm
08:41 AM 33.7°F0.9°C 27.3°F-2.6°C 77% 7.0 mph N11.3 kmh N 8.0 mph12.9 kmh 30.36 in1028.1 mb 0.00 in0.0 mm 0.00 in0.0 mm 0.00 in0.0 mm
08:43 AM 33.8°F1.0°C 27.4°F-2.6°C 77% 4.0 mph N6.4 kmh N 10.0 mph16.1 kmh 30.36 in1028.1 mb 0.00 in0.0 mm 0.00 in0.0 mm 0.00 in0.0 mm
08:45 AM 33.8°F1.0°C 27.1°F-2.7°C 76% 2.0 mph N3.2 kmh N 10.0 mph16.1 kmh 30.36 in1028.1 mb 0.00 in0.0 mm 0.00 in0.0 mm 0.00 in0.0 mm
08:47 AM 33.8°F1.0°C 27.4°F-2.6°C 77% 2.0 mph N3.2 kmh N 10.0 mph16.1 kmh 30.36 in1028.1 mb 0.00 in0.0 mm 0.00 in0.0 mm 0.00 in0.0 mm
08:50 AM 33.9°F1.1°C 27.5°F-2.5°C 77% 1.0 mph N1.6 kmh N 10.0 mph16.1 kmh 30.36 in1028.1 mb 0.00 in0.0 mm 0.00 in0.0 mm 0.00 in0.0 mm
08:52 AM 34.0°F1.1°C 27.2°F-2.7°C 76% 2.0 mph N3.2 kmh N 10.0 mph16.1 kmh 30.36 in1028.1 mb 0.00 in0.0 mm 0.00 in0.0 mm 0.00 in0.0 mm
08:54 AM 34.0°F1.1°C 27.2°F-2.7°C 76% 1.0 mph N1.6 kmh N 10.0 mph16.1 kmh 30.36 in1028.1 mb 0.00 in0.0 mm 0.00 in0.0 mm 0.00 in0.0 mm
08:55 AM 34.0°F1.1°C 27.2°F-2.7°C 76% 1.0 mph W1.6 kmh W 10.0 mph16.1 kmh 30.36 in1028.1 mb 0.00 in0.0 mm 0.00 in0.0 mm 0.00 in0.0 mm
08:56 AM 34.0°F1.1°C 27.2°F-2.7°C 76% 3.0 mph N4.8 kmh N 10.0 mph16.1 kmh 30.36 in1028.1 mb 0.00 in0.0 mm 0.00 in0.0 mm 0.00 in0.0 mm
08:58 AM 34.0°F1.1°C 27.2°F-2.7°C 76% 2.0 mph N3.2 kmh N 10.0 mph16.1 kmh 30.36 in1028.1 mb 0.00 in0.0 mm 0.00 in0.0 mm 0.00 in0.0 mm
09:00 AM 34.0°F1.1°C 27.2°F-2.7°C 76% 1.0 mph N1.6 kmh N 10.0 mph16.1 kmh 30.36 in1028.1 mb 0.00 in0.0 mm 0.00 in0.0 mm 0.00 in0.0 mm
09:02 AM 34.0°F1.1°C 27.2°F-2.7°C 76% 2.0 mph N3.2 kmh N 10.0 mph16.1 kmh 30.36 in1028.1 mb 0.00 in0.0 mm 0.00 in0.0 mm 0.00 in0.0 mm
09:05 AM 34.1°F1.2°C 27.3°F-2.6°C 76% 1.0 mph N1.6 kmh N 6.0 mph9.7 kmh 30.36 in1028.1 mb 0.00 in0.0 mm 0.00 in0.0 mm 0.00 in0.0 mm
09:07 AM 34.1°F1.2°C 27.7°F-2.4°C 77% 1.0 mph N1.6 kmh N 6.0 mph9.7 kmh 30.36 in1028.1 mb 0.00 in0.0 mm 0.00 in0.0 mm 0.00 in0.0 mm
09:09 AM 34.2°F1.2°C 27.4°F-2.6°C 76% 1.0 mph N1.6 kmh N 6.0 mph9.7 kmh 30.36 in1028.1 mb 0.00 in0.0 mm 0.00 in0.0 mm 0.00 in0.0 mm
09:10 AM 34.2°F1.2°C 27.4°F-2.6°C 76% 3.0 mph SW4.8 kmh SW 6.0 mph9.7 kmh 30.36 in1028.1 mb 0.00 in0.0 mm 0.00 in0.0 mm 0.00 in0.0 mm
09:11 AM 34.1°F1.2°C 27.0°F-2.8°C 75% 1.0 mph N1.6 kmh N 6.0 mph9.7 kmh 30.36 in1028.1 mb 0.00 in0.0 mm 0.00 in0.0 mm 0.00 in0.0 mm
09:13 AM 34.2°F1.2°C 27.4°F-2.6°C 76% 4.0 mph N6.4 kmh N 8.0 mph12.9 kmh 30.36 in1028.1 mb 0.00 in0.0 mm 0.00 in0.0 mm 0.00 in0.0 mm
09:15 AM 34.3°F1.3°C 27.2°F-2.7°C 75% 2.0 mph N3.2 kmh N 8.0 mph12.9 kmh 30.36 in1028.1 mb 0.00 in0.0 mm 0.00 in0.0 mm 0.00 in0.0 mm
09:17 AM 34.3°F1.3°C 27.5°F-2.5°C 76% 2.0 mph N3.2 kmh N 8.0 mph12.9 kmh 30.36 in1028.1 mb 0.00 in0.0 mm 0.00 in0.0 mm 0.00 in0.0 mm
09:20 AM 34.4°F1.3°C 27.6°F-2.4°C 76% Calm Calm 8.0 mph12.9 kmh 30.36 in1028.1 mb 0.00 in0.0 mm 0.00 in0.0 mm 0.00 in0.0 mm
09:22 AM 34.5°F1.4°C 28.1°F-2.2°C 77% 3.0 mph N4.8 kmh N 8.0 mph12.9 kmh 30.36 in1028.1 mb 0.00 in0.0 mm 0.00 in0.0 mm 0.00 in0.0 mm
09:24 AM 34.7°F1.5°C 27.9°F-2.3°C 76% 3.0 mph N4.8 kmh N 8.0 mph12.9 kmh 30.36 in1028.1 mb 0.00 in0.0 mm 0.00 in0.0 mm 0.00 in0.0 mm
09:25 AM 34.8°F1.6°C 28.0°F-2.2°C 76% 1.0 mph WSW1.6 kmh WSW 8.0 mph12.9 kmh 30.36 in1028.1 mb 0.00 in0.0 mm 0.00 in0.0 mm 0.00 in0.0 mm
09:26 AM 34.9°F1.6°C 28.4°F-2.0°C 77% 3.0 mph N4.8 kmh N 8.0 mph12.9 kmh 30.36 in1028.1 mb 0.00 in0.0 mm 0.00 in0.0 mm 0.00 in0.0 mm
09:28 AM 35.1°F1.7°C 28.6°F-1.9°C 77% Calm Calm 8.0 mph12.9 kmh 30.36 in1028.1 mb 0.00 in0.0 mm 0.00 in0.0 mm 0.00 in0.0 mm
09:30 AM 35.2°F1.8°C 28.4°F-2.0°C 76% 2.0 mph W3.2 kmh W 8.0 mph12.9 kmh 30.36 in1028.1 mb 0.00 in0.0 mm 0.00 in0.0 mm 0.00 in0.0 mm
09:31 AM 35.3°F1.8°C 28.8°F-1.8°C 77% 1.0 mph N1.6 kmh N 8.0 mph12.9 kmh 30.36 in1028.1 mb 0.00 in0.0 mm 0.00 in0.0 mm 0.00 in0.0 mm
09:33 AM 35.3°F1.8°C 28.2°F-2.1°C 75% 3.0 mph N4.8 kmh N 7.0 mph11.3 kmh 30.36 in1028.1 mb 0.00 in0.0 mm 0.00 in0.0 mm 0.00 in0.0 mm
09:35 AM 35.4°F1.9°C 28.3°F-2.1°C 75% 2.0 mph N3.2 kmh N 7.0 mph11.3 kmh 30.36 in1028.1 mb 0.00 in0.0 mm 0.00 in0.0 mm 0.00 in0.0 mm
09:37 AM 35.3°F1.8°C 28.2°F-2.1°C 75% 1.0 mph N1.6 kmh N 9.0 mph14.5 kmh 30.36 in1028.1 mb 0.00 in0.0 mm 0.00 in0.0 mm 0.00 in0.0 mm
09:39 AM 35.3°F1.8°C 28.2°F-2.1°C 75% 1.0 mph N1.6 kmh N 9.0 mph14.5 kmh 30.36 in1028.1 mb 0.00 in0.0 mm 0.00 in0.0 mm 0.00 in0.0 mm
09:40 AM 35.3°F1.8°C 28.2°F-2.1°C 75% 11.0 mph WSW17.7 kmh WSW 11.0 mph17.7 kmh 30.36 in1028.1 mb 0.00 in0.0 mm 0.00 in0.0 mm 0.00 in0.0 mm
09:41 AM 35.3°F1.8°C 27.9°F-2.3°C 74% 3.0 mph N4.8 kmh N 11.0 mph17.7 kmh 30.36 in1028.1 mb 0.00 in0.0 mm 0.00 in0.0 mm 0.00 in0.0 mm
09:43 AM 35.2°F1.8°C 27.4°F-2.6°C 73% 1.0 mph N1.6 kmh N 11.0 mph17.7 kmh 30.36 in1028.1 mb 0.00 in0.0 mm 0.00 in0.0 mm 0.00 in0.0 mm
09:45 AM 35.1°F1.7°C 27.3°F-2.6°C 73% 5.0 mph WSW8.0 kmh WSW 11.0 mph17.7 kmh 30.36 in1028.1 mb 0.00 in0.0 mm 0.00 in0.0 mm 0.00 in0.0 mm
09:48 AM 35.1°F1.7°C 27.3°F-2.6°C 73% 2.0 mph N3.2 kmh N 11.0 mph17.7 kmh 30.37 in1028.4 mb 0.00 in0.0 mm 0.00 in0.0 mm 0.00 in0.0 mm
09:50 AM 35.4°F1.9°C 28.3°F-2.1°C 75% Calm Calm 11.0 mph17.7 kmh 30.36 in1028.1 mb 0.00 in0.0 mm 0.00 in0.0 mm 0.00 in0.0 mm
09:52 AM 35.9°F2.2°C 29.1°F-1.6°C 76% 2.0 mph N3.2 kmh N 11.0 mph17.7 kmh 30.37 in1028.4 mb 0.00 in0.0 mm 0.00 in0.0 mm 0.00 in0.0 mm
09:54 AM 36.4°F2.4°C 28.9°F-1.7°C 74% 2.0 mph N3.2 kmh N 11.0 mph17.7 kmh 30.36 in1028.1 mb 0.00 in0.0 mm 0.00 in0.0 mm 0.00 in0.0 mm
09:55 AM 36.5°F2.5°C 29.0°F-1.7°C 74% 2.0 mph WNW3.2 kmh WNW 11.0 mph17.7 kmh 30.36 in1028.1 mb 0.00 in0.0 mm 0.00 in0.0 mm 0.00 in0.0 mm
09:57 AM 36.9°F2.7°C 28.7°F-1.8°C 72% 3.0 mph N4.8 kmh N 11.0 mph17.7 kmh 30.36 in1028.1 mb 0.00 in0.0 mm 0.00 in0.0 mm 0.00 in0.0 mm
09:59 AM 37.3°F2.9°C 29.1°F-1.6°C 72% 4.0 mph N6.4 kmh N 11.0 mph17.7 kmh 30.37 in1028.4 mb 0.00 in0.0 mm 0.00 in0.0 mm 0.00 in0.0 mm
10:00 AM 37.5°F3.1°C 29.3°F-1.5°C 72% 2.0 mph WSW3.2 kmh WSW 11.0 mph17.7 kmh 30.36 in1028.1 mb 0.00 in0.0 mm 0.00 in0.0 mm 0.00 in0.0 mm
10:01 AM 37.7°F3.2°C 29.2°F-1.6°C 71% 2.0 mph N3.2 kmh N 11.0 mph17.7 kmh 30.37 in1028.4 mb 0.00 in0.0 mm 0.00 in0.0 mm 0.00 in0.0 mm
10:03 AM 38.0°F3.3°C 30.1°F-1.1°C 73% 2.0 mph N3.2 kmh N 11.0 mph17.7 kmh 30.37 in1028.4 mb 0.00 in0.0 mm 0.00 in0.0 mm 0.00 in0.0 mm
10:05 AM 38.2°F3.4°C 29.6°F-1.3°C 71% 1.0 mph WSW1.6 kmh WSW 11.0 mph17.7 kmh 30.36 in1028.1 mb 0.00 in0.0 mm 0.00 in0.0 mm 0.00 in0.0 mm
10:08 AM 38.1°F3.4°C 29.2°F-1.6°C 70% 2.0 mph N3.2 kmh N 11.0 mph17.7 kmh 30.37 in1028.4 mb 0.00 in0.0 mm 0.00 in0.0 mm 0.00 in0.0 mm
10:10 AM 37.8°F3.2°C 28.9°F-1.7°C 70% 1.0 mph N1.6 kmh N 11.0 mph17.7 kmh 30.37 in1028.4 mb 0.00 in0.0 mm 0.00 in0.0 mm 0.00 in0.0 mm
10:12 AM 37.7°F3.2°C 29.2°F-1.6°C 71% 1.0 mph N1.6 kmh N 11.0 mph17.7 kmh 30.37 in1028.4 mb 0.00 in0.0 mm 0.00 in0.0 mm 0.00 in0.0 mm
10:14 AM 37.5°F3.1°C 29.0°F-1.7°C 71% 1.0 mph N1.6 kmh N 11.0 mph17.7 kmh 30.37 in1028.4 mb 0.00 in0.0 mm 0.00 in0.0 mm 0.00 in0.0 mm
10:15 AM 37.5°F3.1°C 29.3°F-1.5°C 72% 2.0 mph W3.2 kmh W 11.0 mph17.7 kmh 30.37 in1028.4 mb 0.00 in0.0 mm 0.00 in0.0 mm 0.00 in0.0 mm
10:16 AM 37.4°F3.0°C 28.9°F-1.7°C 71% 2.0 mph N3.2 kmh N 11.0 mph17.7 kmh 30.37 in1028.4 mb 0.00 in0.0 mm 0.00 in0.0 mm 0.00 in0.0 mm
10:18 AM 37.0°F2.8°C 28.5°F-1.9°C 71% 2.0 mph N3.2 kmh N 11.0 mph17.7 kmh 30.37 in1028.4 mb 0.00 in0.0 mm 0.00 in0.0 mm 0.00 in0.0 mm
10:20 AM 36.8°F2.7°C 28.6°F-1.9°C 72% 1.0 mph WNW1.6 kmh WNW 11.0 mph17.7 kmh 30.37 in1028.4 mb 0.00 in0.0 mm 0.00 in0.0 mm 0.00 in0.0 mm
10:22 AM 36.6°F2.6°C 28.4°F-2.0°C 72% Calm Calm 11.0 mph17.7 kmh 30.37 in1028.4 mb 0.00 in0.0 mm 0.00 in0.0 mm 0.00 in0.0 mm
10:24 AM 36.6°F2.6°C 29.1°F-1.6°C 74% 2.0 mph N3.2 kmh N 11.0 mph17.7 kmh 30.37 in1028.4 mb 0.00 in0.0 mm 0.00 in0.0 mm 0.00 in0.0 mm
10:25 AM 36.7°F2.6°C 29.2°F-1.6°C 74% 4.0 mph W6.4 kmh W 11.0 mph17.7 kmh 30.37 in1028.4 mb 0.00 in0.0 mm 0.00 in0.0 mm 0.00 in0.0 mm
10:27 AM 36.8°F2.7°C 28.6°F-1.9°C 72% 2.0 mph N3.2 kmh N 7.0 mph11.3 kmh 30.37 in1028.4 mb 0.00 in0.0 mm 0.00 in0.0 mm 0.00 in0.0 mm
10:29 AM 37.0°F2.8°C 28.5°F-1.9°C 71% 4.0 mph N6.4 kmh N 7.0 mph11.3 kmh 30.37 in1028.4 mb 0.00 in0.0 mm 0.00 in0.0 mm 0.00 in0.0 mm
10:30 AM 37.1°F2.8°C 28.9°F-1.7°C 72% 5.0 mph NW8.0 kmh NW 7.0 mph11.3 kmh 30.37 in1028.4 mb 0.00 in0.0 mm 0.00 in0.0 mm 0.00 in0.0 mm
10:31 AM 37.3°F2.9°C 28.8°F-1.8°C 71% 2.0 mph N3.2 kmh N 7.0 mph11.3 kmh 30.37 in1028.4 mb 0.00 in0.0 mm 0.00 in0.0 mm 0.00 in0.0 mm
10:33 AM 37.7°F3.2°C 29.2°F-1.6°C 71% 3.0 mph N4.8 kmh N 9.0 mph14.5 kmh 30.37 in1028.4 mb 0.00 in0.0 mm 0.00 in0.0 mm 0.00 in0.0 mm
10:35 AM 37.9°F3.3°C 28.7°F-1.8°C 69% 3.0 mph SW4.8 kmh SW 9.0 mph14.5 kmh 30.37 in1028.4 mb 0.00 in0.0 mm 0.00 in0.0 mm 0.00 in0.0 mm
10:38 AM 38.2°F3.4°C 29.3°F-1.5°C 70% 3.0 mph N4.8 kmh N 9.0 mph14.5 kmh 30.37 in1028.4 mb 0.00 in0.0 mm 0.00 in0.0 mm 0.00 in0.0 mm
10:40 AM 38.4°F3.6°C 29.5°F-1.4°C 70% 2.0 mph NE3.2 kmh NE 9.0 mph14.5 kmh 30.37 in1028.4 mb 0.00 in0.0 mm 0.00 in0.0 mm 0.00 in0.0 mm
10:42 AM 38.6°F3.7°C 29.0°F-1.7°C 68% 3.0 mph N4.8 kmh N 9.0 mph14.5 kmh 30.37 in1028.4 mb 0.00 in0.0 mm 0.00 in0.0 mm 0.00 in0.0 mm
10:44 AM 38.7°F3.7°C 30.1°F-1.1°C 71% 4.0 mph N6.4 kmh N 9.0 mph14.5 kmh 30.37 in1028.4 mb 0.00 in0.0 mm 0.00 in0.0 mm 0.00 in0.0 mm
10:45 AM 38.8°F3.8°C 30.2°F-1.0°C 71% 3.0 mph WSW4.8 kmh WSW 9.0 mph14.5 kmh 30.37 in1028.4 mb 0.00 in0.0 mm 0.00 in0.0 mm 0.00 in0.0 mm
10:46 AM 38.9°F3.8°C 29.3°F-1.5°C 68% 4.0 mph N6.4 kmh N 9.0 mph14.5 kmh 30.37 in1028.4 mb 0.00 in0.0 mm 0.00 in0.0 mm 0.00 in0.0 mm
10:48 AM 38.7°F3.7°C 29.1°F-1.6°C 68% 3.0 mph N4.8 kmh N 9.0 mph14.5 kmh 30.38 in1028.8 mb 0.00 in0.0 mm 0.00 in0.0 mm 0.00 in0.0 mm
10:50 AM 38.4°F3.6°C 28.4°F-2.0°C 67% 2.0 mph SSW3.2 kmh SSW 9.0 mph14.5 kmh 30.37 in1028.4 mb 0.00 in0.0 mm 0.00 in0.0 mm 0.00 in0.0 mm
10:52 AM 38.2°F3.4°C 29.3°F-1.5°C 70% 2.0 mph N3.2 kmh N 8.0 mph12.9 kmh 30.38 in1028.8 mb 0.00 in0.0 mm 0.00 in0.0 mm 0.00 in0.0 mm
10:55 AM 38.1°F3.4°C 29.2°F-1.6°C 70% 1.0 mph WSW1.6 kmh WSW 11.0 mph17.7 kmh 30.37 in1028.4 mb 0.00 in0.0 mm 0.00 in0.0 mm 0.00 in0.0 mm
10:57 AM 38.2°F3.4°C 28.9°F-1.7°C 69% 4.0 mph N6.4 kmh N 11.0 mph17.7 kmh 30.38 in1028.8 mb 0.00 in0.0 mm 0.00 in0.0 mm 0.00 in0.0 mm
10:59 AM 38.3°F3.5°C 29.0°F-1.7°C 69% 5.0 mph N8.0 kmh N 11.0 mph17.7 kmh 30.38 in1028.8 mb 0.00 in0.0 mm 0.00 in0.0 mm 0.00 in0.0 mm
11:01 AM 38.6°F3.7°C 29.3°F-1.5°C 69% 2.0 mph N3.2 kmh N 11.0 mph17.7 kmh 30.38 in1028.8 mb 0.00 in0.0 mm 0.00 in0.0 mm 0.00 in0.0 mm
11:03 AM 38.7°F3.7°C 28.7°F-1.8°C 67% 3.0 mph N4.8 kmh N 11.0 mph17.7 kmh 30.38 in1028.8 mb 0.00 in0.0 mm 0.00 in0.0 mm 0.00 in0.0 mm
11:04 AM 38.8°F3.8°C 28.8°F-1.8°C 67% 2.0 mph SW3.2 kmh SW 11.0 mph17.7 kmh 30.38 in1028.8 mb 0.00 in0.0 mm 0.00 in0.0 mm 0.00 in0.0 mm
11:05 AM 38.9°F3.8°C 29.3°F-1.5°C 68% 4.0 mph N6.4 kmh N 11.0 mph17.7 kmh 30.38 in1028.8 mb 0.00 in0.0 mm 0.00 in0.0 mm 0.00 in0.0 mm
11:07 AM 39.1°F3.9°C 30.2°F-1.0°C 70% 3.0 mph N4.8 kmh N 11.0 mph17.7 kmh 30.38 in1028.8 mb 0.00 in0.0 mm 0.00 in0.0 mm 0.00 in0.0 mm
11:09 AM 39.2°F4.0°C 29.9°F-1.2°C 69% 1.0 mph WSW1.6 kmh WSW 11.0 mph17.7 kmh 30.37 in1028.4 mb 0.00 in0.0 mm 0.00 in0.0 mm 0.00 in0.0 mm
11:12 AM 39.2°F4.0°C 29.9°F-1.2°C 69% 1.0 mph N1.6 kmh N 11.0 mph17.7 kmh 30.38 in1028.8 mb 0.00 in0.0 mm 0.00 in0.0 mm 0.00 in0.0 mm
11:14 AM 39.4°F4.1°C 30.4°F-0.9°C 70% 1.0 mph N1.6 kmh N 10.0 mph16.1 kmh 30.38 in1028.8 mb 0.00 in0.0 mm 0.00 in0.0 mm 0.00 in0.0 mm
11:16 AM 39.6°F4.2°C 30.6°F-0.8°C 70% 7.0 mph N11.3 kmh N 10.0 mph16.1 kmh 30.38 in1028.8 mb 0.00 in0.0 mm 0.00 in0.0 mm 0.00 in0.0 mm
11:18 AM 39.7°F4.3°C 29.3°F-1.5°C 66% 1.0 mph N1.6 kmh N 10.0 mph16.1 kmh 30.38 in1028.8 mb 0.00 in0.0 mm 0.00 in0.0 mm 0.00 in0.0 mm
11:19 AM 39.8°F4.3°C 29.4°F-1.4°C 66% 4.0 mph WNW6.4 kmh WNW 10.0 mph16.1 kmh 30.38 in1028.8 mb 0.00 in0.0 mm 0.00 in0.0 mm 0.00 in0.0 mm
11:20 AM 39.7°F4.3°C 29.3°F-1.5°C 66% 3.0 mph N4.8 kmh N 10.0 mph16.1 kmh 30.38 in1028.8 mb 0.00 in0.0 mm 0.00 in0.0 mm 0.00 in0.0 mm
11:22 AM 39.8°F4.3°C 29.4°F-1.4°C 66% 1.0 mph N1.6 kmh N 10.0 mph16.1 kmh 30.38 in1028.8 mb 0.00 in0.0 mm 0.00 in0.0 mm 0.00 in0.0 mm
11:24 AM 39.8°F4.3°C 29.4°F-1.4°C 66% 2.0 mph N3.2 kmh N 8.0 mph12.9 kmh 30.38 in1028.8 mb 0.00 in0.0 mm 0.00 in0.0 mm 0.00 in0.0 mm
11:26 AM 39.9°F4.4°C 29.5°F-1.4°C 66% 3.0 mph N4.8 kmh N 8.0 mph12.9 kmh 30.38 in1028.8 mb 0.00 in0.0 mm 0.00 in0.0 mm 0.00 in0.0 mm
11:28 AM 40.0°F4.4°C 29.9°F-1.2°C 67% 8.0 mph N12.9 kmh N 8.0 mph12.9 kmh 30.38 in1028.8 mb 0.00 in0.0 mm 0.00 in0.0 mm 0.00 in0.0 mm
11:29 AM 40.1°F4.5°C 29.3°F-1.5°C 65% 3.0 mph SW4.8 kmh SW 8.0 mph12.9 kmh 30.38 in1028.8 mb 0.00 in0.0 mm 0.00 in0.0 mm 0.00 in0.0 mm
11:31 AM 40.1°F4.5°C 29.7°F-1.3°C 66% 2.0 mph N3.2 kmh N 9.0 mph14.5 kmh 30.38 in1028.8 mb 0.00 in0.0 mm 0.00 in0.0 mm 0.00 in0.0 mm
11:33 AM 40.2°F4.6°C 29.8°F-1.2°C 66% 1.0 mph N1.6 kmh N 10.0 mph16.1 kmh 30.38 in1028.8 mb 0.00 in0.0 mm 0.00 in0.0 mm 0.00 in0.0 mm
11:34 AM 40.2°F4.6°C 30.1°F-1.1°C 67% 2.0 mph WNW3.2 kmh WNW 10.0 mph16.1 kmh 30.38 in1028.8 mb 0.00 in0.0 mm 0.00 in0.0 mm 0.00 in0.0 mm
11:35 AM 40.2°F4.6°C 29.4°F-1.4°C 65% 4.0 mph N6.4 kmh N 10.0 mph16.1 kmh 30.38 in1028.8 mb 0.00 in0.0 mm 0.00 in0.0 mm 0.00 in0.0 mm
11:37 AM 40.4°F4.7°C 30.7°F-0.7°C 68% Calm Calm 10.0 mph16.1 kmh 30.38 in1028.8 mb 0.00 in0.0 mm 0.00 in0.0 mm 0.00 in0.0 mm
11:39 AM 40.5°F4.7°C 29.3°F-1.5°C 64% 1.0 mph N1.6 kmh N 10.0 mph16.1 kmh 30.38 in1028.8 mb 0.00 in0.0 mm 0.00 in0.0 mm 0.00 in0.0 mm
11:41 AM 40.6°F4.8°C 29.4°F-1.4°C 64% 2.0 mph N3.2 kmh N 10.0 mph16.1 kmh 30.38 in1028.8 mb 0.00 in0.0 mm 0.00 in0.0 mm 0.00 in0.0 mm
11:43 AM 40.7°F4.8°C 29.9°F-1.2°C 65% 4.0 mph N6.4 kmh N 10.0 mph16.1 kmh 30.38 in1028.8 mb 0.00 in0.0 mm 0.00 in0.0 mm 0.00 in0.0 mm
11:44 AM 40.7°F4.8°C 30.2°F-1.0°C 66% 1.0 mph N1.6 kmh N 10.0 mph16.1 kmh 30.38 in1028.8 mb 0.00 in0.0 mm 0.00 in0.0 mm 0.00 in0.0 mm
11:45 AM 40.7°F4.8°C 30.2°F-1.0°C 66% 2.0 mph N3.2 kmh N 10.0 mph16.1 kmh 30.38 in1028.8 mb 0.00 in0.0 mm 0.00 in0.0 mm 0.00 in0.0 mm
11:48 AM 40.8°F4.9°C 30.0°F-1.1°C 65% 6.0 mph N9.7 kmh N 10.0 mph16.1 kmh 30.38 in1028.8 mb 0.00 in0.0 mm 0.00 in0.0 mm 0.00 in0.0 mm
11:49 AM 40.8°F4.9°C 30.0°F-1.1°C 65% 2.0 mph S3.2 kmh S 10.0 mph16.1 kmh 30.38 in1028.8 mb 0.00 in0.0 mm 0.00 in0.0 mm 0.00 in0.0 mm
11:50 AM 40.9°F4.9°C 30.4°F-0.9°C 66% 1.0 mph N1.6 kmh N 10.0 mph16.1 kmh 30.38 in1028.8 mb 0.00 in0.0 mm 0.00 in0.0 mm 0.00 in0.0 mm
11:52 AM 41.0°F5.0°C 30.2°F-1.0°C 65% 2.0 mph N3.2 kmh N 8.0 mph12.9 kmh 30.38 in1028.8 mb 0.00 in0.0 mm 0.00 in0.0 mm 0.00 in0.0 mm
11:54 AM 41.0°F5.0°C 30.1°F-1.1°C 65% 2.0 mph SSW3.2 kmh SSW 8.0 mph12.9 kmh 30.38 in1028.8 mb 0.00 in0.0 mm 0.00 in0.0 mm 0.00 in0.0 mm
11:56 AM 41.1°F5.1°C 31.0°F-0.6°C 67% 3.0 mph N4.8 kmh N 8.0 mph12.9 kmh 30.38 in1028.8 mb 0.00 in0.0 mm 0.00 in0.0 mm 0.00 in0.0 mm
11:58 AM 41.2°F5.1°C 30.7°F-0.7°C 66% 2.0 mph N3.2 kmh N 8.0 mph12.9 kmh 30.38 in1028.8 mb 0.00 in0.0 mm 0.00 in0.0 mm 0.00 in0.0 mm
11:59 AM 41.3°F5.2°C 30.4°F-0.9°C 65% Calm Calm 8.0 mph12.9 kmh 30.38 in1028.8 mb 0.00 in0.0 mm 0.00 in0.0 mm 0.00 in0.0 mm
12:00 PM 41.3°F5.2°C 30.4°F-0.9°C 65% 4.0 mph N6.4 kmh N 8.0 mph12.9 kmh 30.38 in1028.8 mb 0.00 in0.0 mm 0.00 in0.0 mm 0.00 in0.0 mm
12:03 PM 41.3°F5.2°C 30.4°F-0.9°C 65% 2.0 mph N3.2 kmh N 6.0 mph9.7 kmh 30.38 in1028.8 mb 0.00 in0.0 mm 0.00 in0.0 mm 0.00 in0.0 mm
12:04 PM 41.3°F5.2°C 30.1°F-1.1°C 64% 5.0 mph SW8.0 kmh SW 6.0 mph9.7 kmh 30.37 in1028.4 mb 0.00 in0.0 mm 0.00 in0.0 mm 0.00 in0.0 mm
12:05 PM 41.4°F5.2°C 30.2°F-1.0°C 64% 3.0 mph N4.8 kmh N 6.0 mph9.7 kmh 30.38 in1028.8 mb 0.00 in0.0 mm 0.00 in0.0 mm 0.00 in0.0 mm
12:07 PM 41.4°F5.2°C 29.4°F-1.4°C 62% 4.0 mph N6.4 kmh N 7.0 mph11.3 kmh 30.38 in1028.8 mb 0.00 in0.0 mm 0.00 in0.0 mm 0.00 in0.0 mm
12:09 PM 41.3°F5.2°C 30.4°F-0.9°C 65% 3.0 mph N4.8 kmh N 7.0 mph11.3 kmh 30.38 in1028.8 mb 0.00 in0.0 mm 0.00 in0.0 mm 0.00 in0.0 mm
12:11 PM 41.1°F5.1°C 30.2°F-1.0°C 65% Calm Calm 7.0 mph11.3 kmh 30.38 in1028.8 mb 0.00 in0.0 mm 0.00 in0.0 mm 0.00 in0.0 mm
12:14 PM 41.0°F5.0°C 29.4°F-1.4°C 63% 2.0 mph N3.2 kmh N 7.0 mph11.3 kmh 30.38 in1028.8 mb 0.00 in0.0 mm 0.00 in0.0 mm 0.00 in0.0 mm
12:16 PM 40.8°F4.9°C 29.2°F-1.6°C 63% 1.0 mph N1.6 kmh N 7.0 mph11.3 kmh 30.38 in1028.8 mb 0.00 in0.0 mm 0.00 in0.0 mm 0.00 in0.0 mm
12:18 PM 40.8°F4.9°C 30.0°F-1.1°C 65% 4.0 mph N6.4 kmh N 7.0 mph11.3 kmh 30.38 in1028.8 mb 0.00 in0.0 mm 0.00 in0.0 mm 0.00 in0.0 mm
12:19 PM 40.9°F4.9°C 30.1°F-1.1°C 65% 2.0 mph W3.2 kmh W 7.0 mph11.3 kmh 30.38 in1028.8 mb 0.00 in0.0 mm 0.00 in0.0 mm 0.00 in0.0 mm
12:20 PM 41.0°F5.0°C 30.2°F-1.0°C 65% 2.0 mph N3.2 kmh N 7.0 mph11.3 kmh 30.38 in1028.8 mb 0.00 in0.0 mm 0.00 in0.0 mm 0.00 in0.0 mm
12:22 PM 41.2°F5.1°C 31.1°F-0.5°C 67% 2.0 mph N3.2 kmh N 7.0 mph11.3 kmh 30.38 in1028.8 mb 0.00 in0.0 mm 0.00 in0.0 mm 0.00 in0.0 mm
12:24 PM 41.4°F5.2°C 30.5°F-0.8°C 65% 2.0 mph WSW3.2 kmh WSW 7.0 mph11.3 kmh 30.37 in1028.4 mb 0.00 in0.0 mm 0.00 in0.0 mm 0.00 in0.0 mm
12:27 PM 41.9°F5.5°C 30.6°F-0.8°C 64% Calm Calm 5.0 mph8.0 kmh 30.38 in1028.8 mb 0.00 in0.0 mm 0.00 in0.0 mm 0.00 in0.0 mm
12:29 PM 42.0°F5.6°C 31.1°F-0.5°C 65% 2.0 mph N3.2 kmh N 10.0 mph16.1 kmh 30.37 in1028.4 mb 0.00 in0.0 mm 0.00 in0.0 mm 0.00 in0.0 mm
12:31 PM 42.2°F5.7°C 30.1°F-1.1°C 62% 3.0 mph N4.8 kmh N 10.0 mph16.1 kmh 30.38 in1028.8 mb 0.00 in0.0 mm 0.00 in0.0 mm 0.00 in0.0 mm
12:33 PM 42.2°F5.7°C 29.7°F-1.3°C 61% 2.0 mph N3.2 kmh N 10.0 mph16.1 kmh 30.37 in1028.4 mb 0.00 in0.0 mm 0.00 in0.0 mm 0.00 in0.0 mm
12:34 PM 42.2°F5.7°C 30.1°F-1.1°C 62% 1.0 mph S1.6 kmh S 10.0 mph16.1 kmh 30.37 in1028.4 mb 0.00 in0.0 mm 0.00 in0.0 mm 0.00 in0.0 mm
12:35 PM 42.1°F5.6°C 30.0°F-1.1°C 62% 2.0 mph N3.2 kmh N 10.0 mph16.1 kmh 30.37 in1028.4 mb 0.00 in0.0 mm 0.00 in0.0 mm 0.00 in0.0 mm
12:38 PM 42.1°F5.6°C 30.0°F-1.1°C 62% 3.0 mph N4.8 kmh N 10.0 mph16.1 kmh 30.37 in1028.4 mb 0.00 in0.0 mm 0.00 in0.0 mm 0.00 in0.0 mm
12:39 PM 42.0°F5.6°C 29.9°F-1.2°C 62% 4.0 mph SSE6.4 kmh SSE 10.0 mph16.1 kmh 30.37 in1028.4 mb 0.00 in0.0 mm 0.00 in0.0 mm 0.00 in0.0 mm
12:40 PM 42.0°F5.6°C 29.5°F-1.4°C 61% 2.0 mph N3.2 kmh N 10.0 mph16.1 kmh 30.37 in1028.4 mb 0.00 in0.0 mm 0.00 in0.0 mm 0.00 in0.0 mm
12:42 PM 42.1°F5.6°C 30.4°F-0.9°C 63% 2.0 mph N3.2 kmh N 10.0 mph16.1 kmh 30.37 in1028.4 mb 0.00 in0.0 mm 0.00 in0.0 mm 0.00 in0.0 mm
12:44 PM 42.2°F5.7°C 30.9°F-0.6°C 64% 1.0 mph SW1.6 kmh SW 10.0 mph16.1 kmh 30.37 in1028.4 mb 0.00 in0.0 mm 0.00 in0.0 mm 0.00 in0.0 mm
12:46 PM 42.3°F5.7°C 31.8°F-0.1°C 66% 2.0 mph N3.2 kmh N 10.0 mph16.1 kmh 30.37 in1028.4 mb 0.00 in0.0 mm 0.00 in0.0 mm 0.00 in0.0 mm
12:48 PM 42.5°F5.8°C 30.8°F-0.7°C 63% 3.0 mph N4.8 kmh N 10.0 mph16.1 kmh 30.37 in1028.4 mb 0.00 in0.0 mm 0.00 in0.0 mm 0.00 in0.0 mm
12:49 PM 42.6°F5.9°C 30.5°F-0.8°C 62% 1.0 mph W1.6 kmh W 7.0 mph11.3 kmh 30.37 in1028.4 mb 0.00 in0.0 mm 0.00 in0.0 mm 0.00 in0.0 mm
12:51 PM 42.6°F5.9°C 30.9°F-0.6°C 63% 2.0 mph N3.2 kmh N 7.0 mph11.3 kmh 30.37 in1028.4 mb 0.00 in0.0 mm 0.00 in0.0 mm 0.00 in0.0 mm
12:53 PM 42.7°F5.9°C 30.6°F-0.8°C 62% 2.0 mph N3.2 kmh N 7.0 mph11.3 kmh 30.37 in1028.4 mb 0.00 in0.0 mm 0.00 in0.0 mm 0.00 in0.0 mm
12:54 PM 42.8°F6.0°C 30.7°F-0.7°C 62% Calm Calm 7.0 mph11.3 kmh 30.37 in1028.4 mb 0.00 in0.0 mm 0.00 in0.0 mm 0.00 in0.0 mm
12:55 PM 43.0°F6.1°C 30.9°F-0.6°C 62% 2.0 mph N3.2 kmh N 7.0 mph11.3 kmh 30.37 in1028.4 mb 0.00 in0.0 mm 0.00 in0.0 mm 0.00 in0.0 mm
12:57 PM 43.1°F6.2°C 30.2°F-1.0°C 60% 2.0 mph N3.2 kmh N 7.0 mph11.3 kmh 30.37 in1028.4 mb 0.00 in0.0 mm 0.00 in0.0 mm 0.00 in0.0 mm
12:59 PM 43.2°F6.2°C 30.7°F-0.7°C 61% Calm Calm 7.0 mph11.3 kmh 30.37 in1028.4 mb 0.00 in0.0 mm 0.00 in0.0 mm 0.00 in0.0 mm
01:02 PM 43.4°F6.3°C 30.0°F-1.1°C 59% 3.0 mph N4.8 kmh N 7.0 mph11.3 kmh 30.37 in1028.4 mb 0.00 in0.0 mm 0.00 in0.0 mm 0.00 in0.0 mm
01:04 PM 43.3°F6.3°C 29.5°F-1.4°C 58% 1.0 mph SSW1.6 kmh SSW 7.0 mph11.3 kmh 30.37 in1028.4 mb 0.00 in0.0 mm 0.00 in0.0 mm 0.00 in0.0 mm
01:06 PM 43.4°F6.3°C 30.9°F-0.6°C 61% 5.0 mph N8.0 kmh N 7.0 mph11.3 kmh 30.37 in1028.4 mb 0.00 in0.0 mm 0.00 in0.0 mm 0.00 in0.0 mm
01:08 PM 43.4°F6.3°C 29.2°F-1.6°C 57% 2.0 mph N3.2 kmh N 7.0 mph11.3 kmh 30.37 in1028.4 mb 0.00 in0.0 mm 0.00 in0.0 mm 0.00 in0.0 mm
01:09 PM 43.4°F6.3°C 29.2°F-1.6°C 57% 2.0 mph NW3.2 kmh NW 7.0 mph11.3 kmh 30.37 in1028.4 mb 0.00 in0.0 mm 0.00 in0.0 mm 0.00 in0.0 mm
01:11 PM 43.2°F6.2°C 29.4°F-1.4°C 58% 4.0 mph N6.4 kmh N 7.0 mph11.3 kmh 30.37 in1028.4 mb 0.00 in0.0 mm 0.00 in0.0 mm 0.00 in0.0 mm
01:13 PM 43.2°F6.2°C 30.3°F-0.9°C 60% 4.0 mph N6.4 kmh N 7.0 mph11.3 kmh 30.37 in1028.4 mb 0.00 in0.0 mm 0.00 in0.0 mm 0.00 in0.0 mm
01:14 PM 43.2°F6.2°C 30.3°F-0.9°C 60% 3.0 mph NW4.8 kmh NW 7.0 mph11.3 kmh 30.37 in1028.4 mb 0.00 in0.0 mm 0.00 in0.0 mm 0.00 in0.0 mm
01:15 PM 43.1°F6.2°C 29.8°F-1.2°C 59% 2.0 mph N3.2 kmh N 7.0 mph11.3 kmh 30.37 in1028.4 mb 0.00 in0.0 mm 0.00 in0.0 mm 0.00 in0.0 mm
01:17 PM 43.2°F6.2°C 29.4°F-1.4°C 58% 3.0 mph N4.8 kmh N 7.0 mph11.3 kmh 30.37 in1028.4 mb 0.00 in0.0 mm 0.00 in0.0 mm 0.00 in0.0 mm
01:19 PM 43.1°F6.2°C 30.2°F-1.0°C 60% 3.0 mph S4.8 kmh S 7.0 mph11.3 kmh 30.37 in1028.4 mb 0.00 in0.0 mm 0.00 in0.0 mm 0.00 in0.0 mm
01:21 PM 43.1°F6.2°C 29.8°F-1.2°C 59% 2.0 mph N3.2 kmh N 7.0 mph11.3 kmh 30.37 in1028.4 mb 0.00 in0.0 mm 0.00 in0.0 mm 0.00 in0.0 mm
01:23 PM 43.1°F6.2°C 28.9°F-1.7°C 57% 2.0 mph N3.2 kmh N 7.0 mph11.3 kmh 30.36 in1028.1 mb 0.00 in0.0 mm 0.00 in0.0 mm 0.00 in0.0 mm
01:24 PM 43.1°F6.2°C 28.9°F-1.7°C 57% 2.0 mph SE3.2 kmh SE 7.0 mph11.3 kmh 30.36 in1028.1 mb 0.00 in0.0 mm 0.00 in0.0 mm 0.00 in0.0 mm
01:25 PM 43.2°F6.2°C 29.9°F-1.2°C 59% 2.0 mph N3.2 kmh N 7.0 mph11.3 kmh 30.37 in1028.4 mb 0.00 in0.0 mm 0.00 in0.0 mm 0.00 in0.0 mm
01:57 PM 44.2°F6.8°C 29.9°F-1.2°C 57% 2.0 mph WNW3.2 kmh WNW 3.0 mph4.8 kmh 30.36 in1028.1 mb 0.00 in0.0 mm 0.00 in0.0 mm 0.00 in0.0 mm
01:58 PM 44.2°F6.8°C 30.8°F-0.7°C 59% Calm Calm 3.0 mph4.8 kmh 30.37 in1028.4 mb 0.00 in0.0 mm 0.00 in0.0 mm 0.00 in0.0 mm
02:00 PM 44.2°F6.8°C 30.4°F-0.9°C 58% 1.0 mph N1.6 kmh N 4.0 mph6.4 kmh 30.36 in1028.1 mb 0.00 in0.0 mm 0.00 in0.0 mm 0.00 in0.0 mm
02:02 PM 44.4°F6.9°C 31.0°F-0.6°C 59% 2.0 mph WNW3.2 kmh WNW 5.0 mph8.0 kmh 30.36 in1028.1 mb 0.00 in0.0 mm 0.00 in0.0 mm 0.00 in0.0 mm
02:04 PM 44.4°F6.9°C 29.7°F-1.3°C 56% 3.0 mph N4.8 kmh N 6.0 mph9.7 kmh 30.36 in1028.1 mb 0.00 in0.0 mm 0.00 in0.0 mm 0.00 in0.0 mm
02:06 PM 44.4°F6.9°C 30.1°F-1.1°C 57% 4.0 mph N6.4 kmh N 6.0 mph9.7 kmh 30.36 in1028.1 mb 0.00 in0.0 mm 0.00 in0.0 mm 0.00 in0.0 mm
02:07 PM 44.4°F6.9°C 30.1°F-1.1°C 57% 3.0 mph WSW4.8 kmh WSW 6.0 mph9.7 kmh 30.36 in1028.1 mb 0.00 in0.0 mm 0.00 in0.0 mm 0.00 in0.0 mm
02:09 PM 44.4°F6.9°C 30.1°F-1.1°C 57% 1.0 mph N1.6 kmh N 6.0 mph9.7 kmh 30.36 in1028.1 mb 0.00 in0.0 mm 0.00 in0.0 mm 0.00 in0.0 mm
02:11 PM 44.5°F6.9°C 28.9°F-1.7°C 54% 2.0 mph N3.2 kmh N 6.0 mph9.7 kmh 30.36 in1028.1 mb 0.00 in0.0 mm 0.00 in0.0 mm 0.00 in0.0 mm
02:12 PM 44.4°F6.9°C 29.3°F-1.5°C 55% 5.0 mph SW8.0 kmh SW 8.0 mph12.9 kmh 30.35 in1027.8 mb 0.00 in0.0 mm 0.00 in0.0 mm 0.00 in0.0 mm
02:13 PM 44.4°F6.9°C 29.3°F-1.5°C 55% 3.0 mph N4.8 kmh N 8.0 mph12.9 kmh 30.36 in1028.1 mb 0.00 in0.0 mm 0.00 in0.0 mm 0.00 in0.0 mm
02:15 PM 44.3°F6.8°C 29.6°F-1.3°C 56% 3.0 mph N4.8 kmh N 8.0 mph12.9 kmh 30.36 in1028.1 mb 0.00 in0.0 mm 0.00 in0.0 mm 0.00 in0.0 mm
02:17 PM 44.3°F6.8°C 30.9°F-0.6°C 59% 1.0 mph N1.6 kmh N 8.0 mph12.9 kmh 30.36 in1028.1 mb 0.00 in0.0 mm 0.00 in0.0 mm 0.00 in0.0 mm
02:19 PM 44.3°F6.8°C 30.5°F-0.8°C 58% 2.0 mph N3.2 kmh N 8.0 mph12.9 kmh 30.36 in1028.1 mb 0.00 in0.0 mm 0.00 in0.0 mm 0.00 in0.0 mm
02:21 PM 44.4°F6.9°C 31.0°F-0.6°C 59% 2.0 mph N3.2 kmh N 8.0 mph12.9 kmh 30.36 in1028.1 mb 0.00 in0.0 mm 0.00 in0.0 mm 0.00 in0.0 mm
02:22 PM 44.4°F6.9°C 30.1°F-1.1°C 57% 2.0 mph NW3.2 kmh NW 8.0 mph12.9 kmh 30.36 in1028.1 mb 0.00 in0.0 mm 0.00 in0.0 mm 0.00 in0.0 mm
02:23 PM 44.3°F6.8°C 29.6°F-1.3°C 56% 3.0 mph N4.8 kmh N 8.0 mph12.9 kmh 30.36 in1028.1 mb 0.00 in0.0 mm 0.00 in0.0 mm 0.00 in0.0 mm
02:25 PM 44.3°F6.8°C 30.0°F-1.1°C 57% 2.0 mph N3.2 kmh N 8.0 mph12.9 kmh 30.36 in1028.1 mb 0.00 in0.0 mm 0.00 in0.0 mm 0.00 in0.0 mm
02:27 PM 44.4°F6.9°C 30.1°F-1.1°C 57% 3.0 mph WSW4.8 kmh WSW 8.0 mph12.9 kmh 30.36 in1028.1 mb 0.00 in0.0 mm 0.00 in0.0 mm 0.00 in0.0 mm
02:28 PM 44.4°F6.9°C 30.1°F-1.1°C 57% 4.0 mph N6.4 kmh N 8.0 mph12.9 kmh 30.36 in1028.1 mb 0.00 in0.0 mm 0.00 in0.0 mm 0.00 in0.0 mm
02:30 PM 44.4°F6.9°C 30.1°F-1.1°C 57% 1.0 mph N1.6 kmh N 8.0 mph12.9 kmh 30.36 in1028.1 mb 0.00 in0.0 mm 0.00 in0.0 mm 0.00 in0.0 mm
02:32 PM 44.4°F6.9°C 30.1°F-1.1°C 57% 3.0 mph WSW4.8 kmh WSW 8.0 mph12.9 kmh 30.36 in1028.1 mb 0.00 in0.0 mm 0.00 in0.0 mm 0.00 in0.0 mm
02:34 PM 44.5°F6.9°C 30.2°F-1.0°C 57% 3.0 mph N4.8 kmh N 7.0 mph11.3 kmh 30.36 in1028.1 mb 0.00 in0.0 mm 0.00 in0.0 mm 0.00 in0.0 mm
02:36 PM 44.5°F6.9°C 29.4°F-1.4°C 55% 1.0 mph N1.6 kmh N 7.0 mph11.3 kmh 30.36 in1028.1 mb 0.00 in0.0 mm 0.00 in0.0 mm 0.00 in0.0 mm
02:37 PM 44.5°F6.9°C 29.3°F-1.5°C 55% 2.0 mph WNW3.2 kmh WNW 7.0 mph11.3 kmh 30.36 in1028.1 mb 0.00 in0.0 mm 0.00 in0.0 mm 0.00 in0.0 mm
02:38 PM 44.5°F6.9°C 29.8°F-1.2°C 56% 3.0 mph N4.8 kmh N 7.0 mph11.3 kmh 30.36 in1028.1 mb 0.00 in0.0 mm 0.00 in0.0 mm 0.00 in0.0 mm
02:41 PM 44.6°F7.0°C 29.4°F-1.4°C 55% 4.0 mph N6.4 kmh N 8.0 mph12.9 kmh 30.36 in1028.1 mb 0.00 in0.0 mm 0.00 in0.0 mm 0.00 in0.0 mm
02:42 PM 44.6°F7.0°C 29.0°F-1.7°C 54% 3.0 mph S4.8 kmh S 8.0 mph12.9 kmh 30.36 in1028.1 mb 0.00 in0.0 mm 0.00 in0.0 mm 0.00 in0.0 mm
02:43 PM 44.5°F6.9°C 29.4°F-1.4°C 55% 1.0 mph N1.6 kmh N 8.0 mph12.9 kmh 30.36 in1028.1 mb 0.00 in0.0 mm 0.00 in0.0 mm 0.00 in0.0 mm
02:45 PM 44.4°F6.9°C 28.8°F-1.8°C 54% 7.0 mph N11.3 kmh N 8.0 mph12.9 kmh 30.36 in1028.1 mb 0.00 in0.0 mm 0.00 in0.0 mm 0.00 in0.0 mm
02:47 PM 44.1°F6.7°C 29.4°F-1.4°C 56% 1.0 mph SW1.6 kmh SW 8.0 mph12.9 kmh 30.36 in1028.1 mb 0.00 in0.0 mm 0.00 in0.0 mm 0.00 in0.0 mm
02:49 PM 44.0°F6.7°C 30.2°F-1.0°C 58% Calm Calm 8.0 mph12.9 kmh 30.36 in1028.1 mb 0.00 in0.0 mm 0.00 in0.0 mm 0.00 in0.0 mm
02:51 PM 44.0°F6.7°C 30.2°F-1.0°C 58% 3.0 mph N4.8 kmh N 8.0 mph12.9 kmh 30.36 in1028.1 mb 0.00 in0.0 mm 0.00 in0.0 mm 0.00 in0.0 mm
02:52 PM 43.9°F6.6°C 30.5°F-0.8°C 59% 3.0 mph SW4.8 kmh SW 8.0 mph12.9 kmh 30.36 in1028.1 mb 0.00 in0.0 mm 0.00 in0.0 mm 0.00 in0.0 mm
02:53 PM 43.9°F6.6°C 29.7°F-1.3°C 57% Calm Calm 8.0 mph12.9 kmh 30.36 in1028.1 mb 0.00 in0.0 mm 0.00 in0.0 mm 0.00 in0.0 mm
02:56 PM 43.7°F6.5°C 29.0°F-1.7°C 56% 2.0 mph N3.2 kmh N 9.0 mph14.5 kmh 30.36 in1028.1 mb 0.00 in0.0 mm 0.00 in0.0 mm 0.00 in0.0 mm
02:57 PM 43.6°F6.4°C 29.4°F-1.4°C 57% 4.0 mph S6.4 kmh S 9.0 mph14.5 kmh 30.36 in1028.1 mb 0.00 in0.0 mm 0.00 in0.0 mm 0.00 in0.0 mm
02:58 PM 43.6°F6.4°C 29.4°F-1.4°C 57% 1.0 mph N1.6 kmh N 9.0 mph14.5 kmh 30.36 in1028.1 mb 0.00 in0.0 mm 0.00 in0.0 mm 0.00 in0.0 mm
03:00 PM 43.5°F6.4°C 28.9°F-1.7°C 56% 1.0 mph N1.6 kmh N 9.0 mph14.5 kmh 30.36 in1028.1 mb 0.00 in0.0 mm 0.00 in0.0 mm 0.00 in0.0 mm
03:02 PM 43.5°F6.4°C 29.3°F-1.5°C 57% 2.0 mph W3.2 kmh W 9.0 mph14.5 kmh 30.35 in1027.8 mb 0.00 in0.0 mm 0.00 in0.0 mm 0.00 in0.0 mm
03:05 PM 43.4°F6.3°C 30.0°F-1.1°C 59% 2.0 mph N3.2 kmh N 9.0 mph14.5 kmh 30.36 in1028.1 mb 0.00 in0.0 mm 0.00 in0.0 mm 0.00 in0.0 mm
03:07 PM 43.5°F6.4°C 29.3°F-1.5°C 57% 6.0 mph N9.7 kmh N 9.0 mph14.5 kmh 30.36 in1028.1 mb 0.00 in0.0 mm 0.00 in0.0 mm 0.00 in0.0 mm
03:09 PM 43.3°F6.3°C 30.0°F-1.1°C 59% 4.0 mph N6.4 kmh N 9.0 mph14.5 kmh 30.36 in1028.1 mb 0.00 in0.0 mm 0.00 in0.0 mm 0.00 in0.0 mm
03:11 PM 43.2°F6.2°C 29.4°F-1.4°C 58% 1.0 mph N1.6 kmh N 9.0 mph14.5 kmh 30.36 in1028.1 mb 0.00 in0.0 mm 0.00 in0.0 mm 0.00 in0.0 mm
03:12 PM 43.2°F6.2°C 29.4°F-1.4°C 58% 2.0 mph E3.2 kmh E 9.0 mph14.5 kmh 30.35 in1027.8 mb 0.00 in0.0 mm 0.00 in0.0 mm 0.00 in0.0 mm
03:14 PM 43.1°F6.2°C 28.9°F-1.7°C 57% 1.0 mph N1.6 kmh N 9.0 mph14.5 kmh 30.36 in1028.1 mb 0.00 in0.0 mm 0.00 in0.0 mm 0.00 in0.0 mm
03:16 PM 43.0°F6.1°C 28.4°F-2.0°C 56% 1.0 mph N1.6 kmh N 8.0 mph12.9 kmh 30.36 in1028.1 mb 0.00 in0.0 mm 0.00 in0.0 mm 0.00 in0.0 mm
03:17 PM 43.0°F6.1°C 28.8°F-1.8°C 57% 3.0 mph SW4.8 kmh SW 8.0 mph12.9 kmh 30.35 in1027.8 mb 0.00 in0.0 mm 0.00 in0.0 mm 0.00 in0.0 mm
03:18 PM 42.9°F6.1°C 28.3°F-2.1°C 56% 2.0 mph N3.2 kmh N 8.0 mph12.9 kmh 30.36 in1028.1 mb 0.00 in0.0 mm 0.00 in0.0 mm 0.00 in0.0 mm
03:21 PM 42.9°F6.1°C 29.2°F-1.6°C 58% 2.0 mph N3.2 kmh N 8.0 mph12.9 kmh 30.36 in1028.1 mb 0.00 in0.0 mm 0.00 in0.0 mm 0.00 in0.0 mm
03:22 PM 42.9°F6.1°C 29.2°F-1.6°C 58% 4.0 mph W6.4 kmh W 8.0 mph12.9 kmh 30.35 in1027.8 mb 0.00 in0.0 mm 0.00 in0.0 mm 0.00 in0.0 mm
03:23 PM 42.8°F6.0°C 29.1°F-1.6°C 58% 6.0 mph N9.7 kmh N 8.0 mph12.9 kmh 30.36 in1028.1 mb 0.00 in0.0 mm 0.00 in0.0 mm 0.00 in0.0 mm
03:25 PM 42.8°F6.0°C 29.1°F-1.6°C 58% 1.0 mph N1.6 kmh N 8.0 mph12.9 kmh 30.36 in1028.1 mb 0.00 in0.0 mm 0.00 in0.0 mm 0.00 in0.0 mm
03:27 PM 42.8°F6.0°C 29.5°F-1.4°C 59% 1.0 mph WSW1.6 kmh WSW 8.0 mph12.9 kmh 30.36 in1028.1 mb 0.00 in0.0 mm 0.00 in0.0 mm 0.00 in0.0 mm
03:29 PM 42.8°F6.0°C 29.1°F-1.6°C 58% 4.0 mph N6.4 kmh N 8.0 mph12.9 kmh 30.36 in1028.1 mb 0.00 in0.0 mm 0.00 in0.0 mm 0.00 in0.0 mm
03:31 PM 42.7°F5.9°C 29.0°F-1.7°C 58% Calm Calm 8.0 mph12.9 kmh 30.36 in1028.1 mb 0.00 in0.0 mm 0.00 in0.0 mm 0.00 in0.0 mm
03:32 PM 42.7°F5.9°C 29.0°F-1.7°C 58% 1.0 mph SE1.6 kmh SE 8.0 mph12.9 kmh 30.36 in1028.1 mb 0.00 in0.0 mm 0.00 in0.0 mm 0.00 in0.0 mm
03:33 PM 42.7°F5.9°C 29.0°F-1.7°C 58% 2.0 mph N3.2 kmh N 8.0 mph12.9 kmh 30.36 in1028.1 mb 0.00 in0.0 mm 0.00 in0.0 mm 0.00 in0.0 mm
03:36 PM 42.7°F5.9°C 29.0°F-1.7°C 58% 2.0 mph N3.2 kmh N 7.0 mph11.3 kmh 30.36 in1028.1 mb 0.00 in0.0 mm 0.00 in0.0 mm 0.00 in0.0 mm
03:37 PM 42.7°F5.9°C 28.5°F-1.9°C 57% 2.0 mph WSW3.2 kmh WSW 7.0 mph11.3 kmh 30.36 in1028.1 mb 0.00 in0.0 mm 0.00 in0.0 mm 0.00 in0.0 mm
03:38 PM 42.7°F5.9°C 29.0°F-1.7°C 58% 7.0 mph N11.3 kmh N 7.0 mph11.3 kmh 30.36 in1028.1 mb 0.00 in0.0 mm 0.00 in0.0 mm 0.00 in0.0 mm
03:40 PM 42.7°F5.9°C 28.5°F-1.9°C 57% Calm Calm 7.0 mph11.3 kmh 30.37 in1028.4 mb 0.00 in0.0 mm 0.00 in0.0 mm 0.00 in0.0 mm
03:42 PM 42.7°F5.9°C 29.4°F-1.4°C 59% 1.0 mph SW1.6 kmh SW 7.0 mph11.3 kmh 30.36 in1028.1 mb 0.00 in0.0 mm 0.00 in0.0 mm 0.00 in0.0 mm
03:45 PM 42.7°F5.9°C 29.4°F-1.4°C 59% Calm Calm 7.0 mph11.3 kmh 30.36 in1028.1 mb 0.00 in0.0 mm 0.00 in0.0 mm 0.00 in0.0 mm
03:47 PM 42.8°F6.0°C 30.3°F-0.9°C 61% 1.0 mph W1.6 kmh W 7.0 mph11.3 kmh 30.36 in1028.1 mb 0.00 in0.0 mm 0.00 in0.0 mm 0.00 in0.0 mm
03:49 PM 42.8°F6.0°C 29.1°F-1.6°C 58% 1.0 mph N1.6 kmh N 7.0 mph11.3 kmh 30.37 in1028.4 mb 0.00 in0.0 mm 0.00 in0.0 mm 0.00 in0.0 mm
03:51 PM 42.9°F6.1°C 28.7°F-1.8°C 57% 2.0 mph N3.2 kmh N 7.0 mph11.3 kmh 30.37 in1028.4 mb 0.00 in0.0 mm 0.00 in0.0 mm 0.00 in0.0 mm
03:52 PM 42.8°F6.0°C 29.1°F-1.6°C 58% 2.0 mph WSW3.2 kmh WSW 7.0 mph11.3 kmh 30.36 in1028.1 mb 0.00 in0.0 mm 0.00 in0.0 mm 0.00 in0.0 mm
03:54 PM 42.8°F6.0°C 28.6°F-1.9°C 57% 1.0 mph N1.6 kmh N 7.0 mph11.3 kmh 30.37 in1028.4 mb 0.00 in0.0 mm 0.00 in0.0 mm 0.00 in0.0 mm
03:56 PM 42.8°F6.0°C 29.1°F-1.6°C 58% 1.0 mph N1.6 kmh N 4.0 mph6.4 kmh 30.37 in1028.4 mb 0.00 in0.0 mm 0.00 in0.0 mm 0.00 in0.0 mm
03:58 PM 42.7°F5.9°C 29.0°F-1.7°C 58% 1.0 mph N1.6 kmh N 6.0 mph9.7 kmh 30.36 in1028.1 mb 0.00 in0.0 mm 0.00 in0.0 mm 0.00 in0.0 mm
04:00 PM 42.6°F5.9°C 29.3°F-1.5°C 59% 3.0 mph N4.8 kmh N 6.0 mph9.7 kmh 30.36 in1028.1 mb 0.00 in0.0 mm 0.00 in0.0 mm 0.00 in0.0 mm
04:01 PM 42.6°F5.9°C 28.9°F-1.7°C 58% 2.0 mph S3.2 kmh S 6.0 mph9.7 kmh 30.36 in1028.1 mb 0.00 in0.0 mm 0.00 in0.0 mm 0.00 in0.0 mm
04:02 PM 42.6°F5.9°C 28.9°F-1.7°C 58% Calm Calm 6.0 mph9.7 kmh 30.36 in1028.1 mb 0.00 in0.0 mm 0.00 in0.0 mm 0.00 in0.0 mm
04:04 PM 42.5°F5.8°C 28.8°F-1.8°C 58% 2.0 mph N3.2 kmh N 6.0 mph9.7 kmh 30.36 in1028.1 mb 0.00 in0.0 mm 0.00 in0.0 mm 0.00 in0.0 mm
04:06 PM 42.5°F5.8°C 28.8°F-1.8°C 58% Calm Calm 6.0 mph9.7 kmh 30.36 in1028.1 mb 0.00 in0.0 mm 0.00 in0.0 mm 0.00 in0.0 mm
04:07 PM 42.5°F5.8°C 28.8°F-1.8°C 58% Calm Calm 6.0 mph9.7 kmh 30.36 in1028.1 mb 0.00 in0.0 mm 0.00 in0.0 mm 0.00 in0.0 mm
04:09 PM 42.4°F5.8°C 28.7°F-1.8°C 58% 3.0 mph N4.8 kmh N 6.0 mph9.7 kmh 30.36 in1028.1 mb 0.00 in0.0 mm 0.00 in0.0 mm 0.00 in0.0 mm
04:11 PM 42.4°F5.8°C 29.5°F-1.4°C 60% 2.0 mph N3.2 kmh N 6.0 mph9.7 kmh 30.36 in1028.1 mb 0.00 in0.0 mm 0.00 in0.0 mm 0.00 in0.0 mm
04:13 PM 42.4°F5.8°C 29.1°F-1.6°C 59% 2.0 mph N3.2 kmh N 6.0 mph9.7 kmh 30.36 in1028.1 mb 0.00 in0.0 mm 0.00 in0.0 mm 0.00 in0.0 mm
04:16 PM 42.4°F5.8°C 29.1°F-1.6°C 59% Calm Calm 6.0 mph9.7 kmh 30.36 in1028.1 mb 0.00 in0.0 mm 0.00 in0.0 mm 0.00 in0.0 mm
04:18 PM 42.4°F5.8°C 29.9°F-1.2°C 61% Calm Calm 4.0 mph6.4 kmh 30.36 in1028.1 mb 0.00 in0.0 mm 0.00 in0.0 mm 0.00 in0.0 mm
04:20 PM 42.3°F5.7°C 29.4°F-1.4°C 60% Calm Calm 4.0 mph6.4 kmh 30.36 in1028.1 mb 0.00 in0.0 mm 0.00 in0.0 mm 0.00 in0.0 mm
04:21 PM 42.3°F5.7°C 29.4°F-1.4°C 60% 1.0 mph W1.6 kmh W 4.0 mph6.4 kmh 30.35 in1027.8 mb 0.00 in0.0 mm 0.00 in0.0 mm 0.00 in0.0 mm
04:22 PM 42.3°F5.7°C 29.4°F-1.4°C 60% 1.0 mph N1.6 kmh N 4.0 mph6.4 kmh 30.35 in1027.8 mb 0.00 in0.0 mm 0.00 in0.0 mm 0.00 in0.0 mm
04:24 PM 42.3°F5.7°C 29.8°F-1.2°C 61% 2.0 mph N3.2 kmh N 4.0 mph6.4 kmh 30.35 in1027.8 mb 0.00 in0.0 mm 0.00 in0.0 mm 0.00 in0.0 mm
04:26 PM 42.3°F5.7°C 29.8°F-1.2°C 61% Calm Calm 3.0 mph4.8 kmh 30.35 in1027.8 mb 0.00 in0.0 mm 0.00 in0.0 mm 0.00 in0.0 mm
04:28 PM 42.2°F5.7°C 28.9°F-1.7°C 59% 3.0 mph N4.8 kmh N 5.0 mph8.0 kmh 30.35 in1027.8 mb 0.00 in0.0 mm 0.00 in0.0 mm 0.00 in0.0 mm
04:30 PM 42.2°F5.7°C 29.3°F-1.5°C 60% Calm Calm 5.0 mph8.0 kmh 30.35 in1027.8 mb 0.00 in0.0 mm 0.00 in0.0 mm 0.00 in0.0 mm
04:31 PM 42.1°F5.6°C 30.0°F-1.1°C 62% 1.0 mph NW1.6 kmh NW 5.0 mph8.0 kmh 30.35 in1027.8 mb 0.00 in0.0 mm 0.00 in0.0 mm 0.00 in0.0 mm
04:33 PM 42.1°F5.6°C 29.6°F-1.3°C 61% Calm Calm 5.0 mph8.0 kmh 30.35 in1027.8 mb 0.00 in0.0 mm 0.00 in0.0 mm 0.00 in0.0 mm
04:35 PM 42.0°F5.6°C 29.5°F-1.4°C 61% Calm Calm 5.0 mph8.0 kmh 30.35 in1027.8 mb 0.00 in0.0 mm 0.00 in0.0 mm 0.00 in0.0 mm
04:36 PM 42.0°F5.6°C 29.9°F-1.2°C 62% 2.0 mph NW3.2 kmh NW 5.0 mph8.0 kmh 30.35 in1027.8 mb 0.00 in0.0 mm 0.00 in0.0 mm 0.00 in0.0 mm
04:37 PM 42.0°F5.6°C 29.1°F-1.6°C 60% Calm Calm 5.0 mph8.0 kmh 30.35 in1027.8 mb 0.00 in0.0 mm 0.00 in0.0 mm 0.00 in0.0 mm
04:39 PM 41.9°F5.5°C 29.5°F-1.4°C 61% Calm Calm 5.0 mph8.0 kmh 30.35 in1027.8 mb 0.00 in0.0 mm 0.00 in0.0 mm 0.00 in0.0 mm
04:41 PM 41.9°F5.5°C 30.2°F-1.0°C 63% Calm Calm 1.0 mph1.6 kmh 30.35 in1027.8 mb 0.00 in0.0 mm 0.00 in0.0 mm 0.00 in0.0 mm
04:42 PM 41.9°F5.5°C 30.2°F-1.0°C 63% 1.0 mph N1.6 kmh N 1.0 mph1.6 kmh 30.35 in1027.8 mb 0.00 in0.0 mm 0.00 in0.0 mm 0.00 in0.0 mm
04:44 PM 41.8°F5.4°C 29.0°F-1.7°C 60% Calm Calm 4.0 mph6.4 kmh 30.35 in1027.8 mb 0.00 in0.0 mm 0.00 in0.0 mm 0.00 in0.0 mm
04:46 PM 41.7°F5.4°C 28.4°F-2.0°C 59% 2.0 mph N3.2 kmh N 4.0 mph6.4 kmh 30.35 in1027.8 mb 0.00 in0.0 mm 0.00 in0.0 mm 0.00 in0.0 mm
04:48 PM 41.6°F5.3°C 28.4°F-2.0°C 59% Calm Calm 4.0 mph6.4 kmh 30.35 in1027.8 mb 0.00 in0.0 mm 0.00 in0.0 mm 0.00 in0.0 mm
04:50 PM 41.6°F5.3°C 28.8°F-1.8°C 60% 1.0 mph N1.6 kmh N 4.0 mph6.4 kmh 30.35 in1027.8 mb 0.00 in0.0 mm 0.00 in0.0 mm 0.00 in0.0 mm
04:51 PM 41.6°F5.3°C 29.2°F-1.6°C 61% Calm Calm 4.0 mph6.4 kmh 30.34 in1027.4 mb 0.00 in0.0 mm 0.00 in0.0 mm 0.00 in0.0 mm
04:52 PM 41.5°F5.3°C 29.5°F-1.4°C 62% Calm Calm 1.0 mph1.6 kmh 30.35 in1027.8 mb 0.00 in0.0 mm 0.00 in0.0 mm 0.00 in0.0 mm
04:55 PM 41.4°F5.2°C 28.6°F-1.9°C 60% Calm Calm 2.0 mph3.2 kmh 30.35 in1027.8 mb 0.00 in0.0 mm 0.00 in0.0 mm 0.00 in0.0 mm
04:56 PM 41.3°F5.2°C 28.5°F-1.9°C 60% 1.0 mph W1.6 kmh W 2.0 mph3.2 kmh 30.34 in1027.4 mb 0.00 in0.0 mm 0.00 in0.0 mm 0.00 in0.0 mm
04:57 PM 41.3°F5.2°C 28.5°F-1.9°C 60% Calm Calm 5.0 mph8.0 kmh 30.35 in1027.8 mb 0.00 in0.0 mm 0.00 in0.0 mm 0.00 in0.0 mm
04:59 PM 41.2°F5.1°C 28.4°F-2.0°C 60% Calm Calm 5.0 mph8.0 kmh 30.35 in1027.8 mb 0.00 in0.0 mm 0.00 in0.0 mm 0.00 in0.0 mm
05:01 PM 41.1°F5.1°C 28.7°F-1.8°C 61% Calm Calm 5.0 mph8.0 kmh 30.34 in1027.4 mb 0.00 in0.0 mm 0.00 in0.0 mm 0.00 in0.0 mm
05:02 PM 41.1°F5.1°C 28.7°F-1.8°C 61% Calm Calm 5.0 mph8.0 kmh 30.35 in1027.8 mb 0.00 in0.0 mm 0.00 in0.0 mm 0.00 in0.0 mm
05:04 PM 41.1°F5.1°C 28.7°F-1.8°C 61% 1.0 mph N1.6 kmh N 5.0 mph8.0 kmh 30.35 in1027.8 mb 0.00 in0.0 mm 0.00 in0.0 mm 0.00 in0.0 mm
05:06 PM 40.9°F4.9°C 29.7°F-1.3°C 64% Calm Calm -- 30.35 in1027.8 mb 0.00 in0.0 mm 0.00 in0.0 mm 0.00 in0.0 mm
05:08 PM 40.8°F4.9°C 28.8°F-1.8°C 62% 2.0 mph N3.2 kmh N 3.0 mph4.8 kmh 30.35 in1027.8 mb 0.00 in0.0 mm 0.00 in0.0 mm 0.00 in0.0 mm
05:11 PM 40.7°F4.8°C 29.1°F-1.6°C 63% Calm Calm -- 30.35 in1027.8 mb 0.00 in0.0 mm 0.00 in0.0 mm 0.00 in0.0 mm
05:13 PM 40.7°F4.8°C 28.7°F-1.8°C 62% Calm Calm 1.0 mph1.6 kmh 30.35 in1027.8 mb 0.00 in0.0 mm 0.00 in0.0 mm 0.00 in0.0 mm
05:15 PM 40.5°F4.7°C 28.9°F-1.7°C 63% Calm Calm 2.0 mph3.2 kmh 30.35 in1027.8 mb 0.00 in0.0 mm 0.00 in0.0 mm 0.00 in0.0 mm
05:16 PM 40.5°F4.7°C 28.9°F-1.7°C 63% 1.0 mph SW1.6 kmh SW 2.0 mph3.2 kmh 30.35 in1027.8 mb 0.00 in0.0 mm 0.00 in0.0 mm 0.00 in0.0 mm
05:17 PM 40.4°F4.7°C 29.2°F-1.6°C 64% 1.0 mph N1.6 kmh N 2.0 mph3.2 kmh 30.35 in1027.8 mb 0.00 in0.0 mm 0.00 in0.0 mm 0.00 in0.0 mm
05:19 PM 40.3°F4.6°C 29.1°F-1.6°C 64% Calm Calm 2.0 mph3.2 kmh 30.35 in1027.8 mb 0.00 in0.0 mm 0.00 in0.0 mm 0.00 in0.0 mm
05:21 PM 40.2°F4.6°C 29.0°F-1.7°C 64% Calm Calm 2.0 mph3.2 kmh 30.34 in1027.4 mb 0.00 in0.0 mm 0.00 in0.0 mm 0.00 in0.0 mm
05:23 PM 40.1°F4.5°C 28.9°F-1.7°C 64% Calm Calm -- 30.35 in1027.8 mb 0.00 in0.0 mm 0.00 in0.0 mm 0.00 in0.0 mm
05:25 PM 39.9°F4.4°C 28.7°F-1.8°C 64% Calm Calm -- 30.35 in1027.8 mb 0.00 in0.0 mm 0.00 in0.0 mm 0.00 in0.0 mm
05:26 PM 40.0°F4.4°C 28.8°F-1.8°C 64% Calm Calm -- 30.35 in1027.8 mb 0.00 in0.0 mm 0.00 in0.0 mm 0.00 in0.0 mm
05:27 PM 39.9°F4.4°C 28.7°F-1.8°C 64% Calm Calm -- 30.35 in1027.8 mb 0.00 in0.0 mm 0.00 in0.0 mm 0.00 in0.0 mm
05:30 PM 39.7°F4.3°C 28.5°F-1.9°C 64% Calm Calm 2.0 mph3.2 kmh 30.35 in1027.8 mb 0.00 in0.0 mm 0.00 in0.0 mm 0.00 in0.0 mm
05:31 PM 39.7°F4.3°C 28.9°F-1.7°C 65% Calm Calm 2.0 mph3.2 kmh 30.34 in1027.4 mb 0.00 in0.0 mm 0.00 in0.0 mm 0.00 in0.0 mm
05:32 PM 39.6°F4.2°C 28.4°F-2.0°C 64% Calm Calm 2.0 mph3.2 kmh 30.35 in1027.8 mb 0.00 in0.0 mm 0.00 in0.0 mm 0.00 in0.0 mm
05:34 PM 39.5°F4.2°C 28.7°F-1.8°C 65% Calm Calm 2.0 mph3.2 kmh 30.35 in1027.8 mb 0.00 in0.0 mm 0.00 in0.0 mm 0.00 in0.0 mm
05:36 PM 39.3°F4.1°C 28.9°F-1.7°C 66% Calm Calm 2.0 mph3.2 kmh 30.34 in1027.4 mb 0.00 in0.0 mm 0.00 in0.0 mm 0.00 in0.0 mm
05:38 PM 39.2°F4.0°C 28.8°F-1.8°C 66% 1.0 mph N1.6 kmh N 1.0 mph1.6 kmh 30.34 in1027.4 mb 0.00 in0.0 mm 0.00 in0.0 mm 0.00 in0.0 mm
05:40 PM 39.1°F3.9°C 28.7°F-1.8°C 66% 1.0 mph N1.6 kmh N 1.0 mph1.6 kmh 30.34 in1027.4 mb 0.00 in0.0 mm 0.00 in0.0 mm 0.00 in0.0 mm
05:41 PM 39.0°F3.9°C 28.6°F-1.9°C 66% Calm Calm 1.0 mph1.6 kmh 30.34 in1027.4 mb 0.00 in0.0 mm 0.00 in0.0 mm 0.00 in0.0 mm
05:42 PM 38.9°F3.8°C 28.9°F-1.7°C 67% Calm Calm 1.0 mph1.6 kmh 30.35 in1027.8 mb 0.00 in0.0 mm 0.00 in0.0 mm 0.00 in0.0 mm
05:45 PM 38.8°F3.8°C 28.4°F-2.0°C 66% Calm Calm -- 30.34 in1027.4 mb 0.00 in0.0 mm 0.00 in0.0 mm 0.00 in0.0 mm
05:46 PM 38.7°F3.7°C 28.7°F-1.8°C 67% Calm Calm 1.0 mph1.6 kmh 30.34 in1027.4 mb 0.00 in0.0 mm 0.00 in0.0 mm 0.00 in0.0 mm
05:47 PM 38.6°F3.7°C 28.6°F-1.9°C 67% Calm Calm 1.0 mph1.6 kmh 30.35 in1027.8 mb 0.00 in0.0 mm 0.00 in0.0 mm 0.00 in0.0 mm
05:49 PM 38.5°F3.6°C 28.1°F-2.2°C 66% Calm Calm 1.0 mph1.6 kmh 30.35 in1027.8 mb 0.00 in0.0 mm 0.00 in0.0 mm 0.00 in0.0 mm
05:51 PM 38.4°F3.6°C 28.0°F-2.2°C 66% Calm Calm 1.0 mph1.6 kmh 30.35 in1027.8 mb 0.00 in0.0 mm 0.00 in0.0 mm 0.00 in0.0 mm
05:54 PM 38.2°F3.4°C 28.2°F-2.1°C 67% Calm Calm 1.0 mph1.6 kmh 30.35 in1027.8 mb 0.00 in0.0 mm 0.00 in0.0 mm 0.00 in0.0 mm
05:56 PM 38.2°F3.4°C 28.2°F-2.1°C 67% Calm Calm 1.0 mph1.6 kmh 30.35 in1027.8 mb 0.00 in0.0 mm 0.00 in0.0 mm 0.00 in0.0 mm
05:58 PM 38.1°F3.4°C 28.1°F-2.2°C 67% Calm Calm 2.0 mph3.2 kmh 30.36 in1028.1 mb 0.00 in0.0 mm 0.00 in0.0 mm 0.00 in0.0 mm
06:00 PM 38.0°F3.3°C 28.4°F-2.0°C 68% Calm Calm 1.0 mph1.6 kmh 30.35 in1027.8 mb 0.00 in0.0 mm 0.00 in0.0 mm 0.00 in0.0 mm
06:01 PM 38.0°F3.3°C 28.4°F-2.0°C 68% Calm Calm 1.0 mph1.6 kmh 30.35 in1027.8 mb 0.00 in0.0 mm 0.00 in0.0 mm 0.00 in0.0 mm
06:02 PM 37.9°F3.3°C 28.3°F-2.1°C 68% Calm Calm 1.0 mph1.6 kmh 30.35 in1027.8 mb 0.00 in0.0 mm 0.00 in0.0 mm 0.00 in0.0 mm
06:05 PM 37.9°F3.3°C 28.3°F-2.1°C 68% Calm Calm -- 30.35 in1027.8 mb 0.00 in0.0 mm 0.00 in0.0 mm 0.00 in0.0 mm
06:06 PM 37.9°F3.3°C 28.3°F-2.1°C 68% Calm Calm -- 30.35 in1027.8 mb 0.00 in0.0 mm 0.00 in0.0 mm 0.00 in0.0 mm
06:07 PM 37.8°F3.2°C 28.2°F-2.1°C 68% Calm Calm -- 30.35 in1027.8 mb 0.00 in0.0 mm 0.00 in0.0 mm 0.00 in0.0 mm
06:09 PM 37.8°F3.2°C 28.2°F-2.1°C 68% Calm Calm -- 30.35 in1027.8 mb 0.00 in0.0 mm 0.00 in0.0 mm 0.00 in0.0 mm
06:11 PM 37.7°F3.2°C 28.1°F-2.2°C 68% Calm Calm -- 30.35 in1027.8 mb 0.00 in0.0 mm 0.00 in0.0 mm 0.00 in0.0 mm
06:13 PM 37.7°F3.2°C 28.1°F-2.2°C 68% Calm Calm -- 30.35 in1027.8 mb 0.00 in0.0 mm 0.00 in0.0 mm 0.00 in0.0 mm
06:15 PM 37.6°F3.1°C 28.4°F-2.0°C 69% Calm Calm -- 30.35 in1027.8 mb 0.00 in0.0 mm 0.00 in0.0 mm 0.00 in0.0 mm
06:16 PM 37.6°F3.1°C 28.4°F-2.0°C 69% Calm Calm -- 30.35 in1027.8 mb 0.00 in0.0 mm 0.00 in0.0 mm 0.00 in0.0 mm
06:18 PM 37.4°F3.0°C 28.2°F-2.1°C 69% Calm Calm -- 30.35 in1027.8 mb 0.00 in0.0 mm 0.00 in0.0 mm 0.00 in0.0 mm
06:20 PM 37.3°F2.9°C 28.1°F-2.2°C 69% Calm Calm -- 30.35 in1027.8 mb 0.00 in0.0 mm 0.00 in0.0 mm 0.00 in0.0 mm
06:21 PM 37.3°F2.9°C 28.1°F-2.2°C 69% Calm Calm -- 30.35 in1027.8 mb 0.00 in0.0 mm 0.00 in0.0 mm 0.00 in0.0 mm
06:22 PM 37.3°F2.9°C 28.1°F-2.2°C 69% Calm Calm -- 30.35 in1027.8 mb 0.00 in0.0 mm 0.00 in0.0 mm 0.00 in0.0 mm
06:24 PM 37.2°F2.9°C 28.0°F-2.2°C 69% Calm Calm -- 30.35 in1027.8 mb 0.00 in0.0 mm 0.00 in0.0 mm 0.00 in0.0 mm
06:25 PM 37.2°F2.9°C 28.0°F-2.2°C 69% Calm Calm -- 30.35 in1027.8 mb 0.00 in0.0 mm 0.00 in0.0 mm 0.00 in0.0 mm
06:27 PM 37.2°F2.9°C 28.0°F-2.2°C 69% Calm Calm -- 30.36 in1028.1 mb 0.00 in0.0 mm 0.00 in0.0 mm 0.00 in0.0 mm
06:29 PM 37.2°F2.9°C 28.3°F-2.1°C 70% Calm Calm -- 30.36 in1028.1 mb 0.00 in0.0 mm 0.00 in0.0 mm 0.00 in0.0 mm
06:30 PM 37.1°F2.8°C 27.9°F-2.3°C 69% Calm Calm -- 30.35 in1027.8 mb 0.00 in0.0 mm 0.00 in0.0 mm 0.00 in0.0 mm
06:31 PM 37.0°F2.8°C 27.8°F-2.3°C 69% Calm Calm -- 30.36 in1028.1 mb 0.00 in0.0 mm 0.00 in0.0 mm 0.00 in0.0 mm
06:33 PM 37.0°F2.8°C 28.1°F-2.2°C 70% Calm Calm -- 30.36 in1028.1 mb 0.00 in0.0 mm 0.00 in0.0 mm 0.00 in0.0 mm
06:35 PM 36.9°F2.7°C 28.0°F-2.2°C 70% Calm Calm -- 30.36 in1028.1 mb 0.00 in0.0 mm 0.00 in0.0 mm 0.00 in0.0 mm
06:37 PM 36.8°F2.7°C 28.0°F-2.2°C 70% Calm Calm -- 30.35 in1027.8 mb 0.00 in0.0 mm 0.00 in0.0 mm 0.00 in0.0 mm
06:40 PM 36.8°F2.7°C 28.0°F-2.2°C 70% Calm Calm -- 30.35 in1027.8 mb 0.00 in0.0 mm 0.00 in0.0 mm 0.00 in0.0 mm
06:42 PM 36.7°F2.6°C 27.9°F-2.3°C 70% Calm Calm -- 30.35 in1027.8 mb 0.00 in0.0 mm 0.00 in0.0 mm 0.00 in0.0 mm
06:44 PM 36.6°F2.6°C 28.1°F-2.2°C 71% Calm Calm -- 30.36 in1028.1 mb 0.00 in0.0 mm 0.00 in0.0 mm 0.00 in0.0 mm
06:45 PM 36.6°F2.6°C 28.1°F-2.2°C 71% Calm Calm -- 30.35 in1027.8 mb 0.00 in0.0 mm 0.00 in0.0 mm 0.00 in0.0 mm
06:46 PM 36.6°F2.6°C 28.1°F-2.2°C 71% Calm Calm -- 30.36 in1028.1 mb 0.00 in0.0 mm 0.00 in0.0 mm 0.00 in0.0 mm
06:49 PM 36.5°F2.5°C 28.4°F-2.0°C 72% Calm Calm -- 30.35 in1027.8 mb 0.00 in0.0 mm 0.00 in0.0 mm 0.00 in0.0 mm
06:50 PM 36.4°F2.4°C 28.2°F-2.1°C 72% Calm Calm -- 30.35 in1027.8 mb 0.00 in0.0 mm 0.00 in0.0 mm 0.00 in0.0 mm
06:51 PM 36.4°F2.4°C 28.3°F-2.1°C 72% 1.0 mph N1.6 kmh N 1.0 mph1.6 kmh 30.35 in1027.8 mb 0.00 in0.0 mm 0.00 in0.0 mm 0.00 in0.0 mm
06:53 PM 36.3°F2.4°C 27.8°F-2.3°C 71% Calm Calm -- 30.36 in1028.1 mb 0.00 in0.0 mm 0.00 in0.0 mm 0.00 in0.0 mm
06:55 PM 36.3°F2.4°C 28.2°F-2.1°C 72% Calm Calm -- 30.35 in1027.8 mb 0.00 in0.0 mm 0.00 in0.0 mm 0.00 in0.0 mm
06:57 PM 36.2°F2.3°C 28.4°F-2.0°C 73% Calm Calm -- 30.35 in1027.8 mb 0.00 in0.0 mm 0.00 in0.0 mm 0.00 in0.0 mm
06:59 PM 36.2°F2.3°C 28.1°F-2.2°C 72% Calm Calm -- 30.35 in1027.8 mb 0.00 in0.0 mm 0.00 in0.0 mm 0.00 in0.0 mm
07:00 PM 36.1°F2.3°C 28.0°F-2.2°C 72% Calm Calm -- 30.35 in1027.8 mb 0.00 in0.0 mm 0.00 in0.0 mm 0.00 in0.0 mm
07:01 PM 36.1°F2.3°C 28.0°F-2.2°C 72% Calm Calm -- 30.35 in1027.8 mb 0.00 in0.0 mm 0.00 in0.0 mm 0.00 in0.0 mm
07:03 PM 36.1°F2.3°C 28.0°F-2.2°C 72% Calm Calm -- 30.35 in1027.8 mb 0.00 in0.0 mm 0.00 in0.0 mm 0.00 in0.0 mm
07:05 PM 36.1°F2.3°C 28.0°F-2.2°C 72% Calm Calm -- 30.35 in1027.8 mb 0.00 in0.0 mm 0.00 in0.0 mm 0.00 in0.0 mm
07:06 PM 36.1°F2.3°C 28.0°F-2.2°C 72% Calm Calm -- 30.35 in1027.8 mb 0.00 in0.0 mm 0.00 in0.0 mm 0.00 in0.0 mm
07:08 PM 36.0°F2.2°C 27.9°F-2.3°C 72% Calm Calm -- 30.35 in1027.8 mb 0.00 in0.0 mm 0.00 in0.0 mm 0.00 in0.0 mm
07:10 PM 36.0°F2.2°C 27.9°F-2.3°C 72% Calm Calm -- 30.35 in1027.8 mb 0.00 in0.0 mm 0.00 in0.0 mm 0.00 in0.0 mm
07:12 PM 35.9°F2.2°C 28.1°F-2.2°C 73% Calm Calm -- 30.35 in1027.8 mb 0.00 in0.0 mm 0.00 in0.0 mm 0.00 in0.0 mm
07:15 PM 35.8°F2.1°C 28.0°F-2.2°C 73% Calm Calm -- 30.35 in1027.8 mb 0.00 in0.0 mm 0.00 in0.0 mm 0.00 in0.0 mm
07:17 PM 35.6°F2.0°C 27.8°F-2.3°C 73% Calm Calm -- 30.35 in1027.8 mb 0.00 in0.0 mm 0.00 in0.0 mm 0.00 in0.0 mm
07:19 PM 35.6°F2.0°C 27.8°F-2.3°C 73% Calm Calm -- 30.35 in1027.8 mb 0.00 in0.0 mm 0.00 in0.0 mm 0.00 in0.0 mm
07:20 PM 35.5°F1.9°C 27.7°F-2.4°C 73% Calm Calm -- 30.34 in1027.4 mb 0.00 in0.0 mm 0.00 in0.0 mm 0.00 in0.0 mm
07:21 PM 35.5°F1.9°C 27.7°F-2.4°C 73% Calm Calm -- 30.35 in1027.8 mb 0.00 in0.0 mm 0.00 in0.0 mm 0.00 in0.0 mm
07:23 PM 35.3°F1.8°C 27.9°F-2.3°C 74% Calm Calm -- 30.35 in1027.8 mb 0.00 in0.0 mm 0.00 in0.0 mm 0.00 in0.0 mm
07:25 PM 35.3°F1.8°C 27.9°F-2.3°C 74% Calm Calm -- 30.34 in1027.4 mb 0.00 in0.0 mm 0.00 in0.0 mm 0.00 in0.0 mm
07:26 PM 35.2°F1.8°C 27.8°F-2.3°C 74% Calm Calm -- 30.35 in1027.8 mb 0.00 in0.0 mm 0.00 in0.0 mm 0.00 in0.0 mm
07:28 PM 35.1°F1.7°C 27.7°F-2.4°C 74% Calm Calm -- 30.34 in1027.4 mb 0.00 in0.0 mm 0.00 in0.0 mm 0.00 in0.0 mm
07:30 PM 35.0°F1.7°C 27.6°F-2.4°C 74% Calm Calm -- 30.34 in1027.4 mb 0.00 in0.0 mm 0.00 in0.0 mm 0.00 in0.0 mm
07:32 PM 35.0°F1.7°C 27.6°F-2.4°C 74% Calm Calm -- 30.34 in1027.4 mb 0.00 in0.0 mm 0.00 in0.0 mm 0.00 in0.0 mm
07:34 PM 35.0°F1.7°C 27.6°F-2.4°C 74% Calm Calm -- 30.34 in1027.4 mb 0.00 in0.0 mm 0.00 in0.0 mm 0.00 in0.0 mm
07:35 PM 34.9°F1.6°C 27.5°F-2.5°C 74% Calm Calm -- 30.34 in1027.4 mb 0.00 in0.0 mm 0.00 in0.0 mm 0.00 in0.0 mm
07:36 PM 34.9°F1.6°C 27.5°F-2.5°C 74% Calm Calm -- 30.34 in1027.4 mb 0.00 in0.0 mm 0.00 in0.0 mm 0.00 in0.0 mm
07:39 PM 34.8°F1.6°C 27.4°F-2.6°C 74% Calm Calm -- 30.34 in1027.4 mb 0.00 in0.0 mm 0.00 in0.0 mm 0.00 in0.0 mm
07:40 PM 34.8°F1.6°C 27.7°F-2.4°C 75% Calm Calm -- 30.34 in1027.4 mb 0.00 in0.0 mm 0.00 in0.0 mm 0.00 in0.0 mm
07:41 PM 34.7°F1.5°C 27.6°F-2.4°C 75% Calm Calm -- 30.34 in1027.4 mb 0.00 in0.0 mm 0.00 in0.0 mm 0.00 in0.0 mm
07:43 PM 34.7°F1.5°C 27.6°F-2.4°C 75% Calm Calm -- 30.34 in1027.4 mb 0.00 in0.0 mm 0.00 in0.0 mm 0.00 in0.0 mm
07:45 PM 34.6°F1.4°C 27.5°F-2.5°C 75% Calm Calm -- 30.34 in1027.4 mb 0.00 in0.0 mm 0.00 in0.0 mm 0.00 in0.0 mm
07:48 PM 34.6°F1.4°C 27.5°F-2.5°C 75% Calm Calm -- 30.34 in1027.4 mb 0.00 in0.0 mm 0.00 in0.0 mm 0.00 in0.0 mm
07:50 PM 34.5°F1.4°C 27.4°F-2.6°C 75% Calm Calm -- 30.34 in1027.4 mb 0.00 in0.0 mm 0.00 in0.0 mm 0.00 in0.0 mm
07:52 PM 34.5°F1.4°C 27.4°F-2.6°C 75% Calm Calm -- 30.34 in1027.4 mb 0.00 in0.0 mm 0.00 in0.0 mm 0.00 in0.0 mm
07:54 PM 34.4°F1.3°C 27.3°F-2.6°C 75% Calm Calm -- 30.34 in1027.4 mb 0.00 in0.0 mm 0.00 in0.0 mm 0.00 in0.0 mm
07:55 PM 34.4°F1.3°C 27.3°F-2.6°C 75% Calm Calm -- 30.34 in1027.4 mb 0.00 in0.0 mm 0.00 in0.0 mm 0.00 in0.0 mm
07:57 PM 34.4°F1.3°C 28.0°F-2.2°C 77% Calm Calm -- 30.34 in1027.4 mb 0.00 in0.0 mm 0.00 in0.0 mm 0.00 in0.0 mm
07:59 PM 34.3°F1.3°C 27.9°F-2.3°C 77% Calm Calm -- 30.34 in1027.4 mb 0.00 in0.0 mm 0.00 in0.0 mm 0.00 in0.0 mm
08:00 PM 34.3°F1.3°C 27.9°F-2.3°C 77% Calm Calm -- 30.34 in1027.4 mb 0.00 in0.0 mm 0.00 in0.0 mm 0.00 in0.0 mm
08:01 PM 34.3°F1.3°C 27.9°F-2.3°C 77% Calm Calm -- 30.34 in1027.4 mb 0.00 in0.0 mm 0.00 in0.0 mm 0.00 in0.0 mm
08:03 PM 34.2°F1.2°C 27.4°F-2.6°C 76% Calm Calm -- 30.34 in1027.4 mb 0.00 in0.0 mm 0.00 in0.0 mm 0.00 in0.0 mm
08:05 PM 34.1°F1.2°C 27.3°F-2.6°C 76% Calm Calm -- 30.34 in1027.4 mb 0.00 in0.0 mm 0.00 in0.0 mm 0.00 in0.0 mm
08:08 PM 34.0°F1.1°C 27.6°F-2.4°C 77% Calm Calm -- 30.34 in1027.4 mb 0.00 in0.0 mm 0.00 in0.0 mm 0.00 in0.0 mm
08:10 PM 33.9°F1.1°C 27.5°F-2.5°C 77% Calm Calm -- 30.34 in1027.4 mb 0.00 in0.0 mm 0.00 in0.0 mm 0.00 in0.0 mm
08:12 PM 33.8°F1.0°C 27.4°F-2.6°C 77% Calm Calm -- 30.34 in1027.4 mb 0.00 in0.0 mm 0.00 in0.0 mm 0.00 in0.0 mm
08:14 PM 33.7°F0.9°C 27.3°F-2.6°C 77% Calm Calm -- 30.34 in1027.4 mb 0.00 in0.0 mm 0.00 in0.0 mm 0.00 in0.0 mm
08:15 PM 33.7°F0.9°C 27.3°F-2.6°C 77% Calm Calm -- 30.34 in1027.4 mb 0.00 in0.0 mm 0.00 in0.0 mm 0.00 in0.0 mm
08:16 PM 33.7°F0.9°C 27.6°F-2.4°C 78% Calm Calm -- 30.34 in1027.4 mb 0.00 in0.0 mm 0.00 in0.0 mm 0.00 in0.0 mm
08:19 PM 33.6°F0.9°C 27.5°F-2.5°C 78% Calm Calm -- 30.34 in1027.4 mb 0.00 in0.0 mm 0.00 in0.0 mm 0.00 in0.0 mm
08:20 PM 33.7°F0.9°C 27.6°F-2.4°C 78% Calm Calm -- 30.34 in1027.4 mb 0.00 in0.0 mm 0.00 in0.0 mm 0.00 in0.0 mm
08:21 PM 33.6°F0.9°C 27.5°F-2.5°C 78% Calm Calm -- 30.34 in1027.4 mb 0.00 in0.0 mm 0.00 in0.0 mm 0.00 in0.0 mm
08:23 PM 33.6°F0.9°C 27.5°F-2.5°C 78% Calm Calm -- 30.34 in1027.4 mb 0.00 in0.0 mm 0.00 in0.0 mm 0.00 in0.0 mm
08:25 PM 33.5°F0.8°C 27.7°F-2.4°C 79% Calm Calm -- 30.34 in1027.4 mb 0.00 in0.0 mm 0.00 in0.0 mm 0.00 in0.0 mm
08:26 PM 33.6°F0.9°C 27.8°F-2.3°C 79% Calm Calm -- 30.34 in1027.4 mb 0.00 in0.0 mm 0.00 in0.0 mm 0.00 in0.0 mm
08:28 PM 33.6°F0.9°C 27.5°F-2.5°C 78% Calm Calm -- 30.34 in1027.4 mb 0.00 in0.0 mm 0.00 in0.0 mm 0.00 in0.0 mm
08:30 PM 33.5°F0.8°C 27.4°F-2.6°C 78% Calm Calm -- 30.34 in1027.4 mb 0.00 in0.0 mm 0.00 in0.0 mm 0.00 in0.0 mm
08:32 PM 33.5°F0.8°C 27.7°F-2.4°C 79% Calm Calm -- 30.34 in1027.4 mb 0.00 in0.0 mm 0.00 in0.0 mm 0.00 in0.0 mm
08:34 PM 33.4°F0.8°C 27.3°F-2.6°C 78% Calm Calm -- 30.34 in1027.4 mb 0.00 in0.0 mm 0.00 in0.0 mm 0.00 in0.0 mm
08:35 PM 33.5°F0.8°C 27.4°F-2.6°C 78% Calm Calm -- 30.33 in1027.1 mb 0.00 in0.0 mm 0.00 in0.0 mm 0.00 in0.0 mm
08:36 PM 33.5°F0.8°C 28.0°F-2.2°C 80% Calm Calm -- 30.34 in1027.4 mb 0.00 in0.0 mm 0.00 in0.0 mm 0.00 in0.0 mm
08:39 PM 33.5°F0.8°C 28.0°F-2.2°C 80% Calm Calm -- 30.34 in1027.4 mb 0.00 in0.0 mm 0.00 in0.0 mm 0.00 in0.0 mm
08:40 PM 33.5°F0.8°C 28.0°F-2.2°C 80% Calm Calm -- 30.33 in1027.1 mb 0.00 in0.0 mm 0.00 in0.0 mm 0.00 in0.0 mm
08:41 PM 33.5°F0.8°C 28.0°F-2.2°C 80% Calm Calm -- 30.34 in1027.4 mb 0.00 in0.0 mm 0.00 in0.0 mm 0.00 in0.0 mm
08:43 PM 33.5°F0.8°C 27.7°F-2.4°C 79% Calm Calm -- 30.34 in1027.4 mb 0.00 in0.0 mm 0.00 in0.0 mm 0.00 in0.0 mm
08:45 PM 33.4°F0.8°C 27.9°F-2.3°C 80% Calm Calm -- 30.33 in1027.1 mb 0.00 in0.0 mm 0.00 in0.0 mm 0.00 in0.0 mm
08:47 PM 33.4°F0.8°C 27.9°F-2.3°C 80% Calm Calm -- 30.34 in1027.4 mb 0.00 in0.0 mm 0.00 in0.0 mm 0.00 in0.0 mm
08:50 PM 33.3°F0.7°C 27.8°F-2.3°C 80% Calm Calm -- 30.34 in1027.4 mb 0.00 in0.0 mm 0.00 in0.0 mm 0.00 in0.0 mm
08:52 PM 33.2°F0.7°C 27.7°F-2.4°C 80% Calm Calm -- 30.34 in1027.4 mb 0.00 in0.0 mm 0.00 in0.0 mm 0.00 in0.0 mm
08:54 PM 33.2°F0.7°C 27.7°F-2.4°C 80% Calm Calm -- 30.34 in1027.4 mb 0.00 in0.0 mm 0.00 in0.0 mm 0.00 in0.0 mm
08:56 PM 33.1°F0.6°C 27.6°F-2.4°C 80% Calm Calm -- 30.34 in1027.4 mb 0.00 in0.0 mm 0.00 in0.0 mm 0.00 in0.0 mm
08:58 PM 33.0°F0.6°C 27.5°F-2.5°C 80% Calm Calm -- 30.33 in1027.1 mb 0.00 in0.0 mm 0.00 in0.0 mm 0.00 in0.0 mm
08:59 PM 33.0°F0.6°C 27.5°F-2.5°C 80% Calm Calm -- 30.33 in1027.1 mb 0.00 in0.0 mm 0.00 in0.0 mm 0.00 in0.0 mm
09:01 PM 33.0°F0.6°C 27.5°F-2.5°C 80% Calm Calm -- 30.34 in1027.4 mb 0.00 in0.0 mm 0.00 in0.0 mm 0.00 in0.0 mm
09:03 PM 32.9°F0.5°C 27.4°F-2.6°C 80% Calm Calm -- 30.33 in1027.1 mb 0.00 in0.0 mm 0.00 in0.0 mm 0.00 in0.0 mm
09:04 PM 32.8°F0.4°C 27.3°F-2.6°C 80% Calm Calm -- 30.33 in1027.1 mb 0.00 in0.0 mm 0.00 in0.0 mm 0.00 in0.0 mm
09:05 PM 32.8°F0.4°C 27.3°F-2.6°C 80% Calm Calm -- 30.33 in1027.1 mb 0.00 in0.0 mm 0.00 in0.0 mm 0.00 in0.0 mm
09:07 PM 32.8°F0.4°C 27.3°F-2.6°C 80% Calm Calm -- 30.33 in1027.1 mb 0.00 in0.0 mm 0.00 in0.0 mm 0.00 in0.0 mm
09:09 PM 32.8°F0.4°C 27.3°F-2.6°C 80% Calm Calm -- 30.33 in1027.1 mb 0.00 in0.0 mm 0.00 in0.0 mm 0.00 in0.0 mm
09:12 PM 32.7°F0.4°C 27.5°F-2.5°C 81% Calm Calm -- 30.33 in1027.1 mb 0.00 in0.0 mm 0.00 in0.0 mm 0.00 in0.0 mm
09:14 PM 32.6°F0.3°C 27.4°F-2.6°C 81% Calm Calm -- 30.33 in1027.1 mb 0.00 in0.0 mm 0.00 in0.0 mm 0.00 in0.0 mm
09:16 PM 32.6°F0.3°C 27.4°F-2.6°C 81% Calm Calm -- 30.33 in1027.1 mb 0.00 in0.0 mm 0.00 in0.0 mm 0.00 in0.0 mm
09:18 PM 32.6°F0.3°C 27.7°F-2.4°C 82% Calm Calm -- 30.33 in1027.1 mb 0.00 in0.0 mm 0.00 in0.0 mm 0.00 in0.0 mm
09:19 PM 32.5°F0.3°C 27.6°F-2.4°C 82% Calm Calm -- 30.32 in1026.8 mb 0.00 in0.0 mm 0.00 in0.0 mm 0.00 in0.0 mm
09:20 PM 32.5°F0.3°C 27.6°F-2.4°C 82% Calm Calm -- 30.33 in1027.1 mb 0.00 in0.0 mm 0.00 in0.0 mm 0.00 in0.0 mm
09:23 PM 32.5°F0.3°C 27.9°F-2.3°C 83% Calm Calm -- 30.33 in1027.1 mb 0.00 in0.0 mm 0.00 in0.0 mm 0.00 in0.0 mm
09:24 PM 32.5°F0.3°C 27.6°F-2.4°C 82% Calm Calm -- 30.33 in1027.1 mb 0.00 in0.0 mm 0.00 in0.0 mm 0.00 in0.0 mm
09:25 PM 32.5°F0.3°C 27.6°F-2.4°C 82% Calm Calm -- 30.33 in1027.1 mb 0.00 in0.0 mm 0.00 in0.0 mm 0.00 in0.0 mm
09:27 PM 32.4°F0.2°C 28.1°F-2.2°C 84% Calm Calm -- 30.33 in1027.1 mb 0.00 in0.0 mm 0.00 in0.0 mm 0.00 in0.0 mm
09:29 PM 32.3°F0.2°C 28.3°F-2.1°C 85% Calm Calm -- 30.33 in1027.1 mb 0.00 in0.0 mm 0.00 in0.0 mm 0.00 in0.0 mm
09:30 PM 32.3°F0.2°C 28.3°F-2.1°C 85% Calm Calm -- 30.33 in1027.1 mb 0.00 in0.0 mm 0.00 in0.0 mm 0.00 in0.0 mm
09:32 PM 32.2°F0.1°C 27.9°F-2.3°C 84% Calm Calm -- 30.33 in1027.1 mb 0.00 in0.0 mm 0.00 in0.0 mm 0.00 in0.0 mm
09:34 PM 32.1°F0.1°C 27.8°F-2.3°C 84% Calm Calm -- 30.33 in1027.1 mb 0.00 in0.0 mm 0.00 in0.0 mm 0.00 in0.0 mm
09:36 PM 32.0°F0.0°C 28.0°F-2.2°C 85% Calm Calm -- 30.33 in1027.1 mb 0.00 in0.0 mm 0.00 in0.0 mm 0.00 in0.0 mm
09:39 PM 31.9°F-0.1°C 27.6°F-2.4°C 84% Calm Calm -- 30.33 in1027.1 mb 0.00 in0.0 mm 0.00 in0.0 mm 0.00 in0.0 mm
09:41 PM 31.8°F-0.1°C 27.5°F-2.5°C 84% Calm Calm -- 30.33 in1027.1 mb 0.00 in0.0 mm 0.00 in0.0 mm 0.00 in0.0 mm
09:43 PM 31.7°F-0.2°C 27.4°F-2.6°C 84% Calm Calm -- 30.33 in1027.1 mb 0.00 in0.0 mm 0.00 in0.0 mm 0.00 in0.0 mm
09:44 PM 31.7°F-0.2°C 27.7°F-2.4°C 85% Calm Calm -- 30.32 in1026.8 mb 0.00 in0.0 mm 0.00 in0.0 mm 0.00 in0.0 mm
09:45 PM 31.6°F-0.2°C 27.6°F-2.4°C 85% Calm Calm -- 30.33 in1027.1 mb 0.00 in0.0 mm 0.00 in0.0 mm 0.00 in0.0 mm
09:47 PM 31.6°F-0.2°C 27.6°F-2.4°C 85% Calm Calm -- 30.33 in1027.1 mb 0.00 in0.0 mm 0.00 in0.0 mm 0.00 in0.0 mm
09:49 PM 31.5°F-0.3°C 27.2°F-2.7°C 84% Calm Calm -- 30.32 in1026.8 mb 0.00 in0.0 mm 0.00 in0.0 mm 0.00 in0.0 mm
09:50 PM 31.5°F-0.3°C 27.2°F-2.7°C 84% Calm Calm -- 30.33 in1027.1 mb 0.00 in0.0 mm 0.00 in0.0 mm 0.00 in0.0 mm
09:52 PM 31.4°F-0.3°C 27.1°F-2.7°C 84% Calm Calm -- 30.33 in1027.1 mb 0.00 in0.0 mm 0.00 in0.0 mm 0.00 in0.0 mm
09:54 PM 31.4°F-0.3°C 27.1°F-2.7°C 84% Calm Calm -- 30.32 in1026.8 mb 0.00 in0.0 mm 0.00 in0.0 mm 0.00 in0.0 mm
09:55 PM 31.4°F-0.3°C 27.1°F-2.7°C 84% Calm Calm -- 30.33 in1027.1 mb 0.00 in0.0 mm 0.00 in0.0 mm 0.00 in0.0 mm
09:57 PM 31.2°F-0.4°C 26.9°F-2.8°C 84% Calm Calm -- 30.33 in1027.1 mb 0.00 in0.0 mm 0.00 in0.0 mm 0.00 in0.0 mm
09:59 PM 31.2°F-0.4°C 26.9°F-2.8°C 84% Calm Calm -- 30.32 in1026.8 mb 0.00 in0.0 mm 0.00 in0.0 mm 0.00 in0.0 mm
10:01 PM 31.1°F-0.5°C 27.1°F-2.7°C 85% Calm Calm -- 30.33 in1027.1 mb 0.00 in0.0 mm 0.00 in0.0 mm 0.00 in0.0 mm
10:04 PM 31.0°F-0.6°C 27.0°F-2.8°C 85% Calm Calm -- 30.33 in1027.1 mb 0.00 in0.0 mm 0.00 in0.0 mm 0.00 in0.0 mm
10:06 PM 30.9°F-0.6°C 27.2°F-2.7°C 86% Calm Calm -- 30.32 in1026.8 mb 0.00 in0.0 mm 0.00 in0.0 mm 0.00 in0.0 mm
10:08 PM 30.8°F-0.7°C 27.1°F-2.7°C 86% Calm Calm -- 30.33 in1027.1 mb 0.00 in0.0 mm 0.00 in0.0 mm 0.00 in0.0 mm
10:09 PM 30.9°F-0.6°C 27.2°F-2.7°C 86% Calm Calm -- 30.32 in1026.8 mb 0.00 in0.0 mm 0.00 in0.0 mm 0.00 in0.0 mm
10:10 PM 30.9°F-0.6°C 27.2°F-2.7°C 86% Calm Calm -- 30.32 in1026.8 mb 0.00 in0.0 mm 0.00 in0.0 mm 0.00 in0.0 mm
10:12 PM 30.8°F-0.7°C 27.1°F-2.7°C 86% Calm Calm -- 30.32 in1026.8 mb 0.00 in0.0 mm 0.00 in0.0 mm 0.00 in0.0 mm
10:14 PM 30.9°F-0.6°C 27.2°F-2.7°C 86% Calm Calm -- 30.32 in1026.8 mb 0.00 in0.0 mm 0.00 in0.0 mm 0.00 in0.0 mm
10:17 PM 30.9°F-0.6°C 27.2°F-2.7°C 86% Calm Calm -- 30.32 in1026.8 mb 0.00 in0.0 mm 0.00 in0.0 mm 0.00 in0.0 mm
10:19 PM 30.9°F-0.6°C 27.2°F-2.7°C 86% Calm Calm -- 30.32 in1026.8 mb 0.00 in0.0 mm 0.00 in0.0 mm 0.00 in0.0 mm
10:21 PM 31.0°F-0.6°C 27.3°F-2.6°C 86% Calm Calm -- 30.32 in1026.8 mb 0.00 in0.0 mm 0.00 in0.0 mm 0.00 in0.0 mm
10:23 PM 31.0°F-0.6°C 27.3°F-2.6°C 86% Calm Calm -- 30.32 in1026.8 mb 0.00 in0.0 mm 0.00 in0.0 mm 0.00 in0.0 mm
10:24 PM 30.9°F-0.6°C 27.2°F-2.7°C 86% Calm Calm -- 30.32 in1026.8 mb 0.00 in0.0 mm 0.00 in0.0 mm 0.00 in0.0 mm
10:25 PM 30.9°F-0.6°C 26.9°F-2.8°C 85% Calm Calm -- 30.32 in1026.8 mb 0.00 in0.0 mm 0.00 in0.0 mm 0.00 in0.0 mm
10:27 PM 30.9°F-0.6°C 26.9°F-2.8°C 85% Calm Calm -- 30.32 in1026.8 mb 0.00 in0.0 mm 0.00 in0.0 mm 0.00 in0.0 mm
10:29 PM 30.9°F-0.6°C 27.2°F-2.7°C 86% Calm Calm -- 30.32 in1026.8 mb 0.00 in0.0 mm 0.00 in0.0 mm 0.00 in0.0 mm
10:30 PM 30.9°F-0.6°C 27.2°F-2.7°C 86% Calm Calm -- 30.32 in1026.8 mb 0.00 in0.0 mm 0.00 in0.0 mm 0.00 in0.0 mm
10:32 PM 30.9°F-0.6°C 27.2°F-2.7°C 86% Calm Calm -- 30.32 in1026.8 mb 0.00 in0.0 mm 0.00 in0.0 mm 0.00 in0.0 mm
10:34 PM 30.9°F-0.6°C 27.2°F-2.7°C 86% Calm Calm -- 30.31 in1026.4 mb 0.00 in0.0 mm 0.00 in0.0 mm 0.00 in0.0 mm
10:36 PM 31.0°F-0.6°C 27.3°F-2.6°C 86% Calm Calm -- 30.32 in1026.8 mb 0.00 in0.0 mm 0.00 in0.0 mm 0.00 in0.0 mm
10:39 PM 31.0°F-0.6°C 27.3°F-2.6°C 86% Calm Calm -- 30.32 in1026.8 mb 0.00 in0.0 mm 0.00 in0.0 mm 0.00 in0.0 mm
10:41 PM 31.0°F-0.6°C 27.3°F-2.6°C 86% Calm Calm -- 30.32 in1026.8 mb 0.00 in0.0 mm 0.00 in0.0 mm 0.00 in0.0 mm
10:43 PM 31.0°F-0.6°C 27.3°F-2.6°C 86% Calm Calm -- 30.32 in1026.8 mb 0.00 in0.0 mm 0.00 in0.0 mm 0.00 in0.0 mm
10:44 PM 31.0°F-0.6°C 27.3°F-2.6°C 86% Calm Calm -- 30.32 in1026.8 mb 0.00 in0.0 mm 0.00 in0.0 mm 0.00 in0.0 mm
10:45 PM 31.0°F-0.6°C 27.0°F-2.8°C 85% Calm Calm -- 30.32 in1026.8 mb 0.00 in0.0 mm 0.00 in0.0 mm 0.00 in0.0 mm
10:47 PM 30.9°F-0.6°C 26.9°F-2.8°C 85% Calm Calm -- 30.32 in1026.8 mb 0.00 in0.0 mm 0.00 in0.0 mm 0.00 in0.0 mm
10:49 PM 30.9°F-0.6°C 26.9°F-2.8°C 85% Calm Calm -- 30.31 in1026.4 mb 0.00 in0.0 mm 0.00 in0.0 mm 0.00 in0.0 mm
10:51 PM 30.9°F-0.6°C 26.9°F-2.8°C 85% Calm Calm -- 30.31 in1026.4 mb 0.00 in0.0 mm 0.00 in0.0 mm 0.00 in0.0 mm
10:54 PM 30.8°F-0.7°C 27.1°F-2.7°C 86% Calm Calm -- 30.31 in1026.4 mb 0.00 in0.0 mm 0.00 in0.0 mm 0.00 in0.0 mm
10:56 PM 30.9°F-0.6°C 27.2°F-2.7°C 86% Calm Calm -- 30.31 in1026.4 mb 0.00 in0.0 mm 0.00 in0.0 mm 0.00 in0.0 mm
10:58 PM 30.8°F-0.7°C 27.1°F-2.7°C 86% Calm Calm -- 30.31 in1026.4 mb 0.00 in0.0 mm 0.00 in0.0 mm 0.00 in0.0 mm
10:59 PM 30.8°F-0.7°C 27.1°F-2.7°C 86% Calm Calm -- 30.31 in1026.4 mb 0.00 in0.0 mm 0.00 in0.0 mm 0.00 in0.0 mm
11:00 PM 30.8°F-0.7°C 27.1°F-2.7°C 86% Calm Calm -- 30.31 in1026.4 mb 0.00 in0.0 mm 0.00 in0.0 mm 0.00 in0.0 mm
11:03 PM 30.8°F-0.7°C 27.1°F-2.7°C 86% Calm Calm -- 30.31 in1026.4 mb 0.00 in0.0 mm 0.00 in0.0 mm 0.00 in0.0 mm
11:04 PM 30.8°F-0.7°C 27.1°F-2.7°C 86% Calm Calm -- 30.31 in1026.4 mb 0.00 in0.0 mm 0.00 in0.0 mm 0.00 in0.0 mm
11:05 PM 30.8°F-0.7°C 27.1°F-2.7°C 86% Calm Calm -- 30.31 in1026.4 mb 0.00 in0.0 mm 0.00 in0.0 mm 0.00 in0.0 mm
11:07 PM 30.7°F-0.7°C 27.0°F-2.8°C 86% Calm Calm -- 30.32 in1026.8 mb 0.00 in0.0 mm 0.00 in0.0 mm 0.00 in0.0 mm
11:09 PM 30.7°F-0.7°C 27.0°F-2.8°C 86% Calm Calm -- 30.31 in1026.4 mb 0.00 in0.0 mm 0.00 in0.0 mm 0.00 in0.0 mm
11:11 PM 30.7°F-0.7°C 27.0°F-2.8°C 86% Calm Calm -- 30.31 in1026.4 mb 0.00 in0.0 mm 0.00 in0.0 mm 0.00 in0.0 mm
11:13 PM 30.7°F-0.7°C 27.0°F-2.8°C 86% Calm Calm -- 30.31 in1026.4 mb 0.00 in0.0 mm 0.00 in0.0 mm 0.00 in0.0 mm
11:14 PM 30.7°F-0.7°C 27.0°F-2.8°C 86% Calm Calm -- 30.31 in1026.4 mb 0.00 in0.0 mm 0.00 in0.0 mm 0.00 in0.0 mm
11:15 PM 30.7°F-0.7°C 27.0°F-2.8°C 86% Calm Calm -- 30.31 in1026.4 mb 0.00 in0.0 mm 0.00 in0.0 mm 0.00 in0.0 mm
11:18 PM 30.7°F-0.7°C 27.0°F-2.8°C 86% Calm Calm -- 30.31 in1026.4 mb 0.00 in0.0 mm 0.00 in0.0 mm 0.00 in0.0 mm
11:19 PM 30.7°F-0.7°C 27.0°F-2.8°C 86% Calm Calm -- 30.31 in1026.4 mb 0.00 in0.0 mm 0.00 in0.0 mm 0.00 in0.0 mm
11:20 PM 30.7°F-0.7°C 27.0°F-2.8°C 86% Calm Calm -- 30.31 in1026.4 mb 0.00 in0.0 mm 0.00 in0.0 mm 0.00 in0.0 mm
11:23 PM 30.7°F-0.7°C 27.3°F-2.6°C 87% Calm Calm -- 30.31 in1026.4 mb 0.00 in0.0 mm 0.00 in0.0 mm 0.00 in0.0 mm
11:25 PM 30.8°F-0.7°C 27.4°F-2.6°C 87% Calm Calm -- 30.31 in1026.4 mb 0.00 in0.0 mm 0.00 in0.0 mm 0.00 in0.0 mm
11:27 PM 30.8°F-0.7°C 27.4°F-2.6°C 87% Calm Calm -- 30.31 in1026.4 mb 0.00 in0.0 mm 0.00 in0.0 mm 0.00 in0.0 mm
11:28 PM 30.7°F-0.7°C 27.3°F-2.6°C 87% Calm Calm -- 30.31 in1026.4 mb 0.00 in0.0 mm 0.00 in0.0 mm 0.00 in0.0 mm
11:29 PM 30.7°F-0.7°C 27.3°F-2.6°C 87% Calm Calm -- 30.31 in1026.4 mb 0.00 in0.0 mm 0.00 in0.0 mm 0.00 in0.0 mm
11:31 PM 30.7°F-0.7°C 27.3°F-2.6°C 87% Calm Calm -- 30.31 in1026.4 mb 0.00 in0.0 mm 0.00 in0.0 mm 0.00 in0.0 mm
11:33 PM 30.6°F-0.8°C 26.9°F-2.8°C 86% Calm Calm -- 30.31 in1026.4 mb 0.00 in0.0 mm 0.00 in0.0 mm 0.00 in0.0 mm
11:36 PM 30.5°F-0.8°C 27.1°F-2.7°C 87% Calm Calm -- 30.31 in1026.4 mb 0.00 in0.0 mm 0.00 in0.0 mm 0.00 in0.0 mm
11:38 PM 30.4°F-0.9°C 26.7°F-2.9°C 86% Calm Calm -- 30.31 in1026.4 mb 0.00 in0.0 mm 0.00 in0.0 mm 0.00 in0.0 mm
11:40 PM 30.4°F-0.9°C 27.0°F-2.8°C 87% Calm Calm -- 30.31 in1026.4 mb 0.00 in0.0 mm 0.00 in0.0 mm 0.00 in0.0 mm
11:42 PM 30.3°F-0.9°C 26.9°F-2.8°C 87% Calm Calm -- 30.31 in1026.4 mb 0.00 in0.0 mm 0.00 in0.0 mm 0.00 in0.0 mm
11:43 PM 30.3°F-0.9°C 26.9°F-2.8°C 87% Calm Calm -- 30.30 in1026.1 mb 0.00 in0.0 mm 0.00 in0.0 mm 0.00 in0.0 mm
11:44 PM 30.3°F-0.9°C 26.9°F-2.8°C 87% Calm Calm -- 30.31 in1026.4 mb 0.00 in0.0 mm 0.00 in0.0 mm 0.00 in0.0 mm
11:46 PM 30.2°F-1.0°C 26.8°F-2.9°C 87% Calm Calm -- 30.31 in1026.4 mb 0.00 in0.0 mm 0.00 in0.0 mm 0.00 in0.0 mm
11:48 PM 30.2°F-1.0°C 26.8°F-2.9°C 87% Calm Calm -- 30.30 in1026.1 mb 0.00 in0.0 mm 0.00 in0.0 mm 0.00 in0.0 mm
11:49 PM 30.2°F-1.0°C 26.8°F-2.9°C 87% Calm Calm -- 30.31 in1026.4 mb 0.00 in0.0 mm 0.00 in0.0 mm 0.00 in0.0 mm
11:51 PM 30.1°F-1.1°C 26.7°F-2.9°C 87% Calm Calm -- 30.31 in1026.4 mb 0.00 in0.0 mm 0.00 in0.0 mm 0.00 in0.0 mm
11:53 PM 30.1°F-1.1°C 26.7°F-2.9°C 87% Calm Calm -- 30.31 in1026.4 mb 0.00 in0.0 mm 0.00 in0.0 mm 0.00 in0.0 mm
11:55 PM 30.1°F-1.1°C 26.7°F-2.9°C 87% Calm Calm -- 30.31 in1026.4 mb 0.00 in0.0 mm 0.00 in0.0 mm 0.00 in0.0 mm
11:57 PM 30.0°F-1.1°C 26.6°F-3.0°C 87% Calm Calm -- 30.31 in1026.4 mb 0.00 in0.0 mm 0.00 in0.0 mm 0.00 in0.0 mm
11:58 PM 29.9°F-1.2°C 26.5°F-3.1°C 87% Calm Calm -- 30.30 in1026.1 mb 0.00 in0.0 mm 0.00 in0.0 mm 0.00 in0.0 mm
11:59 PM 29.9°F-1.2°C 26.2°F-3.2°C 86% Calm Calm -- 30.31 in1026.4 mb 0.00 in0.0 mm 0.00 in0.0 mm 0.00 in0.0 mm